<?xml version="1.0" encoding="UTF-8" standalone="no" ?>
<gpx xmlns="http://www.topografix.com/GPX/1/1" xmlns:xsi="http://www.w3.org/2001/XMLSchema-instance" xsi:schemaLocation="http://www.topografix.com/GPX/1/1 http://www.topografix.com/GPX/1/1/gpx.xsd" version="1.1" creator="VisuGPX - https://www.visugpx.com">
  <metadata>
    <name>baux de provence19-MARS-13 001</name>
  </metadata>
  <trk>
    <name><![CDATA[baux de provence19-MARS-13 001]]></name>
    <trkseg>
      <trkpt lat="43.74179" lon="4.79068">
        <ele>100.6</ele>
        <time>2013-03-19T08:54:06Z</time>
      </trkpt>
      <trkpt lat="43.7418" lon="4.79068">
        <ele>128.95</ele>
        <time>2013-03-19T08:54:07Z</time>
      </trkpt>
      <trkpt lat="43.7418" lon="4.79068">
        <ele>128.95</ele>
        <time>2013-03-19T08:54:08Z</time>
      </trkpt>
      <trkpt lat="43.7418" lon="4.79068">
        <ele>116.46</ele>
        <time>2013-03-19T08:54:09Z</time>
      </trkpt>
      <trkpt lat="43.7418" lon="4.79069">
        <ele>116.46</ele>
        <time>2013-03-19T08:54:10Z</time>
      </trkpt>
      <trkpt lat="43.74181" lon="4.7907">
        <ele>115.98</ele>
        <time>2013-03-19T08:54:29Z</time>
      </trkpt>
      <trkpt lat="43.74181" lon="4.7907">
        <ele>115.5</ele>
        <time>2013-03-19T08:54:53Z</time>
      </trkpt>
      <trkpt lat="43.74181" lon="4.79069">
        <ele>116.46</ele>
        <time>2013-03-19T08:55:17Z</time>
      </trkpt>
      <trkpt lat="43.74184" lon="4.79068">
        <ele>116.94</ele>
        <time>2013-03-19T08:55:23Z</time>
      </trkpt>
      <trkpt lat="43.74179" lon="4.79075">
        <ele>116.46</ele>
        <time>2013-03-19T08:55:36Z</time>
      </trkpt>
      <trkpt lat="43.7418" lon="4.7907">
        <ele>116.46</ele>
        <time>2013-03-19T08:55:51Z</time>
      </trkpt>
      <trkpt lat="43.74179" lon="4.79072">
        <ele>116.46</ele>
        <time>2013-03-19T08:56:07Z</time>
      </trkpt>
      <trkpt lat="43.74179" lon="4.79078">
        <ele>115.98</ele>
        <time>2013-03-19T08:56:29Z</time>
      </trkpt>
      <trkpt lat="43.7418" lon="4.79083">
        <ele>116.46</ele>
        <time>2013-03-19T08:56:57Z</time>
      </trkpt>
      <trkpt lat="43.74179" lon="4.79085">
        <ele>115.98</ele>
        <time>2013-03-19T08:57:19Z</time>
      </trkpt>
      <trkpt lat="43.74179" lon="4.79081">
        <ele>116.46</ele>
        <time>2013-03-19T08:57:47Z</time>
      </trkpt>
      <trkpt lat="43.74178" lon="4.79069">
        <ele>116.94</ele>
        <time>2013-03-19T08:58:05Z</time>
      </trkpt>
      <trkpt lat="43.74179" lon="4.79066">
        <ele>116.46</ele>
        <time>2013-03-19T08:58:17Z</time>
      </trkpt>
      <trkpt lat="43.74179" lon="4.79067">
        <ele>116.46</ele>
        <time>2013-03-19T08:58:42Z</time>
      </trkpt>
      <trkpt lat="43.7418" lon="4.79065">
        <ele>115.98</ele>
        <time>2013-03-19T08:58:56Z</time>
      </trkpt>
      <trkpt lat="43.7418" lon="4.7907">
        <ele>116.94</ele>
        <time>2013-03-19T08:59:11Z</time>
      </trkpt>
      <trkpt lat="43.74179" lon="4.79071">
        <ele>116.94</ele>
        <time>2013-03-19T08:59:30Z</time>
      </trkpt>
      <trkpt lat="43.74178" lon="4.79074">
        <ele>117.42</ele>
        <time>2013-03-19T08:59:55Z</time>
      </trkpt>
      <trkpt lat="43.74177" lon="4.79072">
        <ele>116.94</ele>
        <time>2013-03-19T09:00:24Z</time>
      </trkpt>
      <trkpt lat="43.74178" lon="4.79071">
        <ele>116.94</ele>
        <time>2013-03-19T09:00:48Z</time>
      </trkpt>
      <trkpt lat="43.74176" lon="4.79072">
        <ele>116.94</ele>
        <time>2013-03-19T09:01:04Z</time>
      </trkpt>
      <trkpt lat="43.74174" lon="4.79067">
        <ele>116.46</ele>
        <time>2013-03-19T09:01:29Z</time>
      </trkpt>
      <trkpt lat="43.74163" lon="4.79064">
        <ele>115.98</ele>
        <time>2013-03-19T09:01:48Z</time>
      </trkpt>
      <trkpt lat="43.74149" lon="4.79057">
        <ele>115.01</ele>
        <time>2013-03-19T09:02:06Z</time>
      </trkpt>
      <trkpt lat="43.7414" lon="4.79052">
        <ele>114.53</ele>
        <time>2013-03-19T09:02:17Z</time>
      </trkpt>
      <trkpt lat="43.74121" lon="4.79045">
        <ele>113.09</ele>
        <time>2013-03-19T09:02:36Z</time>
      </trkpt>
      <trkpt lat="43.74104" lon="4.79033">
        <ele>112.13</ele>
        <time>2013-03-19T09:02:54Z</time>
      </trkpt>
      <trkpt lat="43.74087" lon="4.7902">
        <ele>111.17</ele>
        <time>2013-03-19T09:03:12Z</time>
      </trkpt>
      <trkpt lat="43.74073" lon="4.79003">
        <ele>110.21</ele>
        <time>2013-03-19T09:03:30Z</time>
      </trkpt>
      <trkpt lat="43.74057" lon="4.78983">
        <ele>109.25</ele>
        <time>2013-03-19T09:03:49Z</time>
      </trkpt>
      <trkpt lat="43.7404" lon="4.78974">
        <ele>108.77</ele>
        <time>2013-03-19T09:04:06Z</time>
      </trkpt>
      <trkpt lat="43.74024" lon="4.78966">
        <ele>107.81</ele>
        <time>2013-03-19T09:04:22Z</time>
      </trkpt>
      <trkpt lat="43.74" lon="4.78961">
        <ele>106.36</ele>
        <time>2013-03-19T09:04:42Z</time>
      </trkpt>
      <trkpt lat="43.7398" lon="4.78962">
        <ele>106.36</ele>
        <time>2013-03-19T09:05:00Z</time>
      </trkpt>
      <trkpt lat="43.73975" lon="4.78964">
        <ele>105.4</ele>
        <time>2013-03-19T09:05:13Z</time>
      </trkpt>
      <trkpt lat="43.73972" lon="4.78976">
        <ele>105.4</ele>
        <time>2013-03-19T09:05:29Z</time>
      </trkpt>
      <trkpt lat="43.73966" lon="4.78984">
        <ele>106.36</ele>
        <time>2013-03-19T09:05:50Z</time>
      </trkpt>
      <trkpt lat="43.73957" lon="4.78998">
        <ele>107.32</ele>
        <time>2013-03-19T09:06:06Z</time>
      </trkpt>
      <trkpt lat="43.73948" lon="4.7902">
        <ele>109.25</ele>
        <time>2013-03-19T09:06:24Z</time>
      </trkpt>
      <trkpt lat="43.7394" lon="4.79039">
        <ele>109.73</ele>
        <time>2013-03-19T09:06:42Z</time>
      </trkpt>
      <trkpt lat="43.73936" lon="4.79055">
        <ele>110.69</ele>
        <time>2013-03-19T09:06:58Z</time>
      </trkpt>
      <trkpt lat="43.73933" lon="4.79082">
        <ele>111.65</ele>
        <time>2013-03-19T09:07:18Z</time>
      </trkpt>
      <trkpt lat="43.73928" lon="4.79103">
        <ele>112.13</ele>
        <time>2013-03-19T09:07:33Z</time>
      </trkpt>
      <trkpt lat="43.73925" lon="4.79127">
        <ele>112.61</ele>
        <time>2013-03-19T09:07:49Z</time>
      </trkpt>
      <trkpt lat="43.73922" lon="4.79152">
        <ele>113.09</ele>
        <time>2013-03-19T09:08:07Z</time>
      </trkpt>
      <trkpt lat="43.7392" lon="4.79175">
        <ele>113.09</ele>
        <time>2013-03-19T09:08:24Z</time>
      </trkpt>
      <trkpt lat="43.73917" lon="4.79186">
        <ele>113.57</ele>
        <time>2013-03-19T09:08:39Z</time>
      </trkpt>
      <trkpt lat="43.73916" lon="4.79188">
        <ele>114.05</ele>
        <time>2013-03-19T09:08:56Z</time>
      </trkpt>
      <trkpt lat="43.73915" lon="4.79188">
        <ele>114.05</ele>
        <time>2013-03-19T09:09:18Z</time>
      </trkpt>
      <trkpt lat="43.7392" lon="4.79192">
        <ele>116.94</ele>
        <time>2013-03-19T09:09:39Z</time>
      </trkpt>
      <trkpt lat="43.73921" lon="4.79194">
        <ele>115.01</ele>
        <time>2013-03-19T09:09:40Z</time>
      </trkpt>
      <trkpt lat="43.73928" lon="4.79203">
        <ele>117.42</ele>
        <time>2013-03-19T09:09:54Z</time>
      </trkpt>
      <trkpt lat="43.73932" lon="4.79215">
        <ele>120.3</ele>
        <time>2013-03-19T09:10:10Z</time>
      </trkpt>
      <trkpt lat="43.73935" lon="4.7923">
        <ele>121.74</ele>
        <time>2013-03-19T09:10:24Z</time>
      </trkpt>
      <trkpt lat="43.73941" lon="4.79249">
        <ele>124.15</ele>
        <time>2013-03-19T09:10:38Z</time>
      </trkpt>
      <trkpt lat="43.73946" lon="4.79265">
        <ele>126.55</ele>
        <time>2013-03-19T09:10:53Z</time>
      </trkpt>
      <trkpt lat="43.73951" lon="4.79283">
        <ele>127.51</ele>
        <time>2013-03-19T09:11:06Z</time>
      </trkpt>
      <trkpt lat="43.73956" lon="4.79297">
        <ele>129.43</ele>
        <time>2013-03-19T09:11:19Z</time>
      </trkpt>
      <trkpt lat="43.73964" lon="4.7931">
        <ele>130.4</ele>
        <time>2013-03-19T09:11:33Z</time>
      </trkpt>
      <trkpt lat="43.7397" lon="4.7932">
        <ele>131.36</ele>
        <time>2013-03-19T09:11:46Z</time>
      </trkpt>
      <trkpt lat="43.73977" lon="4.7934">
        <ele>133.76</ele>
        <time>2013-03-19T09:12:02Z</time>
      </trkpt>
      <trkpt lat="43.73978" lon="4.79342">
        <ele>133.76</ele>
        <time>2013-03-19T09:12:03Z</time>
      </trkpt>
      <trkpt lat="43.7398" lon="4.79357">
        <ele>134.72</ele>
        <time>2013-03-19T09:12:15Z</time>
      </trkpt>
      <trkpt lat="43.73981" lon="4.79373">
        <ele>135.2</ele>
        <time>2013-03-19T09:12:28Z</time>
      </trkpt>
      <trkpt lat="43.73981" lon="4.79374">
        <ele>135.68</ele>
        <time>2013-03-19T09:12:29Z</time>
      </trkpt>
      <trkpt lat="43.73987" lon="4.79395">
        <ele>136.16</ele>
        <time>2013-03-19T09:12:45Z</time>
      </trkpt>
      <trkpt lat="43.73992" lon="4.79415">
        <ele>137.61</ele>
        <time>2013-03-19T09:13:00Z</time>
      </trkpt>
      <trkpt lat="43.74004" lon="4.79419">
        <ele>139.53</ele>
        <time>2013-03-19T09:13:16Z</time>
      </trkpt>
      <trkpt lat="43.74009" lon="4.79418">
        <ele>140.97</ele>
        <time>2013-03-19T09:13:23Z</time>
      </trkpt>
      <trkpt lat="43.74015" lon="4.7942">
        <ele>142.89</ele>
        <time>2013-03-19T09:13:33Z</time>
      </trkpt>
      <trkpt lat="43.7402" lon="4.79419">
        <ele>142.89</ele>
        <time>2013-03-19T09:13:54Z</time>
      </trkpt>
      <trkpt lat="43.74034" lon="4.79409">
        <ele>145.78</ele>
        <time>2013-03-19T09:14:09Z</time>
      </trkpt>
      <trkpt lat="43.74046" lon="4.79404">
        <ele>148.66</ele>
        <time>2013-03-19T09:14:22Z</time>
      </trkpt>
      <trkpt lat="43.74062" lon="4.79404">
        <ele>151.06</ele>
        <time>2013-03-19T09:14:37Z</time>
      </trkpt>
      <trkpt lat="43.7407" lon="4.79412">
        <ele>153.47</ele>
        <time>2013-03-19T09:14:49Z</time>
      </trkpt>
      <trkpt lat="43.74077" lon="4.79431">
        <ele>153.47</ele>
        <time>2013-03-19T09:15:03Z</time>
      </trkpt>
      <trkpt lat="43.74092" lon="4.7945">
        <ele>153.47</ele>
        <time>2013-03-19T09:15:21Z</time>
      </trkpt>
      <trkpt lat="43.74105" lon="4.79467">
        <ele>153.95</ele>
        <time>2013-03-19T09:15:38Z</time>
      </trkpt>
      <trkpt lat="43.74117" lon="4.79484">
        <ele>155.39</ele>
        <time>2013-03-19T09:15:54Z</time>
      </trkpt>
      <trkpt lat="43.74124" lon="4.79493">
        <ele>156.35</ele>
        <time>2013-03-19T09:16:09Z</time>
      </trkpt>
      <trkpt lat="43.74133" lon="4.79494">
        <ele>159.24</ele>
        <time>2013-03-19T09:16:19Z</time>
      </trkpt>
      <trkpt lat="43.74135" lon="4.79508">
        <ele>159.72</ele>
        <time>2013-03-19T09:16:30Z</time>
      </trkpt>
      <trkpt lat="43.7414" lon="4.79526">
        <ele>158.27</ele>
        <time>2013-03-19T09:16:43Z</time>
      </trkpt>
      <trkpt lat="43.74145" lon="4.79543">
        <ele>156.83</ele>
        <time>2013-03-19T09:16:54Z</time>
      </trkpt>
      <trkpt lat="43.74149" lon="4.79566">
        <ele>156.35</ele>
        <time>2013-03-19T09:17:08Z</time>
      </trkpt>
      <trkpt lat="43.74152" lon="4.79585">
        <ele>155.39</ele>
        <time>2013-03-19T09:17:21Z</time>
      </trkpt>
      <trkpt lat="43.7416" lon="4.79589">
        <ele>155.87</ele>
        <time>2013-03-19T09:17:34Z</time>
      </trkpt>
      <trkpt lat="43.74163" lon="4.79592">
        <ele>155.87</ele>
        <time>2013-03-19T09:17:59Z</time>
      </trkpt>
      <trkpt lat="43.74163" lon="4.79591">
        <ele>155.87</ele>
        <time>2013-03-19T09:18:13Z</time>
      </trkpt>
      <trkpt lat="43.74166" lon="4.79593">
        <ele>154.91</ele>
        <time>2013-03-19T09:18:27Z</time>
      </trkpt>
      <trkpt lat="43.74162" lon="4.79591">
        <ele>155.39</ele>
        <time>2013-03-19T09:18:55Z</time>
      </trkpt>
      <trkpt lat="43.7416" lon="4.79595">
        <ele>155.39</ele>
        <time>2013-03-19T09:19:08Z</time>
      </trkpt>
      <trkpt lat="43.74159" lon="4.79594">
        <ele>152.03</ele>
        <time>2013-03-19T09:19:18Z</time>
      </trkpt>
      <trkpt lat="43.74159" lon="4.79594">
        <ele>152.03</ele>
        <time>2013-03-19T09:19:19Z</time>
      </trkpt>
      <trkpt lat="43.74159" lon="4.79594">
        <ele>158.27</ele>
        <time>2013-03-19T09:19:20Z</time>
      </trkpt>
      <trkpt lat="43.74159" lon="4.79593">
        <ele>154.91</ele>
        <time>2013-03-19T09:19:21Z</time>
      </trkpt>
      <trkpt lat="43.74158" lon="4.79593">
        <ele>154.91</ele>
        <time>2013-03-19T09:19:48Z</time>
      </trkpt>
      <trkpt lat="43.74159" lon="4.79595">
        <ele>154.91</ele>
        <time>2013-03-19T09:20:02Z</time>
      </trkpt>
      <trkpt lat="43.74156" lon="4.79598">
        <ele>153.95</ele>
        <time>2013-03-19T09:20:18Z</time>
      </trkpt>
      <trkpt lat="43.74154" lon="4.79597">
        <ele>154.91</ele>
        <time>2013-03-19T09:20:47Z</time>
      </trkpt>
      <trkpt lat="43.74154" lon="4.796">
        <ele>154.91</ele>
        <time>2013-03-19T09:21:15Z</time>
      </trkpt>
      <trkpt lat="43.74156" lon="4.79597">
        <ele>154.91</ele>
        <time>2013-03-19T09:21:34Z</time>
      </trkpt>
      <trkpt lat="43.74157" lon="4.79596">
        <ele>151.54</ele>
        <time>2013-03-19T09:21:47Z</time>
      </trkpt>
      <trkpt lat="43.74157" lon="4.79596">
        <ele>155.39</ele>
        <time>2013-03-19T09:21:48Z</time>
      </trkpt>
      <trkpt lat="43.74157" lon="4.79597">
        <ele>155.39</ele>
        <time>2013-03-19T09:21:49Z</time>
      </trkpt>
      <trkpt lat="43.74159" lon="4.79596">
        <ele>154.43</ele>
        <time>2013-03-19T09:22:12Z</time>
      </trkpt>
      <trkpt lat="43.74158" lon="4.79596">
        <ele>154.43</ele>
        <time>2013-03-19T09:22:46Z</time>
      </trkpt>
      <trkpt lat="43.74154" lon="4.79592">
        <ele>154.43</ele>
        <time>2013-03-19T09:23:05Z</time>
      </trkpt>
      <trkpt lat="43.74154" lon="4.79591">
        <ele>153.95</ele>
        <time>2013-03-19T09:23:16Z</time>
      </trkpt>
      <trkpt lat="43.74153" lon="4.79587">
        <ele>153.95</ele>
        <time>2013-03-19T09:23:19Z</time>
      </trkpt>
      <trkpt lat="43.7415" lon="4.79583">
        <ele>154.91</ele>
        <time>2013-03-19T09:23:24Z</time>
      </trkpt>
      <trkpt lat="43.74146" lon="4.79572">
        <ele>154.91</ele>
        <time>2013-03-19T09:23:38Z</time>
      </trkpt>
      <trkpt lat="43.74144" lon="4.7957">
        <ele>155.39</ele>
        <time>2013-03-19T09:24:05Z</time>
      </trkpt>
      <trkpt lat="43.74142" lon="4.79518">
        <ele>155.39</ele>
        <time>2013-03-19T09:25:55Z</time>
      </trkpt>
      <trkpt lat="43.74141" lon="4.79516">
        <ele>155.87</ele>
        <time>2013-03-19T09:25:56Z</time>
      </trkpt>
      <trkpt lat="43.74135" lon="4.79502">
        <ele>157.31</ele>
        <time>2013-03-19T09:26:08Z</time>
      </trkpt>
      <trkpt lat="43.74134" lon="4.79494">
        <ele>156.83</ele>
        <time>2013-03-19T09:26:26Z</time>
      </trkpt>
      <trkpt lat="43.74132" lon="4.79493">
        <ele>156.35</ele>
        <time>2013-03-19T09:26:29Z</time>
      </trkpt>
      <trkpt lat="43.74125" lon="4.79493">
        <ele>154.43</ele>
        <time>2013-03-19T09:26:37Z</time>
      </trkpt>
      <trkpt lat="43.74114" lon="4.79478">
        <ele>153.47</ele>
        <time>2013-03-19T09:26:52Z</time>
      </trkpt>
      <trkpt lat="43.74106" lon="4.79467">
        <ele>152.51</ele>
        <time>2013-03-19T09:27:03Z</time>
      </trkpt>
      <trkpt lat="43.74106" lon="4.79466">
        <ele>152.51</ele>
        <time>2013-03-19T09:27:04Z</time>
      </trkpt>
      <trkpt lat="43.74103" lon="4.79464">
        <ele>152.03</ele>
        <time>2013-03-19T09:27:07Z</time>
      </trkpt>
      <trkpt lat="43.74098" lon="4.79459">
        <ele>151.06</ele>
        <time>2013-03-19T09:27:12Z</time>
      </trkpt>
      <trkpt lat="43.74085" lon="4.79441">
        <ele>152.03</ele>
        <time>2013-03-19T09:27:28Z</time>
      </trkpt>
      <trkpt lat="43.74079" lon="4.79431">
        <ele>152.51</ele>
        <time>2013-03-19T09:27:36Z</time>
      </trkpt>
      <trkpt lat="43.74069" lon="4.79409">
        <ele>151.06</ele>
        <time>2013-03-19T09:27:53Z</time>
      </trkpt>
      <trkpt lat="43.74067" lon="4.79406">
        <ele>150.58</ele>
        <time>2013-03-19T09:27:56Z</time>
      </trkpt>
      <trkpt lat="43.74064" lon="4.79404">
        <ele>150.1</ele>
        <time>2013-03-19T09:27:58Z</time>
      </trkpt>
      <trkpt lat="43.74062" lon="4.79404">
        <ele>149.62</ele>
        <time>2013-03-19T09:27:59Z</time>
      </trkpt>
      <trkpt lat="43.74061" lon="4.79404">
        <ele>149.14</ele>
        <time>2013-03-19T09:28:00Z</time>
      </trkpt>
      <trkpt lat="43.74059" lon="4.79404">
        <ele>149.14</ele>
        <time>2013-03-19T09:28:01Z</time>
      </trkpt>
      <trkpt lat="43.74058" lon="4.79405">
        <ele>149.14</ele>
        <time>2013-03-19T09:28:02Z</time>
      </trkpt>
      <trkpt lat="43.74055" lon="4.79406">
        <ele>148.18</ele>
        <time>2013-03-19T09:28:07Z</time>
      </trkpt>
      <trkpt lat="43.74039" lon="4.79404">
        <ele>146.26</ele>
        <time>2013-03-19T09:28:19Z</time>
      </trkpt>
      <trkpt lat="43.74026" lon="4.79411">
        <ele>144.34</ele>
        <time>2013-03-19T09:28:31Z</time>
      </trkpt>
      <trkpt lat="43.74022" lon="4.79414">
        <ele>143.85</ele>
        <time>2013-03-19T09:28:36Z</time>
      </trkpt>
      <trkpt lat="43.74013" lon="4.79419">
        <ele>141.45</ele>
        <time>2013-03-19T09:28:45Z</time>
      </trkpt>
      <trkpt lat="43.74012" lon="4.79418">
        <ele>141.45</ele>
        <time>2013-03-19T09:28:46Z</time>
      </trkpt>
      <trkpt lat="43.7401" lon="4.79418">
        <ele>141.45</ele>
        <time>2013-03-19T09:28:47Z</time>
      </trkpt>
      <trkpt lat="43.74007" lon="4.79419">
        <ele>140.49</ele>
        <time>2013-03-19T09:28:51Z</time>
      </trkpt>
      <trkpt lat="43.74006" lon="4.79419">
        <ele>140.01</ele>
        <time>2013-03-19T09:28:52Z</time>
      </trkpt>
      <trkpt lat="43.74004" lon="4.7942">
        <ele>140.01</ele>
        <time>2013-03-19T09:28:53Z</time>
      </trkpt>
      <trkpt lat="43.74003" lon="4.7942">
        <ele>140.01</ele>
        <time>2013-03-19T09:28:54Z</time>
      </trkpt>
      <trkpt lat="43.74001" lon="4.7942">
        <ele>139.53</ele>
        <time>2013-03-19T09:28:55Z</time>
      </trkpt>
      <trkpt lat="43.73989" lon="4.79418">
        <ele>137.61</ele>
        <time>2013-03-19T09:29:06Z</time>
      </trkpt>
      <trkpt lat="43.73987" lon="4.79415">
        <ele>136.64</ele>
        <time>2013-03-19T09:29:10Z</time>
      </trkpt>
      <trkpt lat="43.73986" lon="4.79414">
        <ele>136.64</ele>
        <time>2013-03-19T09:29:11Z</time>
      </trkpt>
      <trkpt lat="43.73985" lon="4.79412">
        <ele>136.64</ele>
        <time>2013-03-19T09:29:12Z</time>
      </trkpt>
      <trkpt lat="43.73984" lon="4.79411">
        <ele>136.16</ele>
        <time>2013-03-19T09:29:13Z</time>
      </trkpt>
      <trkpt lat="43.73984" lon="4.79409">
        <ele>136.16</ele>
        <time>2013-03-19T09:29:14Z</time>
      </trkpt>
      <trkpt lat="43.73978" lon="4.79379">
        <ele>134.72</ele>
        <time>2013-03-19T09:29:34Z</time>
      </trkpt>
      <trkpt lat="43.73979" lon="4.79359">
        <ele>133.76</ele>
        <time>2013-03-19T09:29:48Z</time>
      </trkpt>
      <trkpt lat="43.73979" lon="4.79355">
        <ele>134.24</ele>
        <time>2013-03-19T09:29:51Z</time>
      </trkpt>
      <trkpt lat="43.73979" lon="4.79353">
        <ele>133.76</ele>
        <time>2013-03-19T09:29:52Z</time>
      </trkpt>
      <trkpt lat="43.73979" lon="4.79352">
        <ele>133.76</ele>
        <time>2013-03-19T09:29:53Z</time>
      </trkpt>
      <trkpt lat="43.73977" lon="4.79333">
        <ele>132.32</ele>
        <time>2013-03-19T09:30:05Z</time>
      </trkpt>
      <trkpt lat="43.73969" lon="4.79315">
        <ele>129.43</ele>
        <time>2013-03-19T09:30:18Z</time>
      </trkpt>
      <trkpt lat="43.73958" lon="4.79294">
        <ele>127.99</ele>
        <time>2013-03-19T09:30:31Z</time>
      </trkpt>
      <trkpt lat="43.73953" lon="4.79279">
        <ele>127.03</ele>
        <time>2013-03-19T09:30:42Z</time>
      </trkpt>
      <trkpt lat="43.73947" lon="4.79265">
        <ele>125.59</ele>
        <time>2013-03-19T09:30:52Z</time>
      </trkpt>
      <trkpt lat="43.73947" lon="4.79263">
        <ele>126.07</ele>
        <time>2013-03-19T09:30:53Z</time>
      </trkpt>
      <trkpt lat="43.73945" lon="4.79255">
        <ele>124.15</ele>
        <time>2013-03-19T09:31:00Z</time>
      </trkpt>
      <trkpt lat="43.73944" lon="4.79252">
        <ele>123.67</ele>
        <time>2013-03-19T09:31:01Z</time>
      </trkpt>
      <trkpt lat="43.73939" lon="4.79233">
        <ele>121.26</ele>
        <time>2013-03-19T09:31:13Z</time>
      </trkpt>
      <trkpt lat="43.73939" lon="4.79231">
        <ele>121.74</ele>
        <time>2013-03-19T09:31:14Z</time>
      </trkpt>
      <trkpt lat="43.73939" lon="4.7923">
        <ele>120.78</ele>
        <time>2013-03-19T09:31:15Z</time>
      </trkpt>
      <trkpt lat="43.73936" lon="4.79223">
        <ele>119.82</ele>
        <time>2013-03-19T09:31:21Z</time>
      </trkpt>
      <trkpt lat="43.73933" lon="4.79213">
        <ele>118.38</ele>
        <time>2013-03-19T09:31:29Z</time>
      </trkpt>
      <trkpt lat="43.73932" lon="4.79211">
        <ele>117.9</ele>
        <time>2013-03-19T09:31:30Z</time>
      </trkpt>
      <trkpt lat="43.73931" lon="4.7921">
        <ele>118.86</ele>
        <time>2013-03-19T09:31:31Z</time>
      </trkpt>
      <trkpt lat="43.73928" lon="4.79204">
        <ele>116.94</ele>
        <time>2013-03-19T09:31:36Z</time>
      </trkpt>
      <trkpt lat="43.73928" lon="4.79203">
        <ele>117.42</ele>
        <time>2013-03-19T09:31:37Z</time>
      </trkpt>
      <trkpt lat="43.73927" lon="4.79198">
        <ele>115.98</ele>
        <time>2013-03-19T09:31:42Z</time>
      </trkpt>
      <trkpt lat="43.73926" lon="4.79197">
        <ele>115.98</ele>
        <time>2013-03-19T09:31:43Z</time>
      </trkpt>
      <trkpt lat="43.73924" lon="4.79196">
        <ele>115.5</ele>
        <time>2013-03-19T09:31:44Z</time>
      </trkpt>
      <trkpt lat="43.73923" lon="4.79195">
        <ele>115.01</ele>
        <time>2013-03-19T09:31:45Z</time>
      </trkpt>
      <trkpt lat="43.73922" lon="4.79194">
        <ele>115.5</ele>
        <time>2013-03-19T09:31:46Z</time>
      </trkpt>
      <trkpt lat="43.73921" lon="4.79193">
        <ele>114.53</ele>
        <time>2013-03-19T09:31:59Z</time>
      </trkpt>
      <trkpt lat="43.7392" lon="4.79194">
        <ele>115.5</ele>
        <time>2013-03-19T09:32:20Z</time>
      </trkpt>
      <trkpt lat="43.73921" lon="4.79195">
        <ele>115.5</ele>
        <time>2013-03-19T09:32:43Z</time>
      </trkpt>
      <trkpt lat="43.73919" lon="4.79192">
        <ele>114.53</ele>
        <time>2013-03-19T09:33:03Z</time>
      </trkpt>
      <trkpt lat="43.73909" lon="4.79184">
        <ele>112.61</ele>
        <time>2013-03-19T09:33:15Z</time>
      </trkpt>
      <trkpt lat="43.73908" lon="4.79183">
        <ele>112.61</ele>
        <time>2013-03-19T09:33:26Z</time>
      </trkpt>
      <trkpt lat="43.73906" lon="4.79187">
        <ele>112.61</ele>
        <time>2013-03-19T09:33:42Z</time>
      </trkpt>
      <trkpt lat="43.73902" lon="4.7918">
        <ele>111.17</ele>
        <time>2013-03-19T09:33:58Z</time>
      </trkpt>
      <trkpt lat="43.739" lon="4.79179">
        <ele>111.17</ele>
        <time>2013-03-19T09:33:59Z</time>
      </trkpt>
      <trkpt lat="43.73887" lon="4.79175">
        <ele>110.21</ele>
        <time>2013-03-19T09:34:11Z</time>
      </trkpt>
      <trkpt lat="43.73868" lon="4.7917">
        <ele>106.84</ele>
        <time>2013-03-19T09:34:28Z</time>
      </trkpt>
      <trkpt lat="43.73854" lon="4.79167">
        <ele>105.4</ele>
        <time>2013-03-19T09:34:40Z</time>
      </trkpt>
      <trkpt lat="43.7384" lon="4.79155">
        <ele>103.96</ele>
        <time>2013-03-19T09:34:54Z</time>
      </trkpt>
      <trkpt lat="43.73828" lon="4.79137">
        <ele>102.52</ele>
        <time>2013-03-19T09:35:07Z</time>
      </trkpt>
      <trkpt lat="43.73827" lon="4.79136">
        <ele>102.52</ele>
        <time>2013-03-19T09:35:08Z</time>
      </trkpt>
      <trkpt lat="43.73825" lon="4.79129">
        <ele>102.04</ele>
        <time>2013-03-19T09:35:13Z</time>
      </trkpt>
      <trkpt lat="43.73824" lon="4.79128">
        <ele>102.04</ele>
        <time>2013-03-19T09:35:14Z</time>
      </trkpt>
      <trkpt lat="43.73823" lon="4.79126">
        <ele>101.56</ele>
        <time>2013-03-19T09:35:15Z</time>
      </trkpt>
      <trkpt lat="43.73822" lon="4.79124">
        <ele>101.56</ele>
        <time>2013-03-19T09:35:16Z</time>
      </trkpt>
      <trkpt lat="43.73822" lon="4.79122">
        <ele>102.04</ele>
        <time>2013-03-19T09:35:17Z</time>
      </trkpt>
      <trkpt lat="43.73819" lon="4.79115">
        <ele>101.56</ele>
        <time>2013-03-19T09:35:23Z</time>
      </trkpt>
      <trkpt lat="43.73818" lon="4.79113">
        <ele>102.04</ele>
        <time>2013-03-19T09:35:24Z</time>
      </trkpt>
      <trkpt lat="43.73817" lon="4.79112">
        <ele>102.04</ele>
        <time>2013-03-19T09:35:25Z</time>
      </trkpt>
      <trkpt lat="43.73817" lon="4.7911">
        <ele>102.04</ele>
        <time>2013-03-19T09:35:26Z</time>
      </trkpt>
      <trkpt lat="43.73816" lon="4.79108">
        <ele>102.04</ele>
        <time>2013-03-19T09:35:27Z</time>
      </trkpt>
      <trkpt lat="43.73816" lon="4.79107">
        <ele>101.56</ele>
        <time>2013-03-19T09:35:28Z</time>
      </trkpt>
      <trkpt lat="43.7381" lon="4.79091">
        <ele>101.56</ele>
        <time>2013-03-19T09:35:38Z</time>
      </trkpt>
      <trkpt lat="43.7381" lon="4.79087">
        <ele>101.56</ele>
        <time>2013-03-19T09:35:52Z</time>
      </trkpt>
      <trkpt lat="43.7381" lon="4.79086">
        <ele>101.56</ele>
        <time>2013-03-19T09:35:53Z</time>
      </trkpt>
      <trkpt lat="43.73809" lon="4.79085">
        <ele>101.56</ele>
        <time>2013-03-19T09:35:54Z</time>
      </trkpt>
      <trkpt lat="43.73807" lon="4.79084">
        <ele>101.56</ele>
        <time>2013-03-19T09:35:55Z</time>
      </trkpt>
      <trkpt lat="43.73806" lon="4.79082">
        <ele>102.04</ele>
        <time>2013-03-19T09:35:56Z</time>
      </trkpt>
      <trkpt lat="43.73805" lon="4.79082">
        <ele>101.08</ele>
        <time>2013-03-19T09:35:57Z</time>
      </trkpt>
      <trkpt lat="43.73804" lon="4.79082">
        <ele>101.56</ele>
        <time>2013-03-19T09:35:58Z</time>
      </trkpt>
      <trkpt lat="43.73802" lon="4.79081">
        <ele>100.11</ele>
        <time>2013-03-19T09:35:59Z</time>
      </trkpt>
      <trkpt lat="43.73801" lon="4.79081">
        <ele>103</ele>
        <time>2013-03-19T09:36:00Z</time>
      </trkpt>
      <trkpt lat="43.738" lon="4.7908">
        <ele>101.56</ele>
        <time>2013-03-19T09:36:01Z</time>
      </trkpt>
      <trkpt lat="43.73784" lon="4.79077">
        <ele>102.04</ele>
        <time>2013-03-19T09:36:15Z</time>
      </trkpt>
      <trkpt lat="43.73763" lon="4.79078">
        <ele>103</ele>
        <time>2013-03-19T09:36:33Z</time>
      </trkpt>
      <trkpt lat="43.73746" lon="4.79081">
        <ele>104.44</ele>
        <time>2013-03-19T09:36:47Z</time>
      </trkpt>
      <trkpt lat="43.73727" lon="4.79081">
        <ele>105.88</ele>
        <time>2013-03-19T09:37:03Z</time>
      </trkpt>
      <trkpt lat="43.7371" lon="4.79079">
        <ele>106.84</ele>
        <time>2013-03-19T09:37:20Z</time>
      </trkpt>
      <trkpt lat="43.73691" lon="4.79076">
        <ele>108.77</ele>
        <time>2013-03-19T09:37:37Z</time>
      </trkpt>
      <trkpt lat="43.73676" lon="4.7908">
        <ele>110.21</ele>
        <time>2013-03-19T09:37:50Z</time>
      </trkpt>
      <trkpt lat="43.73674" lon="4.79082">
        <ele>110.69</ele>
        <time>2013-03-19T09:37:52Z</time>
      </trkpt>
      <trkpt lat="43.73673" lon="4.79083">
        <ele>110.21</ele>
        <time>2013-03-19T09:37:53Z</time>
      </trkpt>
      <trkpt lat="43.73667" lon="4.79085">
        <ele>110.21</ele>
        <time>2013-03-19T09:38:12Z</time>
      </trkpt>
      <trkpt lat="43.73665" lon="4.79089">
        <ele>110.21</ele>
        <time>2013-03-19T09:38:40Z</time>
      </trkpt>
      <trkpt lat="43.73669" lon="4.79095">
        <ele>109.73</ele>
        <time>2013-03-19T09:38:50Z</time>
      </trkpt>
      <trkpt lat="43.73672" lon="4.79113">
        <ele>108.77</ele>
        <time>2013-03-19T09:39:03Z</time>
      </trkpt>
      <trkpt lat="43.73675" lon="4.79133">
        <ele>106.84</ele>
        <time>2013-03-19T09:39:18Z</time>
      </trkpt>
      <trkpt lat="43.73675" lon="4.79153">
        <ele>104.92</ele>
        <time>2013-03-19T09:39:32Z</time>
      </trkpt>
      <trkpt lat="43.73676" lon="4.79168">
        <ele>103.48</ele>
        <time>2013-03-19T09:39:46Z</time>
      </trkpt>
      <trkpt lat="43.73675" lon="4.79165">
        <ele>103</ele>
        <time>2013-03-19T09:40:07Z</time>
      </trkpt>
      <trkpt lat="43.73672" lon="4.79169">
        <ele>102.52</ele>
        <time>2013-03-19T09:40:28Z</time>
      </trkpt>
      <trkpt lat="43.73672" lon="4.79172">
        <ele>96.75</ele>
        <time>2013-03-19T09:40:32Z</time>
      </trkpt>
      <trkpt lat="43.73672" lon="4.79171">
        <ele>102.04</ele>
        <time>2013-03-19T09:40:33Z</time>
      </trkpt>
      <trkpt lat="43.73672" lon="4.79171">
        <ele>102.52</ele>
        <time>2013-03-19T09:40:35Z</time>
      </trkpt>
      <trkpt lat="43.73672" lon="4.79161">
        <ele>105.88</ele>
        <time>2013-03-19T09:40:59Z</time>
      </trkpt>
      <trkpt lat="43.73673" lon="4.79162">
        <ele>103</ele>
        <time>2013-03-19T09:41:00Z</time>
      </trkpt>
      <trkpt lat="43.73673" lon="4.79162">
        <ele>102.04</ele>
        <time>2013-03-19T09:41:02Z</time>
      </trkpt>
      <trkpt lat="43.73676" lon="4.79167">
        <ele>103.48</ele>
        <time>2013-03-19T09:41:20Z</time>
      </trkpt>
      <trkpt lat="43.73676" lon="4.79165">
        <ele>98.67</ele>
        <time>2013-03-19T09:41:31Z</time>
      </trkpt>
      <trkpt lat="43.73676" lon="4.79165">
        <ele>108.29</ele>
        <time>2013-03-19T09:41:32Z</time>
      </trkpt>
      <trkpt lat="43.73676" lon="4.79165">
        <ele>103</ele>
        <time>2013-03-19T09:41:33Z</time>
      </trkpt>
      <trkpt lat="43.73675" lon="4.79167">
        <ele>103.48</ele>
        <time>2013-03-19T09:41:57Z</time>
      </trkpt>
      <trkpt lat="43.73675" lon="4.7917">
        <ele>98.67</ele>
        <time>2013-03-19T09:42:19Z</time>
      </trkpt>
      <trkpt lat="43.73675" lon="4.7917">
        <ele>107.81</ele>
        <time>2013-03-19T09:42:20Z</time>
      </trkpt>
      <trkpt lat="43.73675" lon="4.7917">
        <ele>103.48</ele>
        <time>2013-03-19T09:42:21Z</time>
      </trkpt>
      <trkpt lat="43.73674" lon="4.79175">
        <ele>103</ele>
        <time>2013-03-19T09:42:45Z</time>
      </trkpt>
      <trkpt lat="43.73675" lon="4.79176">
        <ele>103</ele>
        <time>2013-03-19T09:42:46Z</time>
      </trkpt>
      <trkpt lat="43.73676" lon="4.79178">
        <ele>102.04</ele>
        <time>2013-03-19T09:42:49Z</time>
      </trkpt>
      <trkpt lat="43.73676" lon="4.79182">
        <ele>102.52</ele>
        <time>2013-03-19T09:42:51Z</time>
      </trkpt>
      <trkpt lat="43.73672" lon="4.79198">
        <ele>102.04</ele>
        <time>2013-03-19T09:43:04Z</time>
      </trkpt>
      <trkpt lat="43.7367" lon="4.79206">
        <ele>101.56</ele>
        <time>2013-03-19T09:43:10Z</time>
      </trkpt>
      <trkpt lat="43.7367" lon="4.79209">
        <ele>102.04</ele>
        <time>2013-03-19T09:43:12Z</time>
      </trkpt>
      <trkpt lat="43.73666" lon="4.79216">
        <ele>103</ele>
        <time>2013-03-19T09:43:18Z</time>
      </trkpt>
      <trkpt lat="43.7365" lon="4.79227">
        <ele>104.92</ele>
        <time>2013-03-19T09:43:34Z</time>
      </trkpt>
      <trkpt lat="43.73645" lon="4.79232">
        <ele>105.88</ele>
        <time>2013-03-19T09:43:39Z</time>
      </trkpt>
      <trkpt lat="43.73644" lon="4.79233">
        <ele>105.88</ele>
        <time>2013-03-19T09:43:40Z</time>
      </trkpt>
      <trkpt lat="43.73631" lon="4.79246">
        <ele>108.29</ele>
        <time>2013-03-19T09:43:55Z</time>
      </trkpt>
      <trkpt lat="43.73616" lon="4.7926">
        <ele>109.73</ele>
        <time>2013-03-19T09:44:10Z</time>
      </trkpt>
      <trkpt lat="43.73603" lon="4.79277">
        <ele>110.21</ele>
        <time>2013-03-19T09:44:25Z</time>
      </trkpt>
      <trkpt lat="43.73591" lon="4.79291">
        <ele>108.77</ele>
        <time>2013-03-19T09:44:37Z</time>
      </trkpt>
      <trkpt lat="43.7359" lon="4.79292">
        <ele>108.29</ele>
        <time>2013-03-19T09:44:38Z</time>
      </trkpt>
      <trkpt lat="43.73589" lon="4.79298">
        <ele>107.81</ele>
        <time>2013-03-19T09:44:43Z</time>
      </trkpt>
      <trkpt lat="43.73589" lon="4.793">
        <ele>107.32</ele>
        <time>2013-03-19T09:44:44Z</time>
      </trkpt>
      <trkpt lat="43.73583" lon="4.79324">
        <ele>106.36</ele>
        <time>2013-03-19T09:44:58Z</time>
      </trkpt>
      <trkpt lat="43.73579" lon="4.79341">
        <ele>104.92</ele>
        <time>2013-03-19T09:45:10Z</time>
      </trkpt>
      <trkpt lat="43.73578" lon="4.7936">
        <ele>103.96</ele>
        <time>2013-03-19T09:45:21Z</time>
      </trkpt>
      <trkpt lat="43.73579" lon="4.79363">
        <ele>103.96</ele>
        <time>2013-03-19T09:45:23Z</time>
      </trkpt>
      <trkpt lat="43.7358" lon="4.79366">
        <ele>103.48</ele>
        <time>2013-03-19T09:45:24Z</time>
      </trkpt>
      <trkpt lat="43.7358" lon="4.79368">
        <ele>103.96</ele>
        <time>2013-03-19T09:45:25Z</time>
      </trkpt>
      <trkpt lat="43.73584" lon="4.79388">
        <ele>103</ele>
        <time>2013-03-19T09:45:38Z</time>
      </trkpt>
      <trkpt lat="43.73585" lon="4.79412">
        <ele>101.56</ele>
        <time>2013-03-19T09:45:53Z</time>
      </trkpt>
      <trkpt lat="43.73585" lon="4.79438">
        <ele>99.63</ele>
        <time>2013-03-19T09:46:10Z</time>
      </trkpt>
      <trkpt lat="43.73584" lon="4.79439">
        <ele>99.63</ele>
        <time>2013-03-19T09:46:11Z</time>
      </trkpt>
      <trkpt lat="43.73578" lon="4.7946">
        <ele>98.67</ele>
        <time>2013-03-19T09:46:25Z</time>
      </trkpt>
      <trkpt lat="43.73571" lon="4.79479">
        <ele>98.19</ele>
        <time>2013-03-19T09:46:39Z</time>
      </trkpt>
      <trkpt lat="43.73569" lon="4.79506">
        <ele>97.23</ele>
        <time>2013-03-19T09:46:55Z</time>
      </trkpt>
      <trkpt lat="43.73562" lon="4.79515">
        <ele>96.27</ele>
        <time>2013-03-19T09:47:04Z</time>
      </trkpt>
      <trkpt lat="43.73548" lon="4.7952">
        <ele>94.83</ele>
        <time>2013-03-19T09:47:16Z</time>
      </trkpt>
      <trkpt lat="43.73542" lon="4.79524">
        <ele>93.39</ele>
        <time>2013-03-19T09:47:23Z</time>
      </trkpt>
      <trkpt lat="43.73528" lon="4.79519">
        <ele>91.94</ele>
        <time>2013-03-19T09:47:37Z</time>
      </trkpt>
      <trkpt lat="43.73514" lon="4.79519">
        <ele>90.98</ele>
        <time>2013-03-19T09:47:50Z</time>
      </trkpt>
      <trkpt lat="43.73513" lon="4.79521">
        <ele>91.46</ele>
        <time>2013-03-19T09:47:51Z</time>
      </trkpt>
      <trkpt lat="43.73497" lon="4.79533">
        <ele>91.94</ele>
        <time>2013-03-19T09:48:06Z</time>
      </trkpt>
      <trkpt lat="43.73499" lon="4.79536">
        <ele>92.42</ele>
        <time>2013-03-19T09:48:12Z</time>
      </trkpt>
      <trkpt lat="43.735" lon="4.79539">
        <ele>92.42</ele>
        <time>2013-03-19T09:48:14Z</time>
      </trkpt>
      <trkpt lat="43.73498" lon="4.79544">
        <ele>91.94</ele>
        <time>2013-03-19T09:48:30Z</time>
      </trkpt>
      <trkpt lat="43.73496" lon="4.79547">
        <ele>92.42</ele>
        <time>2013-03-19T09:48:55Z</time>
      </trkpt>
      <trkpt lat="43.73494" lon="4.79547">
        <ele>92.42</ele>
        <time>2013-03-19T09:49:00Z</time>
      </trkpt>
      <trkpt lat="43.73491" lon="4.79548">
        <ele>91.94</ele>
        <time>2013-03-19T09:49:02Z</time>
      </trkpt>
      <trkpt lat="43.73484" lon="4.79546">
        <ele>92.9</ele>
        <time>2013-03-19T09:49:11Z</time>
      </trkpt>
      <trkpt lat="43.73483" lon="4.79546">
        <ele>92.9</ele>
        <time>2013-03-19T09:49:12Z</time>
      </trkpt>
      <trkpt lat="43.73471" lon="4.79554">
        <ele>94.35</ele>
        <time>2013-03-19T09:49:25Z</time>
      </trkpt>
      <trkpt lat="43.73463" lon="4.79558">
        <ele>93.39</ele>
        <time>2013-03-19T09:49:33Z</time>
      </trkpt>
      <trkpt lat="43.73462" lon="4.79557">
        <ele>93.39</ele>
        <time>2013-03-19T09:49:34Z</time>
      </trkpt>
      <trkpt lat="43.73455" lon="4.79559">
        <ele>94.35</ele>
        <time>2013-03-19T09:49:41Z</time>
      </trkpt>
      <trkpt lat="43.73454" lon="4.79559">
        <ele>95.31</ele>
        <time>2013-03-19T09:49:42Z</time>
      </trkpt>
      <trkpt lat="43.7345" lon="4.7956">
        <ele>95.31</ele>
        <time>2013-03-19T09:49:46Z</time>
      </trkpt>
      <trkpt lat="43.7345" lon="4.79561">
        <ele>95.31</ele>
        <time>2013-03-19T09:49:47Z</time>
      </trkpt>
      <trkpt lat="43.73449" lon="4.79562">
        <ele>94.83</ele>
        <time>2013-03-19T09:49:48Z</time>
      </trkpt>
      <trkpt lat="43.73448" lon="4.79563">
        <ele>94.83</ele>
        <time>2013-03-19T09:49:49Z</time>
      </trkpt>
      <trkpt lat="43.73444" lon="4.79568">
        <ele>93.87</ele>
        <time>2013-03-19T09:49:55Z</time>
      </trkpt>
      <trkpt lat="43.73442" lon="4.79568">
        <ele>92.9</ele>
        <time>2013-03-19T09:49:56Z</time>
      </trkpt>
      <trkpt lat="43.73433" lon="4.79572">
        <ele>90.5</ele>
        <time>2013-03-19T09:50:07Z</time>
      </trkpt>
      <trkpt lat="43.73416" lon="4.79569">
        <ele>89.06</ele>
        <time>2013-03-19T09:50:22Z</time>
      </trkpt>
      <trkpt lat="43.73404" lon="4.79569">
        <ele>89.54</ele>
        <time>2013-03-19T09:50:32Z</time>
      </trkpt>
      <trkpt lat="43.73391" lon="4.79564">
        <ele>90.98</ele>
        <time>2013-03-19T09:50:45Z</time>
      </trkpt>
      <trkpt lat="43.7339" lon="4.79563">
        <ele>90.98</ele>
        <time>2013-03-19T09:50:47Z</time>
      </trkpt>
      <trkpt lat="43.73388" lon="4.79563">
        <ele>90.5</ele>
        <time>2013-03-19T09:50:48Z</time>
      </trkpt>
      <trkpt lat="43.73387" lon="4.79562">
        <ele>90.5</ele>
        <time>2013-03-19T09:50:49Z</time>
      </trkpt>
      <trkpt lat="43.73378" lon="4.79556">
        <ele>92.42</ele>
        <time>2013-03-19T09:50:59Z</time>
      </trkpt>
      <trkpt lat="43.73363" lon="4.79547">
        <ele>93.87</ele>
        <time>2013-03-19T09:51:12Z</time>
      </trkpt>
      <trkpt lat="43.73352" lon="4.79541">
        <ele>95.31</ele>
        <time>2013-03-19T09:51:24Z</time>
      </trkpt>
      <trkpt lat="43.73347" lon="4.79538">
        <ele>95.31</ele>
        <time>2013-03-19T09:51:29Z</time>
      </trkpt>
      <trkpt lat="43.73346" lon="4.79538">
        <ele>94.83</ele>
        <time>2013-03-19T09:51:30Z</time>
      </trkpt>
      <trkpt lat="43.73344" lon="4.79538">
        <ele>95.31</ele>
        <time>2013-03-19T09:51:31Z</time>
      </trkpt>
      <trkpt lat="43.73333" lon="4.79538">
        <ele>95.31</ele>
        <time>2013-03-19T09:51:42Z</time>
      </trkpt>
      <trkpt lat="43.73332" lon="4.79539">
        <ele>95.31</ele>
        <time>2013-03-19T09:51:43Z</time>
      </trkpt>
      <trkpt lat="43.73325" lon="4.79544">
        <ele>95.79</ele>
        <time>2013-03-19T09:51:50Z</time>
      </trkpt>
      <trkpt lat="43.73312" lon="4.79547">
        <ele>96.27</ele>
        <time>2013-03-19T09:52:02Z</time>
      </trkpt>
      <trkpt lat="43.73298" lon="4.79541">
        <ele>97.71</ele>
        <time>2013-03-19T09:52:15Z</time>
      </trkpt>
      <trkpt lat="43.73284" lon="4.79539">
        <ele>99.15</ele>
        <time>2013-03-19T09:52:28Z</time>
      </trkpt>
      <trkpt lat="43.73282" lon="4.79539">
        <ele>99.63</ele>
        <time>2013-03-19T09:52:30Z</time>
      </trkpt>
      <trkpt lat="43.73281" lon="4.79539">
        <ele>100.11</ele>
        <time>2013-03-19T09:52:31Z</time>
      </trkpt>
      <trkpt lat="43.73271" lon="4.79542">
        <ele>102.04</ele>
        <time>2013-03-19T09:52:43Z</time>
      </trkpt>
      <trkpt lat="43.7327" lon="4.79542">
        <ele>102.04</ele>
        <time>2013-03-19T09:52:44Z</time>
      </trkpt>
      <trkpt lat="43.73263" lon="4.79544">
        <ele>104.44</ele>
        <time>2013-03-19T09:52:55Z</time>
      </trkpt>
      <trkpt lat="43.73253" lon="4.79542">
        <ele>106.84</ele>
        <time>2013-03-19T09:53:07Z</time>
      </trkpt>
      <trkpt lat="43.73242" lon="4.7954">
        <ele>109.25</ele>
        <time>2013-03-19T09:53:20Z</time>
      </trkpt>
      <trkpt lat="43.73236" lon="4.79539">
        <ele>110.69</ele>
        <time>2013-03-19T09:53:27Z</time>
      </trkpt>
      <trkpt lat="43.73235" lon="4.79539">
        <ele>110.69</ele>
        <time>2013-03-19T09:53:28Z</time>
      </trkpt>
      <trkpt lat="43.73234" lon="4.79539">
        <ele>110.69</ele>
        <time>2013-03-19T09:53:29Z</time>
      </trkpt>
      <trkpt lat="43.73223" lon="4.79538">
        <ele>112.13</ele>
        <time>2013-03-19T09:53:40Z</time>
      </trkpt>
      <trkpt lat="43.73217" lon="4.79536">
        <ele>114.53</ele>
        <time>2013-03-19T09:53:49Z</time>
      </trkpt>
      <trkpt lat="43.73208" lon="4.79524">
        <ele>117.9</ele>
        <time>2013-03-19T09:54:01Z</time>
      </trkpt>
      <trkpt lat="43.73199" lon="4.79514">
        <ele>118.38</ele>
        <time>2013-03-19T09:54:13Z</time>
      </trkpt>
      <trkpt lat="43.73188" lon="4.79508">
        <ele>119.82</ele>
        <time>2013-03-19T09:54:25Z</time>
      </trkpt>
      <trkpt lat="43.73185" lon="4.79507">
        <ele>120.78</ele>
        <time>2013-03-19T09:54:28Z</time>
      </trkpt>
      <trkpt lat="43.73184" lon="4.79507">
        <ele>120.78</ele>
        <time>2013-03-19T09:54:29Z</time>
      </trkpt>
      <trkpt lat="43.73183" lon="4.79506">
        <ele>120.78</ele>
        <time>2013-03-19T09:54:30Z</time>
      </trkpt>
      <trkpt lat="43.73182" lon="4.79506">
        <ele>120.78</ele>
        <time>2013-03-19T09:54:31Z</time>
      </trkpt>
      <trkpt lat="43.73172" lon="4.79504">
        <ele>123.19</ele>
        <time>2013-03-19T09:54:43Z</time>
      </trkpt>
      <trkpt lat="43.73163" lon="4.79498">
        <ele>124.15</ele>
        <time>2013-03-19T09:54:53Z</time>
      </trkpt>
      <trkpt lat="43.73154" lon="4.79491">
        <ele>125.59</ele>
        <time>2013-03-19T09:55:04Z</time>
      </trkpt>
      <trkpt lat="43.73139" lon="4.79482">
        <ele>127.03</ele>
        <time>2013-03-19T09:55:18Z</time>
      </trkpt>
      <trkpt lat="43.73138" lon="4.79482">
        <ele>127.03</ele>
        <time>2013-03-19T09:55:19Z</time>
      </trkpt>
      <trkpt lat="43.73126" lon="4.79482">
        <ele>129.43</ele>
        <time>2013-03-19T09:55:32Z</time>
      </trkpt>
      <trkpt lat="43.73114" lon="4.79486">
        <ele>132.32</ele>
        <time>2013-03-19T09:55:44Z</time>
      </trkpt>
      <trkpt lat="43.7311" lon="4.79489">
        <ele>132.8</ele>
        <time>2013-03-19T09:55:48Z</time>
      </trkpt>
      <trkpt lat="43.73105" lon="4.79496">
        <ele>133.76</ele>
        <time>2013-03-19T09:56:03Z</time>
      </trkpt>
      <trkpt lat="43.73104" lon="4.79498">
        <ele>134.72</ele>
        <time>2013-03-19T09:56:27Z</time>
      </trkpt>
      <trkpt lat="43.73104" lon="4.79494">
        <ele>134.24</ele>
        <time>2013-03-19T09:56:48Z</time>
      </trkpt>
      <trkpt lat="43.73105" lon="4.79496">
        <ele>134.24</ele>
        <time>2013-03-19T09:57:17Z</time>
      </trkpt>
      <trkpt lat="43.73103" lon="4.79497">
        <ele>135.2</ele>
        <time>2013-03-19T09:57:40Z</time>
      </trkpt>
      <trkpt lat="43.73102" lon="4.79495">
        <ele>135.2</ele>
        <time>2013-03-19T09:58:06Z</time>
      </trkpt>
      <trkpt lat="43.73104" lon="4.79497">
        <ele>134.24</ele>
        <time>2013-03-19T09:58:28Z</time>
      </trkpt>
      <trkpt lat="43.73102" lon="4.79496">
        <ele>134.24</ele>
        <time>2013-03-19T09:59:02Z</time>
      </trkpt>
      <trkpt lat="43.73103" lon="4.79497">
        <ele>134.24</ele>
        <time>2013-03-19T09:59:28Z</time>
      </trkpt>
      <trkpt lat="43.73103" lon="4.79498">
        <ele>134.24</ele>
        <time>2013-03-19T10:00:03Z</time>
      </trkpt>
      <trkpt lat="43.731" lon="4.79501">
        <ele>134.72</ele>
        <time>2013-03-19T10:00:23Z</time>
      </trkpt>
      <trkpt lat="43.73094" lon="4.79511">
        <ele>134.72</ele>
        <time>2013-03-19T10:00:35Z</time>
      </trkpt>
      <trkpt lat="43.73092" lon="4.79515">
        <ele>134.72</ele>
        <time>2013-03-19T10:00:39Z</time>
      </trkpt>
      <trkpt lat="43.73091" lon="4.79516">
        <ele>135.2</ele>
        <time>2013-03-19T10:00:40Z</time>
      </trkpt>
      <trkpt lat="43.73083" lon="4.79528">
        <ele>136.16</ele>
        <time>2013-03-19T10:00:52Z</time>
      </trkpt>
      <trkpt lat="43.73077" lon="4.79543">
        <ele>137.61</ele>
        <time>2013-03-19T10:01:04Z</time>
      </trkpt>
      <trkpt lat="43.73072" lon="4.79559">
        <ele>138.09</ele>
        <time>2013-03-19T10:01:18Z</time>
      </trkpt>
      <trkpt lat="43.73071" lon="4.79563">
        <ele>137.61</ele>
        <time>2013-03-19T10:01:31Z</time>
      </trkpt>
      <trkpt lat="43.73068" lon="4.79568">
        <ele>137.13</ele>
        <time>2013-03-19T10:01:42Z</time>
      </trkpt>
      <trkpt lat="43.73067" lon="4.79569">
        <ele>137.13</ele>
        <time>2013-03-19T10:01:53Z</time>
      </trkpt>
      <trkpt lat="43.73066" lon="4.79572">
        <ele>137.13</ele>
        <time>2013-03-19T10:02:04Z</time>
      </trkpt>
      <trkpt lat="43.73062" lon="4.79572">
        <ele>135.68</ele>
        <time>2013-03-19T10:02:17Z</time>
      </trkpt>
      <trkpt lat="43.73061" lon="4.79574">
        <ele>135.68</ele>
        <time>2013-03-19T10:02:18Z</time>
      </trkpt>
      <trkpt lat="43.7306" lon="4.79575">
        <ele>135.68</ele>
        <time>2013-03-19T10:02:19Z</time>
      </trkpt>
      <trkpt lat="43.73059" lon="4.79577">
        <ele>135.2</ele>
        <time>2013-03-19T10:02:20Z</time>
      </trkpt>
      <trkpt lat="43.73057" lon="4.7958">
        <ele>134.72</ele>
        <time>2013-03-19T10:02:24Z</time>
      </trkpt>
      <trkpt lat="43.73056" lon="4.79582">
        <ele>134.24</ele>
        <time>2013-03-19T10:02:25Z</time>
      </trkpt>
      <trkpt lat="43.73049" lon="4.79592">
        <ele>132.8</ele>
        <time>2013-03-19T10:02:36Z</time>
      </trkpt>
      <trkpt lat="43.73048" lon="4.79598">
        <ele>132.8</ele>
        <time>2013-03-19T10:02:51Z</time>
      </trkpt>
      <trkpt lat="43.73045" lon="4.79607">
        <ele>131.36</ele>
        <time>2013-03-19T10:03:02Z</time>
      </trkpt>
      <trkpt lat="43.73038" lon="4.79611">
        <ele>128.95</ele>
        <time>2013-03-19T10:03:13Z</time>
      </trkpt>
      <trkpt lat="43.73037" lon="4.79612">
        <ele>128.95</ele>
        <time>2013-03-19T10:03:14Z</time>
      </trkpt>
      <trkpt lat="43.73035" lon="4.79613">
        <ele>128.47</ele>
        <time>2013-03-19T10:03:18Z</time>
      </trkpt>
      <trkpt lat="43.73034" lon="4.79613">
        <ele>127.51</ele>
        <time>2013-03-19T10:03:19Z</time>
      </trkpt>
      <trkpt lat="43.73025" lon="4.79625">
        <ele>124.63</ele>
        <time>2013-03-19T10:03:33Z</time>
      </trkpt>
      <trkpt lat="43.73019" lon="4.79632">
        <ele>122.22</ele>
        <time>2013-03-19T10:03:43Z</time>
      </trkpt>
      <trkpt lat="43.73017" lon="4.79633">
        <ele>122.22</ele>
        <time>2013-03-19T10:03:44Z</time>
      </trkpt>
      <trkpt lat="43.73012" lon="4.79638">
        <ele>120.78</ele>
        <time>2013-03-19T10:03:50Z</time>
      </trkpt>
      <trkpt lat="43.73002" lon="4.79651">
        <ele>119.34</ele>
        <time>2013-03-19T10:04:02Z</time>
      </trkpt>
      <trkpt lat="43.73001" lon="4.79653">
        <ele>118.86</ele>
        <time>2013-03-19T10:04:03Z</time>
      </trkpt>
      <trkpt lat="43.73" lon="4.79662">
        <ele>120.78</ele>
        <time>2013-03-19T10:04:18Z</time>
      </trkpt>
      <trkpt lat="43.73" lon="4.79657">
        <ele>119.82</ele>
        <time>2013-03-19T10:04:35Z</time>
      </trkpt>
      <trkpt lat="43.73" lon="4.79656">
        <ele>119.82</ele>
        <time>2013-03-19T10:04:36Z</time>
      </trkpt>
      <trkpt lat="43.73009" lon="4.79645">
        <ele>120.78</ele>
        <time>2013-03-19T10:04:47Z</time>
      </trkpt>
      <trkpt lat="43.73011" lon="4.79641">
        <ele>120.78</ele>
        <time>2013-03-19T10:04:51Z</time>
      </trkpt>
      <trkpt lat="43.7301" lon="4.7964">
        <ele>120.78</ele>
        <time>2013-03-19T10:04:52Z</time>
      </trkpt>
      <trkpt lat="43.73001" lon="4.79638">
        <ele>119.34</ele>
        <time>2013-03-19T10:05:05Z</time>
      </trkpt>
      <trkpt lat="43.7299" lon="4.79633">
        <ele>117.42</ele>
        <time>2013-03-19T10:05:18Z</time>
      </trkpt>
      <trkpt lat="43.72987" lon="4.79632">
        <ele>116.46</ele>
        <time>2013-03-19T10:05:22Z</time>
      </trkpt>
      <trkpt lat="43.72986" lon="4.7963">
        <ele>116.46</ele>
        <time>2013-03-19T10:05:40Z</time>
      </trkpt>
      <trkpt lat="43.72979" lon="4.79629">
        <ele>115.01</ele>
        <time>2013-03-19T10:06:00Z</time>
      </trkpt>
      <trkpt lat="43.72974" lon="4.79624">
        <ele>111.65</ele>
        <time>2013-03-19T10:06:08Z</time>
      </trkpt>
      <trkpt lat="43.72974" lon="4.79624">
        <ele>115.01</ele>
        <time>2013-03-19T10:06:09Z</time>
      </trkpt>
      <trkpt lat="43.72967" lon="4.7962">
        <ele>112.13</ele>
        <time>2013-03-19T10:06:27Z</time>
      </trkpt>
      <trkpt lat="43.72962" lon="4.79618">
        <ele>111.17</ele>
        <time>2013-03-19T10:06:34Z</time>
      </trkpt>
      <trkpt lat="43.72956" lon="4.79615">
        <ele>107.32</ele>
        <time>2013-03-19T10:06:42Z</time>
      </trkpt>
      <trkpt lat="43.72956" lon="4.79615">
        <ele>112.13</ele>
        <time>2013-03-19T10:06:43Z</time>
      </trkpt>
      <trkpt lat="43.72955" lon="4.79615">
        <ele>107.81</ele>
        <time>2013-03-19T10:06:44Z</time>
      </trkpt>
      <trkpt lat="43.72954" lon="4.79615">
        <ele>111.17</ele>
        <time>2013-03-19T10:06:45Z</time>
      </trkpt>
      <trkpt lat="43.72952" lon="4.79615">
        <ele>110.21</ele>
        <time>2013-03-19T10:07:07Z</time>
      </trkpt>
      <trkpt lat="43.72952" lon="4.79615">
        <ele>105.88</ele>
        <time>2013-03-19T10:07:16Z</time>
      </trkpt>
      <trkpt lat="43.72952" lon="4.79615">
        <ele>111.17</ele>
        <time>2013-03-19T10:07:17Z</time>
      </trkpt>
      <trkpt lat="43.72951" lon="4.79615">
        <ele>108.77</ele>
        <time>2013-03-19T10:07:33Z</time>
      </trkpt>
      <trkpt lat="43.72951" lon="4.79615">
        <ele>111.65</ele>
        <time>2013-03-19T10:07:35Z</time>
      </trkpt>
      <trkpt lat="43.72947" lon="4.79612">
        <ele>107.32</ele>
        <time>2013-03-19T10:07:49Z</time>
      </trkpt>
      <trkpt lat="43.7294" lon="4.79609">
        <ele>107.81</ele>
        <time>2013-03-19T10:07:59Z</time>
      </trkpt>
      <trkpt lat="43.72936" lon="4.79608">
        <ele>108.29</ele>
        <time>2013-03-19T10:08:03Z</time>
      </trkpt>
      <trkpt lat="43.72925" lon="4.79593">
        <ele>105.88</ele>
        <time>2013-03-19T10:08:19Z</time>
      </trkpt>
      <trkpt lat="43.7292" lon="4.79587">
        <ele>104.92</ele>
        <time>2013-03-19T10:08:26Z</time>
      </trkpt>
      <trkpt lat="43.72914" lon="4.79576">
        <ele>102.52</ele>
        <time>2013-03-19T10:08:37Z</time>
      </trkpt>
      <trkpt lat="43.72912" lon="4.79571">
        <ele>101.56</ele>
        <time>2013-03-19T10:08:41Z</time>
      </trkpt>
      <trkpt lat="43.72904" lon="4.79556">
        <ele>100.6</ele>
        <time>2013-03-19T10:08:57Z</time>
      </trkpt>
      <trkpt lat="43.72899" lon="4.7954">
        <ele>98.67</ele>
        <time>2013-03-19T10:09:11Z</time>
      </trkpt>
      <trkpt lat="43.72891" lon="4.79538">
        <ele>97.23</ele>
        <time>2013-03-19T10:09:20Z</time>
      </trkpt>
      <trkpt lat="43.72884" lon="4.79528">
        <ele>94.83</ele>
        <time>2013-03-19T10:09:34Z</time>
      </trkpt>
      <trkpt lat="43.72878" lon="4.79526">
        <ele>93.39</ele>
        <time>2013-03-19T10:09:41Z</time>
      </trkpt>
      <trkpt lat="43.72876" lon="4.79526">
        <ele>93.39</ele>
        <time>2013-03-19T10:09:42Z</time>
      </trkpt>
      <trkpt lat="43.72874" lon="4.79525">
        <ele>93.39</ele>
        <time>2013-03-19T10:09:43Z</time>
      </trkpt>
      <trkpt lat="43.72873" lon="4.79525">
        <ele>93.39</ele>
        <time>2013-03-19T10:09:44Z</time>
      </trkpt>
      <trkpt lat="43.7286" lon="4.79532">
        <ele>91.94</ele>
        <time>2013-03-19T10:09:57Z</time>
      </trkpt>
      <trkpt lat="43.7286" lon="4.79533">
        <ele>91.46</ele>
        <time>2013-03-19T10:09:58Z</time>
      </trkpt>
      <trkpt lat="43.72859" lon="4.79534">
        <ele>91.46</ele>
        <time>2013-03-19T10:09:59Z</time>
      </trkpt>
      <trkpt lat="43.72847" lon="4.7954">
        <ele>90.98</ele>
        <time>2013-03-19T10:10:10Z</time>
      </trkpt>
      <trkpt lat="43.72828" lon="4.79546">
        <ele>88.58</ele>
        <time>2013-03-19T10:10:28Z</time>
      </trkpt>
      <trkpt lat="43.72818" lon="4.79546">
        <ele>85.21</ele>
        <time>2013-03-19T10:10:40Z</time>
      </trkpt>
      <trkpt lat="43.72817" lon="4.79546">
        <ele>85.21</ele>
        <time>2013-03-19T10:10:41Z</time>
      </trkpt>
      <trkpt lat="43.72817" lon="4.79546">
        <ele>90.5</ele>
        <time>2013-03-19T10:10:42Z</time>
      </trkpt>
      <trkpt lat="43.72817" lon="4.79546">
        <ele>87.62</ele>
        <time>2013-03-19T10:10:43Z</time>
      </trkpt>
      <trkpt lat="43.72814" lon="4.79548">
        <ele>86.66</ele>
        <time>2013-03-19T10:10:49Z</time>
      </trkpt>
      <trkpt lat="43.72814" lon="4.79552">
        <ele>87.14</ele>
        <time>2013-03-19T10:10:52Z</time>
      </trkpt>
      <trkpt lat="43.72814" lon="4.7958">
        <ele>85.69</ele>
        <time>2013-03-19T10:11:09Z</time>
      </trkpt>
      <trkpt lat="43.72812" lon="4.79588">
        <ele>84.73</ele>
        <time>2013-03-19T10:11:15Z</time>
      </trkpt>
      <trkpt lat="43.72806" lon="4.79607">
        <ele>83.29</ele>
        <time>2013-03-19T10:11:31Z</time>
      </trkpt>
      <trkpt lat="43.72804" lon="4.79615">
        <ele>84.25</ele>
        <time>2013-03-19T10:11:48Z</time>
      </trkpt>
      <trkpt lat="43.72802" lon="4.79618">
        <ele>82.81</ele>
        <time>2013-03-19T10:12:08Z</time>
      </trkpt>
      <trkpt lat="43.728" lon="4.7963">
        <ele>82.81</ele>
        <time>2013-03-19T10:12:20Z</time>
      </trkpt>
      <trkpt lat="43.72805" lon="4.7965">
        <ele>83.77</ele>
        <time>2013-03-19T10:12:34Z</time>
      </trkpt>
      <trkpt lat="43.72808" lon="4.79651">
        <ele>80.41</ele>
        <time>2013-03-19T10:12:37Z</time>
      </trkpt>
      <trkpt lat="43.72809" lon="4.79652">
        <ele>87.14</ele>
        <time>2013-03-19T10:12:38Z</time>
      </trkpt>
      <trkpt lat="43.72819" lon="4.7966">
        <ele>82.81</ele>
        <time>2013-03-19T10:12:48Z</time>
      </trkpt>
      <trkpt lat="43.72821" lon="4.7966">
        <ele>87.62</ele>
        <time>2013-03-19T10:12:49Z</time>
      </trkpt>
      <trkpt lat="43.72824" lon="4.79677">
        <ele>86.66</ele>
        <time>2013-03-19T10:13:00Z</time>
      </trkpt>
      <trkpt lat="43.72823" lon="4.79682">
        <ele>86.66</ele>
        <time>2013-03-19T10:13:05Z</time>
      </trkpt>
      <trkpt lat="43.72823" lon="4.79684">
        <ele>86.66</ele>
        <time>2013-03-19T10:13:06Z</time>
      </trkpt>
      <trkpt lat="43.72823" lon="4.79686">
        <ele>86.66</ele>
        <time>2013-03-19T10:13:07Z</time>
      </trkpt>
      <trkpt lat="43.72822" lon="4.79688">
        <ele>86.66</ele>
        <time>2013-03-19T10:13:08Z</time>
      </trkpt>
      <trkpt lat="43.72821" lon="4.79689">
        <ele>87.14</ele>
        <time>2013-03-19T10:13:09Z</time>
      </trkpt>
      <trkpt lat="43.72821" lon="4.7969">
        <ele>86.66</ele>
        <time>2013-03-19T10:13:10Z</time>
      </trkpt>
      <trkpt lat="43.72811" lon="4.797">
        <ele>87.14</ele>
        <time>2013-03-19T10:13:24Z</time>
      </trkpt>
      <trkpt lat="43.72809" lon="4.797">
        <ele>83.77</ele>
        <time>2013-03-19T10:13:45Z</time>
      </trkpt>
      <trkpt lat="43.72809" lon="4.79699">
        <ele>88.1</ele>
        <time>2013-03-19T10:13:46Z</time>
      </trkpt>
      <trkpt lat="43.7281" lon="4.79702">
        <ele>84.73</ele>
        <time>2013-03-19T10:14:09Z</time>
      </trkpt>
      <trkpt lat="43.7281" lon="4.79702">
        <ele>88.1</ele>
        <time>2013-03-19T10:14:10Z</time>
      </trkpt>
      <trkpt lat="43.7281" lon="4.79704">
        <ele>86.18</ele>
        <time>2013-03-19T10:14:38Z</time>
      </trkpt>
      <trkpt lat="43.7281" lon="4.79704">
        <ele>86.18</ele>
        <time>2013-03-19T10:15:07Z</time>
      </trkpt>
      <trkpt lat="43.72808" lon="4.79701">
        <ele>86.18</ele>
        <time>2013-03-19T10:15:40Z</time>
      </trkpt>
      <trkpt lat="43.72802" lon="4.797">
        <ele>85.69</ele>
        <time>2013-03-19T10:16:05Z</time>
      </trkpt>
      <trkpt lat="43.728" lon="4.79697">
        <ele>84.25</ele>
        <time>2013-03-19T10:16:09Z</time>
      </trkpt>
      <trkpt lat="43.72798" lon="4.79696">
        <ele>85.21</ele>
        <time>2013-03-19T10:16:30Z</time>
      </trkpt>
      <trkpt lat="43.72798" lon="4.79694">
        <ele>84.25</ele>
        <time>2013-03-19T10:16:57Z</time>
      </trkpt>
      <trkpt lat="43.72794" lon="4.79691">
        <ele>83.77</ele>
        <time>2013-03-19T10:17:20Z</time>
      </trkpt>
      <trkpt lat="43.72793" lon="4.79688">
        <ele>83.77</ele>
        <time>2013-03-19T10:17:22Z</time>
      </trkpt>
      <trkpt lat="43.72793" lon="4.79689">
        <ele>82.33</ele>
        <time>2013-03-19T10:17:35Z</time>
      </trkpt>
      <trkpt lat="43.72796" lon="4.79691">
        <ele>83.29</ele>
        <time>2013-03-19T10:17:51Z</time>
      </trkpt>
      <trkpt lat="43.72795" lon="4.79694">
        <ele>82.81</ele>
        <time>2013-03-19T10:17:59Z</time>
      </trkpt>
      <trkpt lat="43.72804" lon="4.79703">
        <ele>86.18</ele>
        <time>2013-03-19T10:18:13Z</time>
      </trkpt>
      <trkpt lat="43.72811" lon="4.79704">
        <ele>87.14</ele>
        <time>2013-03-19T10:18:25Z</time>
      </trkpt>
      <trkpt lat="43.7281" lon="4.79704">
        <ele>87.14</ele>
        <time>2013-03-19T10:18:43Z</time>
      </trkpt>
      <trkpt lat="43.7281" lon="4.79704">
        <ele>90.5</ele>
        <time>2013-03-19T10:18:50Z</time>
      </trkpt>
      <trkpt lat="43.72811" lon="4.79704">
        <ele>87.14</ele>
        <time>2013-03-19T10:18:57Z</time>
      </trkpt>
      <trkpt lat="43.72811" lon="4.79705">
        <ele>87.14</ele>
        <time>2013-03-19T10:19:27Z</time>
      </trkpt>
      <trkpt lat="43.72816" lon="4.79694">
        <ele>87.14</ele>
        <time>2013-03-19T10:19:39Z</time>
      </trkpt>
      <trkpt lat="43.72817" lon="4.79691">
        <ele>86.66</ele>
        <time>2013-03-19T10:20:08Z</time>
      </trkpt>
      <trkpt lat="43.72812" lon="4.79703">
        <ele>86.18</ele>
        <time>2013-03-19T10:20:34Z</time>
      </trkpt>
      <trkpt lat="43.72812" lon="4.79703">
        <ele>87.62</ele>
        <time>2013-03-19T10:20:43Z</time>
      </trkpt>
      <trkpt lat="43.72811" lon="4.797">
        <ele>83.77</ele>
        <time>2013-03-19T10:21:12Z</time>
      </trkpt>
      <trkpt lat="43.72811" lon="4.797">
        <ele>89.06</ele>
        <time>2013-03-19T10:21:13Z</time>
      </trkpt>
      <trkpt lat="43.72811" lon="4.797">
        <ele>86.18</ele>
        <time>2013-03-19T10:21:15Z</time>
      </trkpt>
      <trkpt lat="43.72811" lon="4.797">
        <ele>82.33</ele>
        <time>2013-03-19T10:21:16Z</time>
      </trkpt>
      <trkpt lat="43.72811" lon="4.797">
        <ele>88.1</ele>
        <time>2013-03-19T10:21:17Z</time>
      </trkpt>
      <trkpt lat="43.72811" lon="4.797">
        <ele>88.1</ele>
        <time>2013-03-19T10:21:18Z</time>
      </trkpt>
      <trkpt lat="43.72811" lon="4.79699">
        <ele>86.66</ele>
        <time>2013-03-19T10:21:20Z</time>
      </trkpt>
      <trkpt lat="43.7281" lon="4.79698">
        <ele>86.66</ele>
        <time>2013-03-19T10:21:41Z</time>
      </trkpt>
      <trkpt lat="43.72811" lon="4.79699">
        <ele>85.69</ele>
        <time>2013-03-19T10:21:53Z</time>
      </trkpt>
      <trkpt lat="43.72814" lon="4.79699">
        <ele>86.66</ele>
        <time>2013-03-19T10:22:25Z</time>
      </trkpt>
      <trkpt lat="43.72821" lon="4.79692">
        <ele>86.66</ele>
        <time>2013-03-19T10:22:47Z</time>
      </trkpt>
      <trkpt lat="43.72827" lon="4.79677">
        <ele>87.14</ele>
        <time>2013-03-19T10:23:00Z</time>
      </trkpt>
      <trkpt lat="43.72822" lon="4.79659">
        <ele>86.18</ele>
        <time>2013-03-19T10:23:12Z</time>
      </trkpt>
      <trkpt lat="43.72819" lon="4.79657">
        <ele>85.69</ele>
        <time>2013-03-19T10:23:16Z</time>
      </trkpt>
      <trkpt lat="43.72807" lon="4.79649">
        <ele>83.77</ele>
        <time>2013-03-19T10:23:28Z</time>
      </trkpt>
      <trkpt lat="43.72805" lon="4.79646">
        <ele>83.77</ele>
        <time>2013-03-19T10:23:32Z</time>
      </trkpt>
      <trkpt lat="43.72805" lon="4.79645">
        <ele>83.77</ele>
        <time>2013-03-19T10:23:33Z</time>
      </trkpt>
      <trkpt lat="43.72806" lon="4.79632">
        <ele>83.77</ele>
        <time>2013-03-19T10:23:40Z</time>
      </trkpt>
      <trkpt lat="43.72806" lon="4.79622">
        <ele>83.77</ele>
        <time>2013-03-19T10:23:47Z</time>
      </trkpt>
      <trkpt lat="43.7281" lon="4.79597">
        <ele>85.69</ele>
        <time>2013-03-19T10:24:03Z</time>
      </trkpt>
      <trkpt lat="43.72816" lon="4.79579">
        <ele>86.66</ele>
        <time>2013-03-19T10:24:16Z</time>
      </trkpt>
      <trkpt lat="43.72817" lon="4.79553">
        <ele>88.58</ele>
        <time>2013-03-19T10:24:33Z</time>
      </trkpt>
      <trkpt lat="43.72815" lon="4.7955">
        <ele>84.25</ele>
        <time>2013-03-19T10:24:37Z</time>
      </trkpt>
      <trkpt lat="43.72815" lon="4.7955">
        <ele>91.46</ele>
        <time>2013-03-19T10:24:38Z</time>
      </trkpt>
      <trkpt lat="43.72814" lon="4.79548">
        <ele>88.1</ele>
        <time>2013-03-19T10:24:41Z</time>
      </trkpt>
      <trkpt lat="43.72814" lon="4.79547">
        <ele>88.1</ele>
        <time>2013-03-19T10:24:55Z</time>
      </trkpt>
      <trkpt lat="43.72814" lon="4.79546">
        <ele>89.06</ele>
        <time>2013-03-19T10:24:57Z</time>
      </trkpt>
      <trkpt lat="43.72812" lon="4.79536">
        <ele>89.54</ele>
        <time>2013-03-19T10:25:05Z</time>
      </trkpt>
      <trkpt lat="43.72813" lon="4.79517">
        <ele>91.46</ele>
        <time>2013-03-19T10:25:19Z</time>
      </trkpt>
      <trkpt lat="43.72814" lon="4.79503">
        <ele>92.9</ele>
        <time>2013-03-19T10:25:31Z</time>
      </trkpt>
      <trkpt lat="43.72811" lon="4.79493">
        <ele>92.9</ele>
        <time>2013-03-19T10:25:42Z</time>
      </trkpt>
      <trkpt lat="43.72807" lon="4.79468">
        <ele>90.98</ele>
        <time>2013-03-19T10:25:55Z</time>
      </trkpt>
      <trkpt lat="43.72804" lon="4.79465">
        <ele>90.5</ele>
        <time>2013-03-19T10:26:00Z</time>
      </trkpt>
      <trkpt lat="43.72793" lon="4.79456">
        <ele>89.54</ele>
        <time>2013-03-19T10:26:11Z</time>
      </trkpt>
      <trkpt lat="43.7278" lon="4.79455">
        <ele>89.06</ele>
        <time>2013-03-19T10:26:23Z</time>
      </trkpt>
      <trkpt lat="43.72775" lon="4.79453">
        <ele>89.54</ele>
        <time>2013-03-19T10:26:27Z</time>
      </trkpt>
      <trkpt lat="43.7276" lon="4.79448">
        <ele>89.06</ele>
        <time>2013-03-19T10:26:41Z</time>
      </trkpt>
      <trkpt lat="43.72756" lon="4.79446">
        <ele>89.06</ele>
        <time>2013-03-19T10:26:46Z</time>
      </trkpt>
      <trkpt lat="43.72751" lon="4.79441">
        <ele>90.5</ele>
        <time>2013-03-19T10:27:01Z</time>
      </trkpt>
      <trkpt lat="43.72752" lon="4.79438">
        <ele>90.02</ele>
        <time>2013-03-19T10:27:10Z</time>
      </trkpt>
      <trkpt lat="43.72747" lon="4.79422">
        <ele>90.5</ele>
        <time>2013-03-19T10:27:23Z</time>
      </trkpt>
      <trkpt lat="43.72745" lon="4.79421">
        <ele>90.02</ele>
        <time>2013-03-19T10:27:41Z</time>
      </trkpt>
      <trkpt lat="43.72745" lon="4.79421">
        <ele>90.98</ele>
        <time>2013-03-19T10:27:58Z</time>
      </trkpt>
      <trkpt lat="43.72745" lon="4.79422">
        <ele>89.06</ele>
        <time>2013-03-19T10:28:16Z</time>
      </trkpt>
      <trkpt lat="43.72745" lon="4.79421">
        <ele>92.42</ele>
        <time>2013-03-19T10:28:17Z</time>
      </trkpt>
      <trkpt lat="43.72745" lon="4.79423">
        <ele>90.5</ele>
        <time>2013-03-19T10:28:26Z</time>
      </trkpt>
      <trkpt lat="43.72748" lon="4.79431">
        <ele>90.02</ele>
        <time>2013-03-19T10:28:29Z</time>
      </trkpt>
      <trkpt lat="43.72753" lon="4.79425">
        <ele>87.62</ele>
        <time>2013-03-19T10:28:40Z</time>
      </trkpt>
      <trkpt lat="43.72754" lon="4.79415">
        <ele>88.1</ele>
        <time>2013-03-19T10:28:55Z</time>
      </trkpt>
      <trkpt lat="43.72754" lon="4.79415">
        <ele>87.14</ele>
        <time>2013-03-19T10:29:09Z</time>
      </trkpt>
      <trkpt lat="43.72756" lon="4.79412">
        <ele>87.14</ele>
        <time>2013-03-19T10:29:12Z</time>
      </trkpt>
      <trkpt lat="43.72757" lon="4.79407">
        <ele>87.62</ele>
        <time>2013-03-19T10:29:24Z</time>
      </trkpt>
      <trkpt lat="43.72756" lon="4.79406">
        <ele>86.66</ele>
        <time>2013-03-19T10:29:48Z</time>
      </trkpt>
      <trkpt lat="43.72754" lon="4.79404">
        <ele>87.14</ele>
        <time>2013-03-19T10:30:00Z</time>
      </trkpt>
      <trkpt lat="43.72754" lon="4.79402">
        <ele>87.14</ele>
        <time>2013-03-19T10:30:03Z</time>
      </trkpt>
      <trkpt lat="43.72754" lon="4.79399">
        <ele>87.14</ele>
        <time>2013-03-19T10:30:13Z</time>
      </trkpt>
      <trkpt lat="43.72753" lon="4.79389">
        <ele>87.62</ele>
        <time>2013-03-19T10:30:21Z</time>
      </trkpt>
      <trkpt lat="43.72752" lon="4.79388">
        <ele>88.1</ele>
        <time>2013-03-19T10:30:23Z</time>
      </trkpt>
      <trkpt lat="43.72752" lon="4.79385">
        <ele>88.58</ele>
        <time>2013-03-19T10:30:25Z</time>
      </trkpt>
      <trkpt lat="43.72754" lon="4.79379">
        <ele>87.62</ele>
        <time>2013-03-19T10:30:31Z</time>
      </trkpt>
      <trkpt lat="43.72758" lon="4.79359">
        <ele>84.25</ele>
        <time>2013-03-19T10:30:45Z</time>
      </trkpt>
      <trkpt lat="43.72758" lon="4.79354">
        <ele>84.25</ele>
        <time>2013-03-19T10:30:56Z</time>
      </trkpt>
      <trkpt lat="43.72758" lon="4.7935">
        <ele>84.25</ele>
        <time>2013-03-19T10:31:06Z</time>
      </trkpt>
      <trkpt lat="43.72758" lon="4.79349">
        <ele>84.25</ele>
        <time>2013-03-19T10:31:08Z</time>
      </trkpt>
      <trkpt lat="43.72757" lon="4.79342">
        <ele>84.73</ele>
        <time>2013-03-19T10:31:24Z</time>
      </trkpt>
      <trkpt lat="43.72757" lon="4.79343">
        <ele>84.25</ele>
        <time>2013-03-19T10:31:42Z</time>
      </trkpt>
      <trkpt lat="43.72757" lon="4.79342">
        <ele>84.73</ele>
        <time>2013-03-19T10:31:54Z</time>
      </trkpt>
      <trkpt lat="43.72756" lon="4.79339">
        <ele>85.21</ele>
        <time>2013-03-19T10:31:59Z</time>
      </trkpt>
      <trkpt lat="43.72756" lon="4.79337">
        <ele>85.69</ele>
        <time>2013-03-19T10:32:01Z</time>
      </trkpt>
      <trkpt lat="43.72755" lon="4.79333">
        <ele>86.18</ele>
        <time>2013-03-19T10:32:05Z</time>
      </trkpt>
      <trkpt lat="43.72753" lon="4.79331">
        <ele>87.14</ele>
        <time>2013-03-19T10:32:07Z</time>
      </trkpt>
      <trkpt lat="43.72752" lon="4.79327">
        <ele>87.62</ele>
        <time>2013-03-19T10:32:10Z</time>
      </trkpt>
      <trkpt lat="43.72742" lon="4.79316">
        <ele>87.62</ele>
        <time>2013-03-19T10:32:22Z</time>
      </trkpt>
      <trkpt lat="43.72743" lon="4.79315">
        <ele>87.62</ele>
        <time>2013-03-19T10:32:47Z</time>
      </trkpt>
      <trkpt lat="43.72738" lon="4.79317">
        <ele>87.14</ele>
        <time>2013-03-19T10:33:00Z</time>
      </trkpt>
      <trkpt lat="43.72735" lon="4.79318">
        <ele>86.18</ele>
        <time>2013-03-19T10:33:10Z</time>
      </trkpt>
      <trkpt lat="43.72724" lon="4.79312">
        <ele>86.18</ele>
        <time>2013-03-19T10:33:21Z</time>
      </trkpt>
      <trkpt lat="43.72723" lon="4.79308">
        <ele>86.66</ele>
        <time>2013-03-19T10:33:25Z</time>
      </trkpt>
      <trkpt lat="43.72726" lon="4.79297">
        <ele>87.62</ele>
        <time>2013-03-19T10:33:40Z</time>
      </trkpt>
      <trkpt lat="43.72725" lon="4.79296">
        <ele>86.66</ele>
        <time>2013-03-19T10:33:58Z</time>
      </trkpt>
      <trkpt lat="43.72725" lon="4.79294">
        <ele>86.66</ele>
        <time>2013-03-19T10:34:00Z</time>
      </trkpt>
      <trkpt lat="43.72725" lon="4.79286">
        <ele>83.29</ele>
        <time>2013-03-19T10:34:07Z</time>
      </trkpt>
      <trkpt lat="43.72726" lon="4.79275">
        <ele>79.93</ele>
        <time>2013-03-19T10:34:16Z</time>
      </trkpt>
      <trkpt lat="43.72727" lon="4.79274">
        <ele>85.21</ele>
        <time>2013-03-19T10:34:17Z</time>
      </trkpt>
      <trkpt lat="43.72729" lon="4.79271">
        <ele>82.33</ele>
        <time>2013-03-19T10:34:21Z</time>
      </trkpt>
      <trkpt lat="43.72734" lon="4.79256">
        <ele>79.93</ele>
        <time>2013-03-19T10:34:35Z</time>
      </trkpt>
      <trkpt lat="43.72736" lon="4.79249">
        <ele>78.48</ele>
        <time>2013-03-19T10:34:49Z</time>
      </trkpt>
      <trkpt lat="43.72735" lon="4.79244">
        <ele>77.52</ele>
        <time>2013-03-19T10:35:06Z</time>
      </trkpt>
      <trkpt lat="43.72738" lon="4.7923">
        <ele>76.08</ele>
        <time>2013-03-19T10:35:19Z</time>
      </trkpt>
      <trkpt lat="43.72739" lon="4.79225">
        <ele>75.12</ele>
        <time>2013-03-19T10:35:22Z</time>
      </trkpt>
      <trkpt lat="43.7274" lon="4.79222">
        <ele>74.64</ele>
        <time>2013-03-19T10:35:26Z</time>
      </trkpt>
      <trkpt lat="43.7274" lon="4.79219">
        <ele>73.68</ele>
        <time>2013-03-19T10:35:28Z</time>
      </trkpt>
      <trkpt lat="43.72738" lon="4.79211">
        <ele>72.24</ele>
        <time>2013-03-19T10:35:39Z</time>
      </trkpt>
      <trkpt lat="43.72739" lon="4.79195">
        <ele>69.35</ele>
        <time>2013-03-19T10:35:52Z</time>
      </trkpt>
      <trkpt lat="43.72738" lon="4.79181">
        <ele>67.43</ele>
        <time>2013-03-19T10:36:02Z</time>
      </trkpt>
      <trkpt lat="43.72739" lon="4.79178">
        <ele>67.43</ele>
        <time>2013-03-19T10:36:04Z</time>
      </trkpt>
      <trkpt lat="43.72741" lon="4.79162">
        <ele>66.47</ele>
        <time>2013-03-19T10:36:16Z</time>
      </trkpt>
      <trkpt lat="43.72741" lon="4.79158">
        <ele>66.47</ele>
        <time>2013-03-19T10:36:19Z</time>
      </trkpt>
      <trkpt lat="43.72743" lon="4.79151">
        <ele>65.03</ele>
        <time>2013-03-19T10:36:27Z</time>
      </trkpt>
      <trkpt lat="43.72746" lon="4.79146">
        <ele>63.1</ele>
        <time>2013-03-19T10:36:38Z</time>
      </trkpt>
      <trkpt lat="43.72745" lon="4.79139">
        <ele>62.14</ele>
        <time>2013-03-19T10:36:49Z</time>
      </trkpt>
      <trkpt lat="43.72743" lon="4.79135">
        <ele>62.62</ele>
        <time>2013-03-19T10:37:06Z</time>
      </trkpt>
      <trkpt lat="43.72744" lon="4.79133">
        <ele>63.58</ele>
        <time>2013-03-19T10:37:25Z</time>
      </trkpt>
      <trkpt lat="43.72747" lon="4.79129">
        <ele>63.1</ele>
        <time>2013-03-19T10:37:50Z</time>
      </trkpt>
      <trkpt lat="43.7274" lon="4.79129">
        <ele>62.14</ele>
        <time>2013-03-19T10:37:55Z</time>
      </trkpt>
      <trkpt lat="43.7274" lon="4.79134">
        <ele>62.14</ele>
        <time>2013-03-19T10:38:01Z</time>
      </trkpt>
      <trkpt lat="43.72738" lon="4.79128">
        <ele>62.14</ele>
        <time>2013-03-19T10:38:07Z</time>
      </trkpt>
      <trkpt lat="43.72728" lon="4.7912">
        <ele>62.14</ele>
        <time>2013-03-19T10:38:20Z</time>
      </trkpt>
      <trkpt lat="43.72722" lon="4.79119">
        <ele>62.14</ele>
        <time>2013-03-19T10:38:32Z</time>
      </trkpt>
      <trkpt lat="43.72719" lon="4.7912">
        <ele>61.18</ele>
        <time>2013-03-19T10:38:36Z</time>
      </trkpt>
      <trkpt lat="43.72712" lon="4.79122">
        <ele>60.22</ele>
        <time>2013-03-19T10:38:49Z</time>
      </trkpt>
      <trkpt lat="43.72706" lon="4.79123">
        <ele>58.78</ele>
        <time>2013-03-19T10:38:59Z</time>
      </trkpt>
      <trkpt lat="43.72695" lon="4.7913">
        <ele>57.82</ele>
        <time>2013-03-19T10:39:12Z</time>
      </trkpt>
      <trkpt lat="43.72687" lon="4.79133">
        <ele>57.34</ele>
        <time>2013-03-19T10:39:22Z</time>
      </trkpt>
      <trkpt lat="43.72673" lon="4.79134">
        <ele>55.89</ele>
        <time>2013-03-19T10:39:35Z</time>
      </trkpt>
      <trkpt lat="43.72661" lon="4.79131">
        <ele>54.45</ele>
        <time>2013-03-19T10:39:48Z</time>
      </trkpt>
      <trkpt lat="43.72652" lon="4.79132">
        <ele>54.45</ele>
        <time>2013-03-19T10:40:00Z</time>
      </trkpt>
      <trkpt lat="43.72646" lon="4.79132">
        <ele>53.97</ele>
        <time>2013-03-19T10:40:06Z</time>
      </trkpt>
      <trkpt lat="43.72635" lon="4.79132">
        <ele>53.49</ele>
        <time>2013-03-19T10:40:19Z</time>
      </trkpt>
      <trkpt lat="43.72623" lon="4.79132">
        <ele>52.05</ele>
        <time>2013-03-19T10:40:32Z</time>
      </trkpt>
      <trkpt lat="43.72617" lon="4.79132">
        <ele>51.57</ele>
        <time>2013-03-19T10:40:46Z</time>
      </trkpt>
      <trkpt lat="43.72611" lon="4.79132">
        <ele>51.09</ele>
        <time>2013-03-19T10:40:52Z</time>
      </trkpt>
      <trkpt lat="43.72606" lon="4.79133">
        <ele>51.09</ele>
        <time>2013-03-19T10:40:59Z</time>
      </trkpt>
      <trkpt lat="43.72595" lon="4.79132">
        <ele>49.65</ele>
        <time>2013-03-19T10:41:11Z</time>
      </trkpt>
      <trkpt lat="43.72587" lon="4.79137">
        <ele>49.16</ele>
        <time>2013-03-19T10:41:21Z</time>
      </trkpt>
      <trkpt lat="43.72588" lon="4.7914">
        <ele>49.16</ele>
        <time>2013-03-19T10:41:25Z</time>
      </trkpt>
      <trkpt lat="43.72589" lon="4.79143">
        <ele>51.57</ele>
        <time>2013-03-19T10:41:38Z</time>
      </trkpt>
      <trkpt lat="43.7259" lon="4.79142">
        <ele>51.57</ele>
        <time>2013-03-19T10:41:40Z</time>
      </trkpt>
      <trkpt lat="43.72585" lon="4.79131">
        <ele>49.65</ele>
        <time>2013-03-19T10:41:54Z</time>
      </trkpt>
      <trkpt lat="43.72573" lon="4.79124">
        <ele>47.72</ele>
        <time>2013-03-19T10:42:06Z</time>
      </trkpt>
      <trkpt lat="43.7257" lon="4.79121">
        <ele>47.72</ele>
        <time>2013-03-19T10:42:10Z</time>
      </trkpt>
      <trkpt lat="43.7256" lon="4.79114">
        <ele>46.28</ele>
        <time>2013-03-19T10:42:23Z</time>
      </trkpt>
      <trkpt lat="43.72548" lon="4.7911">
        <ele>45.8</ele>
        <time>2013-03-19T10:42:36Z</time>
      </trkpt>
      <trkpt lat="43.72544" lon="4.79111">
        <ele>45.32</ele>
        <time>2013-03-19T10:42:38Z</time>
      </trkpt>
      <trkpt lat="43.72528" lon="4.79111">
        <ele>43.88</ele>
        <time>2013-03-19T10:42:52Z</time>
      </trkpt>
      <trkpt lat="43.72512" lon="4.79108">
        <ele>43.88</ele>
        <time>2013-03-19T10:43:06Z</time>
      </trkpt>
      <trkpt lat="43.72509" lon="4.79109">
        <ele>42.92</ele>
        <time>2013-03-19T10:43:11Z</time>
      </trkpt>
      <trkpt lat="43.72508" lon="4.79109">
        <ele>42.92</ele>
        <time>2013-03-19T10:43:12Z</time>
      </trkpt>
      <trkpt lat="43.72506" lon="4.79109">
        <ele>42.44</ele>
        <time>2013-03-19T10:43:13Z</time>
      </trkpt>
      <trkpt lat="43.72504" lon="4.79109">
        <ele>42.92</ele>
        <time>2013-03-19T10:43:14Z</time>
      </trkpt>
      <trkpt lat="43.72503" lon="4.79109">
        <ele>42.44</ele>
        <time>2013-03-19T10:43:15Z</time>
      </trkpt>
      <trkpt lat="43.72489" lon="4.79108">
        <ele>41.95</ele>
        <time>2013-03-19T10:43:28Z</time>
      </trkpt>
      <trkpt lat="43.72478" lon="4.79105">
        <ele>40.99</ele>
        <time>2013-03-19T10:43:37Z</time>
      </trkpt>
      <trkpt lat="43.72477" lon="4.79105">
        <ele>41.47</ele>
        <time>2013-03-19T10:43:38Z</time>
      </trkpt>
      <trkpt lat="43.72464" lon="4.79106">
        <ele>40.03</ele>
        <time>2013-03-19T10:43:49Z</time>
      </trkpt>
      <trkpt lat="43.72448" lon="4.79103">
        <ele>39.55</ele>
        <time>2013-03-19T10:44:02Z</time>
      </trkpt>
      <trkpt lat="43.7243" lon="4.79102">
        <ele>38.11</ele>
        <time>2013-03-19T10:44:16Z</time>
      </trkpt>
      <trkpt lat="43.72426" lon="4.79104">
        <ele>37.63</ele>
        <time>2013-03-19T10:44:21Z</time>
      </trkpt>
      <trkpt lat="43.72425" lon="4.79104">
        <ele>37.63</ele>
        <time>2013-03-19T10:44:22Z</time>
      </trkpt>
      <trkpt lat="43.72423" lon="4.79104">
        <ele>37.63</ele>
        <time>2013-03-19T10:44:23Z</time>
      </trkpt>
      <trkpt lat="43.72421" lon="4.79104">
        <ele>37.63</ele>
        <time>2013-03-19T10:44:24Z</time>
      </trkpt>
      <trkpt lat="43.7242" lon="4.79105">
        <ele>37.15</ele>
        <time>2013-03-19T10:44:25Z</time>
      </trkpt>
      <trkpt lat="43.72408" lon="4.79105">
        <ele>37.63</ele>
        <time>2013-03-19T10:44:35Z</time>
      </trkpt>
      <trkpt lat="43.72405" lon="4.79107">
        <ele>36.67</ele>
        <time>2013-03-19T10:44:41Z</time>
      </trkpt>
      <trkpt lat="43.72403" lon="4.79108">
        <ele>36.67</ele>
        <time>2013-03-19T10:44:42Z</time>
      </trkpt>
      <trkpt lat="43.72401" lon="4.79109">
        <ele>36.67</ele>
        <time>2013-03-19T10:44:43Z</time>
      </trkpt>
      <trkpt lat="43.72385" lon="4.79113">
        <ele>35.71</ele>
        <time>2013-03-19T10:44:55Z</time>
      </trkpt>
      <trkpt lat="43.72384" lon="4.79117">
        <ele>35.71</ele>
        <time>2013-03-19T10:45:05Z</time>
      </trkpt>
      <trkpt lat="43.72381" lon="4.79117">
        <ele>35.71</ele>
        <time>2013-03-19T10:45:15Z</time>
      </trkpt>
      <trkpt lat="43.7237" lon="4.79118">
        <ele>35.23</ele>
        <time>2013-03-19T10:45:26Z</time>
      </trkpt>
      <trkpt lat="43.72359" lon="4.79116">
        <ele>34.74</ele>
        <time>2013-03-19T10:45:40Z</time>
      </trkpt>
      <trkpt lat="43.72357" lon="4.79114">
        <ele>34.74</ele>
        <time>2013-03-19T10:45:44Z</time>
      </trkpt>
      <trkpt lat="43.72355" lon="4.79108">
        <ele>34.26</ele>
        <time>2013-03-19T10:45:53Z</time>
      </trkpt>
      <trkpt lat="43.72356" lon="4.79104">
        <ele>34.74</ele>
        <time>2013-03-19T10:45:58Z</time>
      </trkpt>
      <trkpt lat="43.72357" lon="4.79102">
        <ele>34.26</ele>
        <time>2013-03-19T10:45:59Z</time>
      </trkpt>
      <trkpt lat="43.72357" lon="4.791">
        <ele>34.74</ele>
        <time>2013-03-19T10:46:00Z</time>
      </trkpt>
      <trkpt lat="43.72359" lon="4.79086">
        <ele>34.26</ele>
        <time>2013-03-19T10:46:11Z</time>
      </trkpt>
      <trkpt lat="43.7236" lon="4.7907">
        <ele>34.74</ele>
        <time>2013-03-19T10:46:21Z</time>
      </trkpt>
      <trkpt lat="43.72361" lon="4.79066">
        <ele>34.74</ele>
        <time>2013-03-19T10:46:24Z</time>
      </trkpt>
      <trkpt lat="43.72361" lon="4.79064">
        <ele>35.23</ele>
        <time>2013-03-19T10:46:25Z</time>
      </trkpt>
      <trkpt lat="43.72368" lon="4.79046">
        <ele>35.23</ele>
        <time>2013-03-19T10:46:38Z</time>
      </trkpt>
      <trkpt lat="43.72374" lon="4.7903">
        <ele>34.74</ele>
        <time>2013-03-19T10:46:51Z</time>
      </trkpt>
      <trkpt lat="43.72381" lon="4.7901">
        <ele>35.23</ele>
        <time>2013-03-19T10:47:03Z</time>
      </trkpt>
      <trkpt lat="43.72385" lon="4.78994">
        <ele>35.23</ele>
        <time>2013-03-19T10:47:14Z</time>
      </trkpt>
      <trkpt lat="43.72386" lon="4.78974">
        <ele>35.71</ele>
        <time>2013-03-19T10:47:26Z</time>
      </trkpt>
      <trkpt lat="43.72387" lon="4.78952">
        <ele>35.71</ele>
        <time>2013-03-19T10:47:40Z</time>
      </trkpt>
      <trkpt lat="43.72388" lon="4.7893">
        <ele>35.71</ele>
        <time>2013-03-19T10:47:52Z</time>
      </trkpt>
      <trkpt lat="43.72388" lon="4.78903">
        <ele>36.67</ele>
        <time>2013-03-19T10:48:08Z</time>
      </trkpt>
      <trkpt lat="43.72389" lon="4.78881">
        <ele>36.67</ele>
        <time>2013-03-19T10:48:22Z</time>
      </trkpt>
      <trkpt lat="43.72389" lon="4.7888">
        <ele>36.19</ele>
        <time>2013-03-19T10:48:23Z</time>
      </trkpt>
      <trkpt lat="43.72389" lon="4.78878">
        <ele>35.23</ele>
        <time>2013-03-19T10:48:24Z</time>
      </trkpt>
      <trkpt lat="43.72393" lon="4.78857">
        <ele>36.67</ele>
        <time>2013-03-19T10:48:38Z</time>
      </trkpt>
      <trkpt lat="43.72398" lon="4.78831">
        <ele>36.67</ele>
        <time>2013-03-19T10:48:54Z</time>
      </trkpt>
      <trkpt lat="43.72403" lon="4.78803">
        <ele>37.15</ele>
        <time>2013-03-19T10:49:13Z</time>
      </trkpt>
      <trkpt lat="43.72406" lon="4.78781">
        <ele>37.15</ele>
        <time>2013-03-19T10:49:27Z</time>
      </trkpt>
      <trkpt lat="43.72406" lon="4.7878">
        <ele>37.15</ele>
        <time>2013-03-19T10:49:28Z</time>
      </trkpt>
      <trkpt lat="43.72407" lon="4.78778">
        <ele>37.63</ele>
        <time>2013-03-19T10:49:29Z</time>
      </trkpt>
      <trkpt lat="43.72407" lon="4.78776">
        <ele>37.15</ele>
        <time>2013-03-19T10:49:30Z</time>
      </trkpt>
      <trkpt lat="43.72407" lon="4.78774">
        <ele>37.15</ele>
        <time>2013-03-19T10:49:31Z</time>
      </trkpt>
      <trkpt lat="43.72411" lon="4.78755">
        <ele>37.63</ele>
        <time>2013-03-19T10:49:44Z</time>
      </trkpt>
      <trkpt lat="43.72412" lon="4.78735">
        <ele>37.15</ele>
        <time>2013-03-19T10:49:57Z</time>
      </trkpt>
      <trkpt lat="43.72413" lon="4.78724">
        <ele>39.07</ele>
        <time>2013-03-19T10:50:04Z</time>
      </trkpt>
      <trkpt lat="43.72415" lon="4.78717">
        <ele>38.11</ele>
        <time>2013-03-19T10:50:21Z</time>
      </trkpt>
      <trkpt lat="43.72415" lon="4.78713">
        <ele>38.59</ele>
        <time>2013-03-19T10:50:24Z</time>
      </trkpt>
      <trkpt lat="43.72415" lon="4.78711">
        <ele>38.59</ele>
        <time>2013-03-19T10:50:25Z</time>
      </trkpt>
      <trkpt lat="43.72415" lon="4.78689">
        <ele>38.59</ele>
        <time>2013-03-19T10:50:39Z</time>
      </trkpt>
      <trkpt lat="43.72416" lon="4.78682">
        <ele>39.07</ele>
        <time>2013-03-19T10:50:48Z</time>
      </trkpt>
      <trkpt lat="43.72419" lon="4.78664">
        <ele>38.59</ele>
        <time>2013-03-19T10:51:00Z</time>
      </trkpt>
      <trkpt lat="43.72425" lon="4.78652">
        <ele>38.59</ele>
        <time>2013-03-19T10:51:09Z</time>
      </trkpt>
      <trkpt lat="43.72436" lon="4.78647">
        <ele>39.55</ele>
        <time>2013-03-19T10:51:20Z</time>
      </trkpt>
      <trkpt lat="43.72452" lon="4.78639">
        <ele>40.03</ele>
        <time>2013-03-19T10:51:34Z</time>
      </trkpt>
      <trkpt lat="43.7246" lon="4.78619">
        <ele>40.51</ele>
        <time>2013-03-19T10:51:47Z</time>
      </trkpt>
      <trkpt lat="43.72461" lon="4.78616">
        <ele>42.44</ele>
        <time>2013-03-19T10:51:49Z</time>
      </trkpt>
      <trkpt lat="43.72462" lon="4.78614">
        <ele>40.99</ele>
        <time>2013-03-19T10:51:51Z</time>
      </trkpt>
      <trkpt lat="43.72469" lon="4.78591">
        <ele>42.44</ele>
        <time>2013-03-19T10:52:07Z</time>
      </trkpt>
      <trkpt lat="43.72474" lon="4.78578">
        <ele>42.92</ele>
        <time>2013-03-19T10:52:17Z</time>
      </trkpt>
      <trkpt lat="43.72475" lon="4.78577">
        <ele>42.92</ele>
        <time>2013-03-19T10:52:18Z</time>
      </trkpt>
      <trkpt lat="43.72477" lon="4.78571">
        <ele>43.4</ele>
        <time>2013-03-19T10:52:22Z</time>
      </trkpt>
      <trkpt lat="43.72477" lon="4.78569">
        <ele>43.4</ele>
        <time>2013-03-19T10:52:23Z</time>
      </trkpt>
      <trkpt lat="43.72475" lon="4.78567">
        <ele>43.88</ele>
        <time>2013-03-19T10:52:32Z</time>
      </trkpt>
      <trkpt lat="43.72481" lon="4.78551">
        <ele>44.36</ele>
        <time>2013-03-19T10:52:44Z</time>
      </trkpt>
      <trkpt lat="43.72485" lon="4.78533">
        <ele>44.84</ele>
        <time>2013-03-19T10:52:58Z</time>
      </trkpt>
      <trkpt lat="43.72483" lon="4.7852">
        <ele>44.84</ele>
        <time>2013-03-19T10:53:10Z</time>
      </trkpt>
      <trkpt lat="43.72481" lon="4.78515">
        <ele>44.84</ele>
        <time>2013-03-19T10:53:13Z</time>
      </trkpt>
      <trkpt lat="43.72481" lon="4.78514">
        <ele>44.84</ele>
        <time>2013-03-19T10:53:14Z</time>
      </trkpt>
      <trkpt lat="43.72476" lon="4.78491">
        <ele>43.88</ele>
        <time>2013-03-19T10:53:29Z</time>
      </trkpt>
      <trkpt lat="43.72474" lon="4.78485">
        <ele>43.4</ele>
        <time>2013-03-19T10:53:34Z</time>
      </trkpt>
      <trkpt lat="43.72467" lon="4.78468">
        <ele>42.92</ele>
        <time>2013-03-19T10:53:45Z</time>
      </trkpt>
      <trkpt lat="43.7246" lon="4.78456">
        <ele>42.92</ele>
        <time>2013-03-19T10:53:54Z</time>
      </trkpt>
      <trkpt lat="43.72459" lon="4.78454">
        <ele>42.92</ele>
        <time>2013-03-19T10:53:55Z</time>
      </trkpt>
      <trkpt lat="43.72451" lon="4.78441">
        <ele>41.47</ele>
        <time>2013-03-19T10:54:06Z</time>
      </trkpt>
      <trkpt lat="43.72446" lon="4.7843">
        <ele>41.47</ele>
        <time>2013-03-19T10:54:20Z</time>
      </trkpt>
      <trkpt lat="43.72441" lon="4.78437">
        <ele>40.99</ele>
        <time>2013-03-19T10:54:45Z</time>
      </trkpt>
      <trkpt lat="43.72441" lon="4.78433">
        <ele>40.99</ele>
        <time>2013-03-19T10:55:04Z</time>
      </trkpt>
      <trkpt lat="43.72445" lon="4.78428">
        <ele>40.99</ele>
        <time>2013-03-19T10:55:22Z</time>
      </trkpt>
      <trkpt lat="43.72445" lon="4.78426">
        <ele>41.47</ele>
        <time>2013-03-19T10:55:24Z</time>
      </trkpt>
      <trkpt lat="43.72449" lon="4.78417">
        <ele>41.47</ele>
        <time>2013-03-19T10:55:30Z</time>
      </trkpt>
      <trkpt lat="43.7245" lon="4.78416">
        <ele>41.95</ele>
        <time>2013-03-19T10:55:31Z</time>
      </trkpt>
      <trkpt lat="43.7245" lon="4.78414">
        <ele>41.95</ele>
        <time>2013-03-19T10:55:32Z</time>
      </trkpt>
      <trkpt lat="43.72451" lon="4.78412">
        <ele>41.95</ele>
        <time>2013-03-19T10:55:33Z</time>
      </trkpt>
      <trkpt lat="43.72461" lon="4.78397">
        <ele>42.44</ele>
        <time>2013-03-19T10:55:47Z</time>
      </trkpt>
      <trkpt lat="43.72468" lon="4.78389">
        <ele>42.92</ele>
        <time>2013-03-19T10:55:57Z</time>
      </trkpt>
      <trkpt lat="43.72474" lon="4.7838">
        <ele>42.92</ele>
        <time>2013-03-19T10:56:05Z</time>
      </trkpt>
      <trkpt lat="43.72478" lon="4.78372">
        <ele>43.4</ele>
        <time>2013-03-19T10:56:10Z</time>
      </trkpt>
      <trkpt lat="43.72479" lon="4.78371">
        <ele>42.92</ele>
        <time>2013-03-19T10:56:11Z</time>
      </trkpt>
      <trkpt lat="43.7248" lon="4.7837">
        <ele>42.92</ele>
        <time>2013-03-19T10:56:12Z</time>
      </trkpt>
      <trkpt lat="43.72493" lon="4.78347">
        <ele>42.44</ele>
        <time>2013-03-19T10:56:30Z</time>
      </trkpt>
      <trkpt lat="43.72501" lon="4.78327">
        <ele>42.44</ele>
        <time>2013-03-19T10:56:44Z</time>
      </trkpt>
      <trkpt lat="43.72502" lon="4.78305">
        <ele>42.92</ele>
        <time>2013-03-19T10:56:56Z</time>
      </trkpt>
      <trkpt lat="43.72497" lon="4.78286">
        <ele>42.44</ele>
        <time>2013-03-19T10:57:08Z</time>
      </trkpt>
      <trkpt lat="43.72495" lon="4.78281">
        <ele>42.44</ele>
        <time>2013-03-19T10:57:12Z</time>
      </trkpt>
      <trkpt lat="43.72494" lon="4.78277">
        <ele>41.47</ele>
        <time>2013-03-19T10:57:15Z</time>
      </trkpt>
      <trkpt lat="43.72493" lon="4.78276">
        <ele>41.95</ele>
        <time>2013-03-19T10:57:16Z</time>
      </trkpt>
      <trkpt lat="43.72484" lon="4.78264">
        <ele>41.95</ele>
        <time>2013-03-19T10:57:28Z</time>
      </trkpt>
      <trkpt lat="43.72482" lon="4.78261">
        <ele>41.47</ele>
        <time>2013-03-19T10:57:33Z</time>
      </trkpt>
      <trkpt lat="43.72481" lon="4.7826">
        <ele>41.95</ele>
        <time>2013-03-19T10:57:34Z</time>
      </trkpt>
      <trkpt lat="43.72471" lon="4.78247">
        <ele>41.47</ele>
        <time>2013-03-19T10:57:48Z</time>
      </trkpt>
      <trkpt lat="43.7247" lon="4.78245">
        <ele>41.47</ele>
        <time>2013-03-19T10:57:50Z</time>
      </trkpt>
      <trkpt lat="43.72469" lon="4.78243">
        <ele>40.99</ele>
        <time>2013-03-19T10:57:51Z</time>
      </trkpt>
      <trkpt lat="43.72468" lon="4.78242">
        <ele>40.99</ele>
        <time>2013-03-19T10:57:52Z</time>
      </trkpt>
      <trkpt lat="43.72467" lon="4.78241">
        <ele>40.99</ele>
        <time>2013-03-19T10:57:53Z</time>
      </trkpt>
      <trkpt lat="43.72466" lon="4.7824">
        <ele>40.99</ele>
        <time>2013-03-19T10:57:54Z</time>
      </trkpt>
      <trkpt lat="43.72462" lon="4.78234">
        <ele>40.99</ele>
        <time>2013-03-19T10:58:01Z</time>
      </trkpt>
      <trkpt lat="43.72461" lon="4.78233">
        <ele>40.99</ele>
        <time>2013-03-19T10:58:02Z</time>
      </trkpt>
      <trkpt lat="43.7246" lon="4.78231">
        <ele>40.99</ele>
        <time>2013-03-19T10:58:03Z</time>
      </trkpt>
      <trkpt lat="43.72453" lon="4.78221">
        <ele>40.51</ele>
        <time>2013-03-19T10:58:14Z</time>
      </trkpt>
      <trkpt lat="43.72452" lon="4.7822">
        <ele>40.03</ele>
        <time>2013-03-19T10:58:15Z</time>
      </trkpt>
      <trkpt lat="43.72451" lon="4.78218">
        <ele>40.51</ele>
        <time>2013-03-19T10:58:16Z</time>
      </trkpt>
      <trkpt lat="43.72447" lon="4.78213">
        <ele>40.51</ele>
        <time>2013-03-19T10:58:20Z</time>
      </trkpt>
      <trkpt lat="43.72446" lon="4.78211">
        <ele>40.03</ele>
        <time>2013-03-19T10:58:21Z</time>
      </trkpt>
      <trkpt lat="43.72444" lon="4.78208">
        <ele>40.51</ele>
        <time>2013-03-19T10:58:26Z</time>
      </trkpt>
      <trkpt lat="43.72445" lon="4.78206">
        <ele>40.03</ele>
        <time>2013-03-19T10:58:27Z</time>
      </trkpt>
      <trkpt lat="43.72445" lon="4.78204">
        <ele>40.03</ele>
        <time>2013-03-19T10:58:28Z</time>
      </trkpt>
      <trkpt lat="43.72445" lon="4.78199">
        <ele>40.03</ele>
        <time>2013-03-19T10:58:32Z</time>
      </trkpt>
      <trkpt lat="43.72445" lon="4.78198">
        <ele>40.51</ele>
        <time>2013-03-19T10:58:33Z</time>
      </trkpt>
      <trkpt lat="43.72445" lon="4.78196">
        <ele>40.51</ele>
        <time>2013-03-19T10:58:34Z</time>
      </trkpt>
      <trkpt lat="43.72449" lon="4.78171">
        <ele>40.51</ele>
        <time>2013-03-19T10:58:50Z</time>
      </trkpt>
      <trkpt lat="43.72447" lon="4.78167">
        <ele>40.51</ele>
        <time>2013-03-19T10:59:14Z</time>
      </trkpt>
      <trkpt lat="43.72448" lon="4.7816">
        <ele>41.47</ele>
        <time>2013-03-19T10:59:35Z</time>
      </trkpt>
      <trkpt lat="43.72469" lon="4.7819">
        <ele>40.99</ele>
        <time>2013-03-19T10:59:55Z</time>
      </trkpt>
      <trkpt lat="43.7242" lon="4.77985">
        <ele>40.99</ele>
        <time>2013-03-19T11:02:34Z</time>
      </trkpt>
      <trkpt lat="43.72418" lon="4.77984">
        <ele>40.51</ele>
        <time>2013-03-19T11:02:36Z</time>
      </trkpt>
      <trkpt lat="43.72413" lon="4.7796">
        <ele>40.51</ele>
        <time>2013-03-19T11:02:50Z</time>
      </trkpt>
      <trkpt lat="43.72409" lon="4.77942">
        <ele>40.51</ele>
        <time>2013-03-19T11:03:03Z</time>
      </trkpt>
      <trkpt lat="43.72402" lon="4.77922">
        <ele>41.47</ele>
        <time>2013-03-19T11:03:18Z</time>
      </trkpt>
      <trkpt lat="43.72399" lon="4.77916">
        <ele>41.95</ele>
        <time>2013-03-19T11:03:35Z</time>
      </trkpt>
      <trkpt lat="43.72397" lon="4.77903">
        <ele>42.44</ele>
        <time>2013-03-19T11:03:55Z</time>
      </trkpt>
      <trkpt lat="43.72394" lon="4.77881">
        <ele>42.44</ele>
        <time>2013-03-19T11:04:10Z</time>
      </trkpt>
      <trkpt lat="43.72393" lon="4.77874">
        <ele>42.92</ele>
        <time>2013-03-19T11:04:15Z</time>
      </trkpt>
      <trkpt lat="43.72393" lon="4.77857">
        <ele>41.95</ele>
        <time>2013-03-19T11:04:28Z</time>
      </trkpt>
      <trkpt lat="43.72392" lon="4.77854">
        <ele>41.47</ele>
        <time>2013-03-19T11:04:30Z</time>
      </trkpt>
      <trkpt lat="43.72394" lon="4.77839">
        <ele>41.95</ele>
        <time>2013-03-19T11:04:42Z</time>
      </trkpt>
      <trkpt lat="43.72395" lon="4.77836">
        <ele>43.4</ele>
        <time>2013-03-19T11:04:49Z</time>
      </trkpt>
      <trkpt lat="43.72395" lon="4.77837">
        <ele>39.55</ele>
        <time>2013-03-19T11:05:16Z</time>
      </trkpt>
      <trkpt lat="43.72395" lon="4.77837">
        <ele>43.88</ele>
        <time>2013-03-19T11:05:17Z</time>
      </trkpt>
      <trkpt lat="43.72398" lon="4.7784">
        <ele>41.95</ele>
        <time>2013-03-19T11:05:28Z</time>
      </trkpt>
      <trkpt lat="43.72401" lon="4.77837">
        <ele>42.44</ele>
        <time>2013-03-19T11:05:45Z</time>
      </trkpt>
      <trkpt lat="43.72401" lon="4.77839">
        <ele>43.88</ele>
        <time>2013-03-19T11:05:57Z</time>
      </trkpt>
      <trkpt lat="43.72404" lon="4.77846">
        <ele>44.36</ele>
        <time>2013-03-19T11:06:17Z</time>
      </trkpt>
      <trkpt lat="43.72404" lon="4.77849">
        <ele>43.88</ele>
        <time>2013-03-19T11:06:35Z</time>
      </trkpt>
      <trkpt lat="43.72401" lon="4.77848">
        <ele>44.36</ele>
        <time>2013-03-19T11:06:54Z</time>
      </trkpt>
      <trkpt lat="43.72398" lon="4.77842">
        <ele>47.24</ele>
        <time>2013-03-19T11:07:21Z</time>
      </trkpt>
      <trkpt lat="43.72398" lon="4.77843">
        <ele>43.88</ele>
        <time>2013-03-19T11:07:22Z</time>
      </trkpt>
      <trkpt lat="43.72402" lon="4.77842">
        <ele>43.88</ele>
        <time>2013-03-19T11:07:52Z</time>
      </trkpt>
      <trkpt lat="43.72404" lon="4.77838">
        <ele>43.88</ele>
        <time>2013-03-19T11:08:18Z</time>
      </trkpt>
      <trkpt lat="43.72401" lon="4.77835">
        <ele>43.88</ele>
        <time>2013-03-19T11:08:49Z</time>
      </trkpt>
      <trkpt lat="43.72403" lon="4.77837">
        <ele>43.88</ele>
        <time>2013-03-19T11:09:19Z</time>
      </trkpt>
      <trkpt lat="43.72403" lon="4.77834">
        <ele>43.4</ele>
        <time>2013-03-19T11:09:48Z</time>
      </trkpt>
      <trkpt lat="43.72403" lon="4.7784">
        <ele>43.88</ele>
        <time>2013-03-19T11:10:19Z</time>
      </trkpt>
      <trkpt lat="43.72404" lon="4.77832">
        <ele>43.88</ele>
        <time>2013-03-19T11:10:46Z</time>
      </trkpt>
      <trkpt lat="43.72401" lon="4.7783">
        <ele>43.88</ele>
        <time>2013-03-19T11:11:20Z</time>
      </trkpt>
      <trkpt lat="43.72404" lon="4.77839">
        <ele>43.88</ele>
        <time>2013-03-19T11:11:57Z</time>
      </trkpt>
      <trkpt lat="43.72402" lon="4.77838">
        <ele>43.88</ele>
        <time>2013-03-19T11:12:34Z</time>
      </trkpt>
      <trkpt lat="43.72403" lon="4.77835">
        <ele>44.36</ele>
        <time>2013-03-19T11:13:16Z</time>
      </trkpt>
      <trkpt lat="43.72401" lon="4.77835">
        <ele>44.36</ele>
        <time>2013-03-19T11:13:58Z</time>
      </trkpt>
      <trkpt lat="43.72402" lon="4.77834">
        <ele>44.36</ele>
        <time>2013-03-19T11:14:43Z</time>
      </trkpt>
      <trkpt lat="43.72404" lon="4.77838">
        <ele>44.84</ele>
        <time>2013-03-19T11:15:14Z</time>
      </trkpt>
      <trkpt lat="43.72404" lon="4.77837">
        <ele>44.84</ele>
        <time>2013-03-19T11:15:50Z</time>
      </trkpt>
      <trkpt lat="43.72405" lon="4.77837">
        <ele>44.84</ele>
        <time>2013-03-19T11:16:27Z</time>
      </trkpt>
      <trkpt lat="43.72403" lon="4.77841">
        <ele>44.84</ele>
        <time>2013-03-19T11:17:07Z</time>
      </trkpt>
      <trkpt lat="43.72405" lon="4.77839">
        <ele>45.32</ele>
        <time>2013-03-19T11:17:47Z</time>
      </trkpt>
      <trkpt lat="43.72404" lon="4.77839">
        <ele>44.84</ele>
        <time>2013-03-19T11:18:29Z</time>
      </trkpt>
      <trkpt lat="43.72405" lon="4.77838">
        <ele>45.32</ele>
        <time>2013-03-19T11:19:08Z</time>
      </trkpt>
      <trkpt lat="43.72405" lon="4.77837">
        <ele>44.84</ele>
        <time>2013-03-19T11:19:43Z</time>
      </trkpt>
      <trkpt lat="43.72406" lon="4.77834">
        <ele>45.32</ele>
        <time>2013-03-19T11:20:25Z</time>
      </trkpt>
      <trkpt lat="43.72405" lon="4.77837">
        <ele>45.32</ele>
        <time>2013-03-19T11:21:00Z</time>
      </trkpt>
      <trkpt lat="43.72405" lon="4.77836">
        <ele>45.32</ele>
        <time>2013-03-19T11:21:37Z</time>
      </trkpt>
      <trkpt lat="43.72404" lon="4.77837">
        <ele>45.32</ele>
        <time>2013-03-19T11:22:10Z</time>
      </trkpt>
      <trkpt lat="43.72401" lon="4.77841">
        <ele>44.84</ele>
        <time>2013-03-19T11:22:48Z</time>
      </trkpt>
      <trkpt lat="43.72403" lon="4.7784">
        <ele>45.32</ele>
        <time>2013-03-19T11:23:31Z</time>
      </trkpt>
      <trkpt lat="43.72408" lon="4.77837">
        <ele>45.32</ele>
        <time>2013-03-19T11:24:16Z</time>
      </trkpt>
      <trkpt lat="43.72407" lon="4.77835">
        <ele>45.8</ele>
        <time>2013-03-19T11:25:00Z</time>
      </trkpt>
      <trkpt lat="43.72405" lon="4.77836">
        <ele>46.28</ele>
        <time>2013-03-19T11:25:34Z</time>
      </trkpt>
      <trkpt lat="43.72405" lon="4.77835">
        <ele>45.8</ele>
        <time>2013-03-19T11:26:08Z</time>
      </trkpt>
      <trkpt lat="43.72404" lon="4.77835">
        <ele>46.28</ele>
        <time>2013-03-19T11:26:50Z</time>
      </trkpt>
      <trkpt lat="43.72406" lon="4.77837">
        <ele>46.76</ele>
        <time>2013-03-19T11:27:33Z</time>
      </trkpt>
      <trkpt lat="43.72406" lon="4.77838">
        <ele>46.76</ele>
        <time>2013-03-19T11:28:10Z</time>
      </trkpt>
      <trkpt lat="43.72404" lon="4.77839">
        <ele>46.76</ele>
        <time>2013-03-19T11:28:51Z</time>
      </trkpt>
      <trkpt lat="43.72408" lon="4.77837">
        <ele>46.76</ele>
        <time>2013-03-19T11:29:34Z</time>
      </trkpt>
      <trkpt lat="43.72406" lon="4.77836">
        <ele>46.28</ele>
        <time>2013-03-19T11:30:07Z</time>
      </trkpt>
      <trkpt lat="43.72406" lon="4.77836">
        <ele>46.76</ele>
        <time>2013-03-19T11:30:40Z</time>
      </trkpt>
      <trkpt lat="43.72407" lon="4.77836">
        <ele>46.28</ele>
        <time>2013-03-19T11:31:11Z</time>
      </trkpt>
      <trkpt lat="43.72405" lon="4.77833">
        <ele>46.28</ele>
        <time>2013-03-19T11:31:43Z</time>
      </trkpt>
      <trkpt lat="43.72406" lon="4.77833">
        <ele>45.8</ele>
        <time>2013-03-19T11:32:11Z</time>
      </trkpt>
      <trkpt lat="43.72406" lon="4.77835">
        <ele>45.8</ele>
        <time>2013-03-19T11:32:51Z</time>
      </trkpt>
      <trkpt lat="43.72405" lon="4.77835">
        <ele>45.32</ele>
        <time>2013-03-19T11:33:27Z</time>
      </trkpt>
      <trkpt lat="43.72406" lon="4.77833">
        <ele>46.28</ele>
        <time>2013-03-19T11:34:05Z</time>
      </trkpt>
      <trkpt lat="43.72406" lon="4.77836">
        <ele>45.32</ele>
        <time>2013-03-19T11:34:28Z</time>
      </trkpt>
      <trkpt lat="43.72405" lon="4.77836">
        <ele>45.8</ele>
        <time>2013-03-19T11:35:05Z</time>
      </trkpt>
      <trkpt lat="43.72407" lon="4.77834">
        <ele>45.8</ele>
        <time>2013-03-19T11:35:48Z</time>
      </trkpt>
      <trkpt lat="43.72408" lon="4.77835">
        <ele>45.8</ele>
        <time>2013-03-19T11:36:22Z</time>
      </trkpt>
      <trkpt lat="43.72407" lon="4.77833">
        <ele>45.8</ele>
        <time>2013-03-19T11:36:57Z</time>
      </trkpt>
      <trkpt lat="43.72405" lon="4.77836">
        <ele>45.32</ele>
        <time>2013-03-19T11:37:35Z</time>
      </trkpt>
      <trkpt lat="43.72404" lon="4.77835">
        <ele>44.36</ele>
        <time>2013-03-19T11:38:07Z</time>
      </trkpt>
      <trkpt lat="43.72406" lon="4.77834">
        <ele>45.32</ele>
        <time>2013-03-19T11:38:25Z</time>
      </trkpt>
      <trkpt lat="43.72404" lon="4.77837">
        <ele>45.32</ele>
        <time>2013-03-19T11:38:50Z</time>
      </trkpt>
      <trkpt lat="43.72404" lon="4.77833">
        <ele>44.84</ele>
        <time>2013-03-19T11:39:34Z</time>
      </trkpt>
      <trkpt lat="43.72405" lon="4.77835">
        <ele>44.84</ele>
        <time>2013-03-19T11:40:11Z</time>
      </trkpt>
      <trkpt lat="43.72404" lon="4.7784">
        <ele>44.84</ele>
        <time>2013-03-19T11:40:42Z</time>
      </trkpt>
      <trkpt lat="43.72402" lon="4.7784">
        <ele>44.84</ele>
        <time>2013-03-19T11:41:15Z</time>
      </trkpt>
      <trkpt lat="43.72404" lon="4.77837">
        <ele>44.36</ele>
        <time>2013-03-19T11:41:49Z</time>
      </trkpt>
      <trkpt lat="43.72405" lon="4.77835">
        <ele>44.84</ele>
        <time>2013-03-19T11:42:31Z</time>
      </trkpt>
      <trkpt lat="43.72406" lon="4.77834">
        <ele>44.36</ele>
        <time>2013-03-19T11:43:07Z</time>
      </trkpt>
      <trkpt lat="43.72406" lon="4.77829">
        <ele>43.88</ele>
        <time>2013-03-19T11:43:45Z</time>
      </trkpt>
      <trkpt lat="43.72404" lon="4.77833">
        <ele>44.36</ele>
        <time>2013-03-19T11:44:27Z</time>
      </trkpt>
      <trkpt lat="43.72402" lon="4.77838">
        <ele>43.88</ele>
        <time>2013-03-19T11:45:00Z</time>
      </trkpt>
      <trkpt lat="43.72403" lon="4.77835">
        <ele>43.88</ele>
        <time>2013-03-19T11:45:41Z</time>
      </trkpt>
      <trkpt lat="43.72403" lon="4.77836">
        <ele>43.88</ele>
        <time>2013-03-19T11:46:18Z</time>
      </trkpt>
      <trkpt lat="43.72404" lon="4.77837">
        <ele>44.36</ele>
        <time>2013-03-19T11:46:54Z</time>
      </trkpt>
      <trkpt lat="43.72406" lon="4.77836">
        <ele>43.88</ele>
        <time>2013-03-19T11:47:26Z</time>
      </trkpt>
      <trkpt lat="43.72408" lon="4.7783">
        <ele>44.36</ele>
        <time>2013-03-19T11:48:01Z</time>
      </trkpt>
      <trkpt lat="43.72402" lon="4.77835">
        <ele>43.88</ele>
        <time>2013-03-19T11:48:35Z</time>
      </trkpt>
      <trkpt lat="43.72403" lon="4.77836">
        <ele>43.88</ele>
        <time>2013-03-19T11:49:15Z</time>
      </trkpt>
      <trkpt lat="43.72404" lon="4.77837">
        <ele>43.4</ele>
        <time>2013-03-19T11:49:49Z</time>
      </trkpt>
      <trkpt lat="43.72406" lon="4.77837">
        <ele>43.4</ele>
        <time>2013-03-19T11:50:20Z</time>
      </trkpt>
      <trkpt lat="43.72403" lon="4.77839">
        <ele>43.4</ele>
        <time>2013-03-19T11:50:58Z</time>
      </trkpt>
      <trkpt lat="43.72405" lon="4.77841">
        <ele>43.88</ele>
        <time>2013-03-19T11:51:37Z</time>
      </trkpt>
      <trkpt lat="43.72403" lon="4.7784">
        <ele>43.4</ele>
        <time>2013-03-19T11:52:16Z</time>
      </trkpt>
      <trkpt lat="43.72404" lon="4.7784">
        <ele>43.88</ele>
        <time>2013-03-19T11:52:54Z</time>
      </trkpt>
      <trkpt lat="43.72406" lon="4.77836">
        <ele>43.88</ele>
        <time>2013-03-19T11:53:34Z</time>
      </trkpt>
      <trkpt lat="43.72408" lon="4.77836">
        <ele>44.84</ele>
        <time>2013-03-19T11:54:13Z</time>
      </trkpt>
      <trkpt lat="43.72403" lon="4.77837">
        <ele>43.88</ele>
        <time>2013-03-19T11:54:52Z</time>
      </trkpt>
      <trkpt lat="43.72404" lon="4.77837">
        <ele>44.36</ele>
        <time>2013-03-19T11:55:23Z</time>
      </trkpt>
      <trkpt lat="43.72403" lon="4.77838">
        <ele>44.36</ele>
        <time>2013-03-19T11:55:59Z</time>
      </trkpt>
      <trkpt lat="43.72405" lon="4.77838">
        <ele>44.36</ele>
        <time>2013-03-19T11:56:33Z</time>
      </trkpt>
      <trkpt lat="43.72406" lon="4.7784">
        <ele>44.36</ele>
        <time>2013-03-19T11:57:06Z</time>
      </trkpt>
      <trkpt lat="43.72401" lon="4.77841">
        <ele>43.88</ele>
        <time>2013-03-19T11:57:43Z</time>
      </trkpt>
      <trkpt lat="43.724" lon="4.77844">
        <ele>44.36</ele>
        <time>2013-03-19T11:57:48Z</time>
      </trkpt>
      <trkpt lat="43.72399" lon="4.77846">
        <ele>44.36</ele>
        <time>2013-03-19T11:57:52Z</time>
      </trkpt>
      <trkpt lat="43.72397" lon="4.77847">
        <ele>43.88</ele>
        <time>2013-03-19T11:58:02Z</time>
      </trkpt>
      <trkpt lat="43.72401" lon="4.77841">
        <ele>44.36</ele>
        <time>2013-03-19T11:58:26Z</time>
      </trkpt>
      <trkpt lat="43.72389" lon="4.77854">
        <ele>44.36</ele>
        <time>2013-03-19T11:59:07Z</time>
      </trkpt>
      <trkpt lat="43.72395" lon="4.77846">
        <ele>44.36</ele>
        <time>2013-03-19T11:59:40Z</time>
      </trkpt>
      <trkpt lat="43.72392" lon="4.77847">
        <ele>44.36</ele>
        <time>2013-03-19T12:00:13Z</time>
      </trkpt>
      <trkpt lat="43.72397" lon="4.77842">
        <ele>44.84</ele>
        <time>2013-03-19T12:00:33Z</time>
      </trkpt>
      <trkpt lat="43.72397" lon="4.77842">
        <ele>44.84</ele>
        <time>2013-03-19T12:00:45Z</time>
      </trkpt>
      <trkpt lat="43.72392" lon="4.7785">
        <ele>44.36</ele>
        <time>2013-03-19T12:01:12Z</time>
      </trkpt>
      <trkpt lat="43.72389" lon="4.77855">
        <ele>44.36</ele>
        <time>2013-03-19T12:01:21Z</time>
      </trkpt>
      <trkpt lat="43.72385" lon="4.77862">
        <ele>44.36</ele>
        <time>2013-03-19T12:02:00Z</time>
      </trkpt>
      <trkpt lat="43.72378" lon="4.77867">
        <ele>44.84</ele>
        <time>2013-03-19T12:02:34Z</time>
      </trkpt>
      <trkpt lat="43.72394" lon="4.77847">
        <ele>44.36</ele>
        <time>2013-03-19T12:02:54Z</time>
      </trkpt>
      <trkpt lat="43.72402" lon="4.7784">
        <ele>44.36</ele>
        <time>2013-03-19T12:03:31Z</time>
      </trkpt>
      <trkpt lat="43.72397" lon="4.77842">
        <ele>44.36</ele>
        <time>2013-03-19T12:04:09Z</time>
      </trkpt>
      <trkpt lat="43.72399" lon="4.77845">
        <ele>43.88</ele>
        <time>2013-03-19T12:04:48Z</time>
      </trkpt>
      <trkpt lat="43.72396" lon="4.77848">
        <ele>43.88</ele>
        <time>2013-03-19T12:05:33Z</time>
      </trkpt>
      <trkpt lat="43.72394" lon="4.77846">
        <ele>43.88</ele>
        <time>2013-03-19T12:06:06Z</time>
      </trkpt>
      <trkpt lat="43.72397" lon="4.77848">
        <ele>44.36</ele>
        <time>2013-03-19T12:06:46Z</time>
      </trkpt>
      <trkpt lat="43.72404" lon="4.77847">
        <ele>44.36</ele>
        <time>2013-03-19T12:07:26Z</time>
      </trkpt>
      <trkpt lat="43.72398" lon="4.77844">
        <ele>43.88</ele>
        <time>2013-03-19T12:08:08Z</time>
      </trkpt>
      <trkpt lat="43.72398" lon="4.77847">
        <ele>44.36</ele>
        <time>2013-03-19T12:08:53Z</time>
      </trkpt>
      <trkpt lat="43.72396" lon="4.77848">
        <ele>44.36</ele>
        <time>2013-03-19T12:09:29Z</time>
      </trkpt>
      <trkpt lat="43.72392" lon="4.77849">
        <ele>43.88</ele>
        <time>2013-03-19T12:09:39Z</time>
      </trkpt>
      <trkpt lat="43.72392" lon="4.7785">
        <ele>43.4</ele>
        <time>2013-03-19T12:10:19Z</time>
      </trkpt>
      <trkpt lat="43.72395" lon="4.77847">
        <ele>43.88</ele>
        <time>2013-03-19T12:11:02Z</time>
      </trkpt>
      <trkpt lat="43.724" lon="4.77842">
        <ele>43.4</ele>
        <time>2013-03-19T12:11:48Z</time>
      </trkpt>
      <trkpt lat="43.72396" lon="4.77843">
        <ele>43.4</ele>
        <time>2013-03-19T12:12:28Z</time>
      </trkpt>
      <trkpt lat="43.72397" lon="4.77842">
        <ele>43.88</ele>
        <time>2013-03-19T12:12:53Z</time>
      </trkpt>
      <trkpt lat="43.72403" lon="4.77838">
        <ele>43.88</ele>
        <time>2013-03-19T12:13:21Z</time>
      </trkpt>
      <trkpt lat="43.72401" lon="4.7785">
        <ele>43.4</ele>
        <time>2013-03-19T12:14:01Z</time>
      </trkpt>
      <trkpt lat="43.72402" lon="4.77844">
        <ele>43.88</ele>
        <time>2013-03-19T12:14:42Z</time>
      </trkpt>
      <trkpt lat="43.72393" lon="4.77855">
        <ele>43.88</ele>
        <time>2013-03-19T12:15:24Z</time>
      </trkpt>
      <trkpt lat="43.72397" lon="4.77857">
        <ele>43.88</ele>
        <time>2013-03-19T12:15:57Z</time>
      </trkpt>
      <trkpt lat="43.72395" lon="4.77855">
        <ele>43.88</ele>
        <time>2013-03-19T12:16:32Z</time>
      </trkpt>
      <trkpt lat="43.72396" lon="4.77853">
        <ele>44.84</ele>
        <time>2013-03-19T12:16:41Z</time>
      </trkpt>
      <trkpt lat="43.724" lon="4.77836">
        <ele>44.36</ele>
        <time>2013-03-19T12:17:18Z</time>
      </trkpt>
      <trkpt lat="43.72397" lon="4.77843">
        <ele>42.92</ele>
        <time>2013-03-19T12:17:56Z</time>
      </trkpt>
      <trkpt lat="43.72396" lon="4.77843">
        <ele>44.84</ele>
        <time>2013-03-19T12:17:58Z</time>
      </trkpt>
      <trkpt lat="43.7239" lon="4.77851">
        <ele>44.36</ele>
        <time>2013-03-19T12:18:38Z</time>
      </trkpt>
      <trkpt lat="43.72394" lon="4.77847">
        <ele>43.88</ele>
        <time>2013-03-19T12:19:17Z</time>
      </trkpt>
      <trkpt lat="43.72393" lon="4.77854">
        <ele>44.36</ele>
        <time>2013-03-19T12:19:55Z</time>
      </trkpt>
      <trkpt lat="43.72398" lon="4.77859">
        <ele>44.84</ele>
        <time>2013-03-19T12:20:35Z</time>
      </trkpt>
      <trkpt lat="43.72401" lon="4.77855">
        <ele>44.84</ele>
        <time>2013-03-19T12:21:13Z</time>
      </trkpt>
      <trkpt lat="43.724" lon="4.77849">
        <ele>44.84</ele>
        <time>2013-03-19T12:21:52Z</time>
      </trkpt>
      <trkpt lat="43.72403" lon="4.77837">
        <ele>44.84</ele>
        <time>2013-03-19T12:22:30Z</time>
      </trkpt>
      <trkpt lat="43.72394" lon="4.77848">
        <ele>44.36</ele>
        <time>2013-03-19T12:23:13Z</time>
      </trkpt>
      <trkpt lat="43.72394" lon="4.7785">
        <ele>44.36</ele>
        <time>2013-03-19T12:23:54Z</time>
      </trkpt>
      <trkpt lat="43.72398" lon="4.77846">
        <ele>44.36</ele>
        <time>2013-03-19T12:24:42Z</time>
      </trkpt>
      <trkpt lat="43.72399" lon="4.77845">
        <ele>43.88</ele>
        <time>2013-03-19T12:24:51Z</time>
      </trkpt>
      <trkpt lat="43.724" lon="4.7785">
        <ele>44.84</ele>
        <time>2013-03-19T12:25:25Z</time>
      </trkpt>
      <trkpt lat="43.72395" lon="4.77863">
        <ele>44.84</ele>
        <time>2013-03-19T12:26:06Z</time>
      </trkpt>
      <trkpt lat="43.72395" lon="4.77861">
        <ele>45.32</ele>
        <time>2013-03-19T12:26:31Z</time>
      </trkpt>
      <trkpt lat="43.72399" lon="4.77836">
        <ele>45.32</ele>
        <time>2013-03-19T12:26:52Z</time>
      </trkpt>
      <trkpt lat="43.72402" lon="4.7783">
        <ele>45.32</ele>
        <time>2013-03-19T12:27:26Z</time>
      </trkpt>
      <trkpt lat="43.72401" lon="4.77832">
        <ele>45.32</ele>
        <time>2013-03-19T12:28:04Z</time>
      </trkpt>
      <trkpt lat="43.72403" lon="4.7783">
        <ele>45.32</ele>
        <time>2013-03-19T12:28:39Z</time>
      </trkpt>
      <trkpt lat="43.72402" lon="4.77833">
        <ele>45.32</ele>
        <time>2013-03-19T12:29:14Z</time>
      </trkpt>
      <trkpt lat="43.72402" lon="4.77833">
        <ele>46.28</ele>
        <time>2013-03-19T12:29:47Z</time>
      </trkpt>
      <trkpt lat="43.72401" lon="4.77838">
        <ele>45.8</ele>
        <time>2013-03-19T12:30:08Z</time>
      </trkpt>
      <trkpt lat="43.724" lon="4.77836">
        <ele>45.32</ele>
        <time>2013-03-19T12:30:27Z</time>
      </trkpt>
      <trkpt lat="43.72402" lon="4.7783">
        <ele>45.8</ele>
        <time>2013-03-19T12:30:56Z</time>
      </trkpt>
      <trkpt lat="43.724" lon="4.7783">
        <ele>44.84</ele>
        <time>2013-03-19T12:31:27Z</time>
      </trkpt>
      <trkpt lat="43.72399" lon="4.77831">
        <ele>44.84</ele>
        <time>2013-03-19T12:31:53Z</time>
      </trkpt>
      <trkpt lat="43.72397" lon="4.7783">
        <ele>44.36</ele>
        <time>2013-03-19T12:31:56Z</time>
      </trkpt>
      <trkpt lat="43.72395" lon="4.77818">
        <ele>43.4</ele>
        <time>2013-03-19T12:32:10Z</time>
      </trkpt>
      <trkpt lat="43.72394" lon="4.77814">
        <ele>42.92</ele>
        <time>2013-03-19T12:32:39Z</time>
      </trkpt>
      <trkpt lat="43.72393" lon="4.77814">
        <ele>42.44</ele>
        <time>2013-03-19T12:33:11Z</time>
      </trkpt>
      <trkpt lat="43.72396" lon="4.77819">
        <ele>44.36</ele>
        <time>2013-03-19T12:33:30Z</time>
      </trkpt>
      <trkpt lat="43.72403" lon="4.77823">
        <ele>42.92</ele>
        <time>2013-03-19T12:34:01Z</time>
      </trkpt>
      <trkpt lat="43.72404" lon="4.77819">
        <ele>43.4</ele>
        <time>2013-03-19T12:34:32Z</time>
      </trkpt>
      <trkpt lat="43.72404" lon="4.77815">
        <ele>42.92</ele>
        <time>2013-03-19T12:34:36Z</time>
      </trkpt>
      <trkpt lat="43.72404" lon="4.77796">
        <ele>43.4</ele>
        <time>2013-03-19T12:34:54Z</time>
      </trkpt>
      <trkpt lat="43.7241" lon="4.77773">
        <ele>44.36</ele>
        <time>2013-03-19T12:35:11Z</time>
      </trkpt>
      <trkpt lat="43.72413" lon="4.77752">
        <ele>44.36</ele>
        <time>2013-03-19T12:35:28Z</time>
      </trkpt>
      <trkpt lat="43.72418" lon="4.77735">
        <ele>45.32</ele>
        <time>2013-03-19T12:35:44Z</time>
      </trkpt>
      <trkpt lat="43.72421" lon="4.7773">
        <ele>45.32</ele>
        <time>2013-03-19T12:36:00Z</time>
      </trkpt>
      <trkpt lat="43.72428" lon="4.77719">
        <ele>45.32</ele>
        <time>2013-03-19T12:36:24Z</time>
      </trkpt>
      <trkpt lat="43.72426" lon="4.77724">
        <ele>42.44</ele>
        <time>2013-03-19T12:36:36Z</time>
      </trkpt>
      <trkpt lat="43.72426" lon="4.77724">
        <ele>46.76</ele>
        <time>2013-03-19T12:36:37Z</time>
      </trkpt>
      <trkpt lat="43.72432" lon="4.77717">
        <ele>45.32</ele>
        <time>2013-03-19T12:36:46Z</time>
      </trkpt>
      <trkpt lat="43.72443" lon="4.77701">
        <ele>45.8</ele>
        <time>2013-03-19T12:37:03Z</time>
      </trkpt>
      <trkpt lat="43.72451" lon="4.7769">
        <ele>45.32</ele>
        <time>2013-03-19T12:37:16Z</time>
      </trkpt>
      <trkpt lat="43.72461" lon="4.77676">
        <ele>45.8</ele>
        <time>2013-03-19T12:37:31Z</time>
      </trkpt>
      <trkpt lat="43.72466" lon="4.77669">
        <ele>45.8</ele>
        <time>2013-03-19T12:37:48Z</time>
      </trkpt>
      <trkpt lat="43.72476" lon="4.77655">
        <ele>45.8</ele>
        <time>2013-03-19T12:38:01Z</time>
      </trkpt>
      <trkpt lat="43.72483" lon="4.77644">
        <ele>47.24</ele>
        <time>2013-03-19T12:38:11Z</time>
      </trkpt>
      <trkpt lat="43.72495" lon="4.77621">
        <ele>47.72</ele>
        <time>2013-03-19T12:38:27Z</time>
      </trkpt>
      <trkpt lat="43.72499" lon="4.77611">
        <ele>47.72</ele>
        <time>2013-03-19T12:38:35Z</time>
      </trkpt>
      <trkpt lat="43.72512" lon="4.77591">
        <ele>48.2</ele>
        <time>2013-03-19T12:38:53Z</time>
      </trkpt>
      <trkpt lat="43.7252" lon="4.77575">
        <ele>48.2</ele>
        <time>2013-03-19T12:39:04Z</time>
      </trkpt>
      <trkpt lat="43.72529" lon="4.77556">
        <ele>48.2</ele>
        <time>2013-03-19T12:39:18Z</time>
      </trkpt>
      <trkpt lat="43.72531" lon="4.77553">
        <ele>48.2</ele>
        <time>2013-03-19T12:39:22Z</time>
      </trkpt>
      <trkpt lat="43.72534" lon="4.77547">
        <ele>48.2</ele>
        <time>2013-03-19T12:39:29Z</time>
      </trkpt>
      <trkpt lat="43.72537" lon="4.77533">
        <ele>49.16</ele>
        <time>2013-03-19T12:39:38Z</time>
      </trkpt>
      <trkpt lat="43.72544" lon="4.77512">
        <ele>48.2</ele>
        <time>2013-03-19T12:39:52Z</time>
      </trkpt>
      <trkpt lat="43.72549" lon="4.77494">
        <ele>48.68</ele>
        <time>2013-03-19T12:40:04Z</time>
      </trkpt>
      <trkpt lat="43.72551" lon="4.77477">
        <ele>49.65</ele>
        <time>2013-03-19T12:40:16Z</time>
      </trkpt>
      <trkpt lat="43.72552" lon="4.77476">
        <ele>49.65</ele>
        <time>2013-03-19T12:40:17Z</time>
      </trkpt>
      <trkpt lat="43.72551" lon="4.77473">
        <ele>49.16</ele>
        <time>2013-03-19T12:40:19Z</time>
      </trkpt>
      <trkpt lat="43.72556" lon="4.77448">
        <ele>49.16</ele>
        <time>2013-03-19T12:40:35Z</time>
      </trkpt>
      <trkpt lat="43.72558" lon="4.77425">
        <ele>50.13</ele>
        <time>2013-03-19T12:40:50Z</time>
      </trkpt>
      <trkpt lat="43.7256" lon="4.77405">
        <ele>50.13</ele>
        <time>2013-03-19T12:41:03Z</time>
      </trkpt>
      <trkpt lat="43.72561" lon="4.77387">
        <ele>50.13</ele>
        <time>2013-03-19T12:41:15Z</time>
      </trkpt>
      <trkpt lat="43.72563" lon="4.77378">
        <ele>50.61</ele>
        <time>2013-03-19T12:41:31Z</time>
      </trkpt>
      <trkpt lat="43.72564" lon="4.77365">
        <ele>50.13</ele>
        <time>2013-03-19T12:41:42Z</time>
      </trkpt>
      <trkpt lat="43.72557" lon="4.77366">
        <ele>50.13</ele>
        <time>2013-03-19T12:41:57Z</time>
      </trkpt>
      <trkpt lat="43.72554" lon="4.77366">
        <ele>50.13</ele>
        <time>2013-03-19T12:42:07Z</time>
      </trkpt>
      <trkpt lat="43.72559" lon="4.77365">
        <ele>49.65</ele>
        <time>2013-03-19T12:42:11Z</time>
      </trkpt>
      <trkpt lat="43.72561" lon="4.77356">
        <ele>50.61</ele>
        <time>2013-03-19T12:42:18Z</time>
      </trkpt>
      <trkpt lat="43.7256" lon="4.77336">
        <ele>50.61</ele>
        <time>2013-03-19T12:42:31Z</time>
      </trkpt>
      <trkpt lat="43.7256" lon="4.77334">
        <ele>50.61</ele>
        <time>2013-03-19T12:42:32Z</time>
      </trkpt>
      <trkpt lat="43.72559" lon="4.77328">
        <ele>50.61</ele>
        <time>2013-03-19T12:42:36Z</time>
      </trkpt>
      <trkpt lat="43.72558" lon="4.77313">
        <ele>51.57</ele>
        <time>2013-03-19T12:42:47Z</time>
      </trkpt>
      <trkpt lat="43.72558" lon="4.77298">
        <ele>51.57</ele>
        <time>2013-03-19T12:42:56Z</time>
      </trkpt>
      <trkpt lat="43.72556" lon="4.7728">
        <ele>51.09</ele>
        <time>2013-03-19T12:43:08Z</time>
      </trkpt>
      <trkpt lat="43.72554" lon="4.77265">
        <ele>51.57</ele>
        <time>2013-03-19T12:43:19Z</time>
      </trkpt>
      <trkpt lat="43.72552" lon="4.77258">
        <ele>51.57</ele>
        <time>2013-03-19T12:43:23Z</time>
      </trkpt>
      <trkpt lat="43.72554" lon="4.77237">
        <ele>52.53</ele>
        <time>2013-03-19T12:43:38Z</time>
      </trkpt>
      <trkpt lat="43.72554" lon="4.77235">
        <ele>52.05</ele>
        <time>2013-03-19T12:43:39Z</time>
      </trkpt>
      <trkpt lat="43.72554" lon="4.77207">
        <ele>52.53</ele>
        <time>2013-03-19T12:43:56Z</time>
      </trkpt>
      <trkpt lat="43.72554" lon="4.77189">
        <ele>52.53</ele>
        <time>2013-03-19T12:44:08Z</time>
      </trkpt>
      <trkpt lat="43.72552" lon="4.77166">
        <ele>53.01</ele>
        <time>2013-03-19T12:44:23Z</time>
      </trkpt>
      <trkpt lat="43.72553" lon="4.77142">
        <ele>53.49</ele>
        <time>2013-03-19T12:44:39Z</time>
      </trkpt>
      <trkpt lat="43.72552" lon="4.77117">
        <ele>53.97</ele>
        <time>2013-03-19T12:44:54Z</time>
      </trkpt>
      <trkpt lat="43.72549" lon="4.77094">
        <ele>53.97</ele>
        <time>2013-03-19T12:45:08Z</time>
      </trkpt>
      <trkpt lat="43.72549" lon="4.77074">
        <ele>54.93</ele>
        <time>2013-03-19T12:45:21Z</time>
      </trkpt>
      <trkpt lat="43.72548" lon="4.77051">
        <ele>54.45</ele>
        <time>2013-03-19T12:45:36Z</time>
      </trkpt>
      <trkpt lat="43.72546" lon="4.77029">
        <ele>55.41</ele>
        <time>2013-03-19T12:45:51Z</time>
      </trkpt>
      <trkpt lat="43.72546" lon="4.76998">
        <ele>55.41</ele>
        <time>2013-03-19T12:46:06Z</time>
      </trkpt>
      <trkpt lat="43.72543" lon="4.76976">
        <ele>55.89</ele>
        <time>2013-03-19T12:46:21Z</time>
      </trkpt>
      <trkpt lat="43.72542" lon="4.76953">
        <ele>55.41</ele>
        <time>2013-03-19T12:46:37Z</time>
      </trkpt>
      <trkpt lat="43.7254" lon="4.7693">
        <ele>56.37</ele>
        <time>2013-03-19T12:46:52Z</time>
      </trkpt>
      <trkpt lat="43.72541" lon="4.76927">
        <ele>56.37</ele>
        <time>2013-03-19T12:46:54Z</time>
      </trkpt>
      <trkpt lat="43.7254" lon="4.76902">
        <ele>56.37</ele>
        <time>2013-03-19T12:47:08Z</time>
      </trkpt>
      <trkpt lat="43.72538" lon="4.76878">
        <ele>56.86</ele>
        <time>2013-03-19T12:47:22Z</time>
      </trkpt>
      <trkpt lat="43.72537" lon="4.76855">
        <ele>56.86</ele>
        <time>2013-03-19T12:47:37Z</time>
      </trkpt>
      <trkpt lat="43.72538" lon="4.76831">
        <ele>57.34</ele>
        <time>2013-03-19T12:47:53Z</time>
      </trkpt>
      <trkpt lat="43.72538" lon="4.76808">
        <ele>57.82</ele>
        <time>2013-03-19T12:48:08Z</time>
      </trkpt>
      <trkpt lat="43.72543" lon="4.76779">
        <ele>58.3</ele>
        <time>2013-03-19T12:48:23Z</time>
      </trkpt>
      <trkpt lat="43.72548" lon="4.76756">
        <ele>59.26</ele>
        <time>2013-03-19T12:48:38Z</time>
      </trkpt>
      <trkpt lat="43.72555" lon="4.76734">
        <ele>59.74</ele>
        <time>2013-03-19T12:48:52Z</time>
      </trkpt>
      <trkpt lat="43.72561" lon="4.76712">
        <ele>60.22</ele>
        <time>2013-03-19T12:49:07Z</time>
      </trkpt>
      <trkpt lat="43.72569" lon="4.76685">
        <ele>60.22</ele>
        <time>2013-03-19T12:49:24Z</time>
      </trkpt>
      <trkpt lat="43.72576" lon="4.76664">
        <ele>60.22</ele>
        <time>2013-03-19T12:49:38Z</time>
      </trkpt>
      <trkpt lat="43.72584" lon="4.76649">
        <ele>60.7</ele>
        <time>2013-03-19T12:49:48Z</time>
      </trkpt>
      <trkpt lat="43.72594" lon="4.7663">
        <ele>61.18</ele>
        <time>2013-03-19T12:50:04Z</time>
      </trkpt>
      <trkpt lat="43.72607" lon="4.7661">
        <ele>61.18</ele>
        <time>2013-03-19T12:50:21Z</time>
      </trkpt>
      <trkpt lat="43.72617" lon="4.76594">
        <ele>61.66</ele>
        <time>2013-03-19T12:50:35Z</time>
      </trkpt>
      <trkpt lat="43.7263" lon="4.76576">
        <ele>61.66</ele>
        <time>2013-03-19T12:50:50Z</time>
      </trkpt>
      <trkpt lat="43.72646" lon="4.76559">
        <ele>62.62</ele>
        <time>2013-03-19T12:51:06Z</time>
      </trkpt>
      <trkpt lat="43.72658" lon="4.76549">
        <ele>62.62</ele>
        <time>2013-03-19T12:51:19Z</time>
      </trkpt>
      <trkpt lat="43.72663" lon="4.76554">
        <ele>63.58</ele>
        <time>2013-03-19T12:51:32Z</time>
      </trkpt>
      <trkpt lat="43.72666" lon="4.76556">
        <ele>63.58</ele>
        <time>2013-03-19T12:51:35Z</time>
      </trkpt>
      <trkpt lat="43.72669" lon="4.76558">
        <ele>63.1</ele>
        <time>2013-03-19T12:51:53Z</time>
      </trkpt>
      <trkpt lat="43.72661" lon="4.76544">
        <ele>63.1</ele>
        <time>2013-03-19T12:52:06Z</time>
      </trkpt>
      <trkpt lat="43.72665" lon="4.76551">
        <ele>63.1</ele>
        <time>2013-03-19T12:52:35Z</time>
      </trkpt>
      <trkpt lat="43.72671" lon="4.76562">
        <ele>63.58</ele>
        <time>2013-03-19T12:52:48Z</time>
      </trkpt>
      <trkpt lat="43.72676" lon="4.76568">
        <ele>63.58</ele>
        <time>2013-03-19T12:53:11Z</time>
      </trkpt>
      <trkpt lat="43.72683" lon="4.76575">
        <ele>64.55</ele>
        <time>2013-03-19T12:53:23Z</time>
      </trkpt>
      <trkpt lat="43.72684" lon="4.76576">
        <ele>64.55</ele>
        <time>2013-03-19T12:53:24Z</time>
      </trkpt>
      <trkpt lat="43.727" lon="4.76582">
        <ele>65.03</ele>
        <time>2013-03-19T12:53:40Z</time>
      </trkpt>
      <trkpt lat="43.72715" lon="4.76596">
        <ele>65.51</ele>
        <time>2013-03-19T12:53:55Z</time>
      </trkpt>
      <trkpt lat="43.72725" lon="4.76604">
        <ele>65.99</ele>
        <time>2013-03-19T12:54:06Z</time>
      </trkpt>
      <trkpt lat="43.72736" lon="4.76605">
        <ele>66.95</ele>
        <time>2013-03-19T12:54:19Z</time>
      </trkpt>
      <trkpt lat="43.72745" lon="4.76613">
        <ele>67.43</ele>
        <time>2013-03-19T12:54:30Z</time>
      </trkpt>
      <trkpt lat="43.72752" lon="4.76621">
        <ele>67.91</ele>
        <time>2013-03-19T12:54:38Z</time>
      </trkpt>
      <trkpt lat="43.72764" lon="4.76637">
        <ele>67.91</ele>
        <time>2013-03-19T12:54:51Z</time>
      </trkpt>
      <trkpt lat="43.72775" lon="4.76649">
        <ele>67.91</ele>
        <time>2013-03-19T12:55:03Z</time>
      </trkpt>
      <trkpt lat="43.72781" lon="4.7666">
        <ele>68.39</ele>
        <time>2013-03-19T12:55:21Z</time>
      </trkpt>
      <trkpt lat="43.72788" lon="4.76656">
        <ele>68.87</ele>
        <time>2013-03-19T12:55:33Z</time>
      </trkpt>
      <trkpt lat="43.72789" lon="4.76648">
        <ele>68.39</ele>
        <time>2013-03-19T12:55:48Z</time>
      </trkpt>
      <trkpt lat="43.72797" lon="4.76659">
        <ele>68.87</ele>
        <time>2013-03-19T12:56:08Z</time>
      </trkpt>
      <trkpt lat="43.72811" lon="4.76672">
        <ele>68.87</ele>
        <time>2013-03-19T12:56:23Z</time>
      </trkpt>
      <trkpt lat="43.72827" lon="4.76678">
        <ele>69.35</ele>
        <time>2013-03-19T12:56:38Z</time>
      </trkpt>
      <trkpt lat="43.72841" lon="4.76676">
        <ele>70.31</ele>
        <time>2013-03-19T12:56:53Z</time>
      </trkpt>
      <trkpt lat="43.72861" lon="4.76669">
        <ele>70.79</ele>
        <time>2013-03-19T12:57:07Z</time>
      </trkpt>
      <trkpt lat="43.72873" lon="4.76671">
        <ele>72.24</ele>
        <time>2013-03-19T12:57:20Z</time>
      </trkpt>
      <trkpt lat="43.72886" lon="4.7667">
        <ele>73.2</ele>
        <time>2013-03-19T12:57:33Z</time>
      </trkpt>
      <trkpt lat="43.72902" lon="4.76674">
        <ele>74.16</ele>
        <time>2013-03-19T12:57:47Z</time>
      </trkpt>
      <trkpt lat="43.72901" lon="4.76676">
        <ele>74.64</ele>
        <time>2013-03-19T12:58:02Z</time>
      </trkpt>
      <trkpt lat="43.72908" lon="4.7668">
        <ele>75.6</ele>
        <time>2013-03-19T12:58:15Z</time>
      </trkpt>
      <trkpt lat="43.7292" lon="4.76694">
        <ele>75.6</ele>
        <time>2013-03-19T12:58:31Z</time>
      </trkpt>
      <trkpt lat="43.72927" lon="4.76697">
        <ele>76.56</ele>
        <time>2013-03-19T12:58:45Z</time>
      </trkpt>
      <trkpt lat="43.72921" lon="4.76696">
        <ele>76.56</ele>
        <time>2013-03-19T12:59:15Z</time>
      </trkpt>
      <trkpt lat="43.72923" lon="4.76692">
        <ele>76.56</ele>
        <time>2013-03-19T12:59:47Z</time>
      </trkpt>
      <trkpt lat="43.7293" lon="4.76698">
        <ele>76.56</ele>
        <time>2013-03-19T13:00:10Z</time>
      </trkpt>
      <trkpt lat="43.72943" lon="4.76703">
        <ele>78</ele>
        <time>2013-03-19T13:00:21Z</time>
      </trkpt>
      <trkpt lat="43.72954" lon="4.76705">
        <ele>78.97</ele>
        <time>2013-03-19T13:00:34Z</time>
      </trkpt>
      <trkpt lat="43.72966" lon="4.76702">
        <ele>80.41</ele>
        <time>2013-03-19T13:00:46Z</time>
      </trkpt>
      <trkpt lat="43.72978" lon="4.76701">
        <ele>81.85</ele>
        <time>2013-03-19T13:00:58Z</time>
      </trkpt>
      <trkpt lat="43.72992" lon="4.767">
        <ele>83.77</ele>
        <time>2013-03-19T13:01:11Z</time>
      </trkpt>
      <trkpt lat="43.72997" lon="4.76698">
        <ele>84.25</ele>
        <time>2013-03-19T13:01:16Z</time>
      </trkpt>
      <trkpt lat="43.73009" lon="4.76697">
        <ele>85.69</ele>
        <time>2013-03-19T13:01:27Z</time>
      </trkpt>
      <trkpt lat="43.73017" lon="4.76698">
        <ele>86.66</ele>
        <time>2013-03-19T13:01:39Z</time>
      </trkpt>
      <trkpt lat="43.73025" lon="4.76702">
        <ele>87.62</ele>
        <time>2013-03-19T13:01:49Z</time>
      </trkpt>
      <trkpt lat="43.7304" lon="4.76708">
        <ele>89.06</ele>
        <time>2013-03-19T13:02:04Z</time>
      </trkpt>
      <trkpt lat="43.73053" lon="4.76711">
        <ele>90.02</ele>
        <time>2013-03-19T13:02:17Z</time>
      </trkpt>
      <trkpt lat="43.73065" lon="4.76716">
        <ele>90.5</ele>
        <time>2013-03-19T13:02:29Z</time>
      </trkpt>
      <trkpt lat="43.73078" lon="4.76719">
        <ele>91.46</ele>
        <time>2013-03-19T13:02:40Z</time>
      </trkpt>
      <trkpt lat="43.7309" lon="4.76723">
        <ele>92.42</ele>
        <time>2013-03-19T13:02:52Z</time>
      </trkpt>
      <trkpt lat="43.73095" lon="4.76724">
        <ele>92.9</ele>
        <time>2013-03-19T13:02:56Z</time>
      </trkpt>
      <trkpt lat="43.73108" lon="4.76726">
        <ele>93.39</ele>
        <time>2013-03-19T13:03:09Z</time>
      </trkpt>
      <trkpt lat="43.73123" lon="4.76725">
        <ele>93.87</ele>
        <time>2013-03-19T13:03:21Z</time>
      </trkpt>
      <trkpt lat="43.73135" lon="4.7672">
        <ele>93.87</ele>
        <time>2013-03-19T13:03:33Z</time>
      </trkpt>
      <trkpt lat="43.73152" lon="4.76715">
        <ele>93.87</ele>
        <time>2013-03-19T13:03:46Z</time>
      </trkpt>
      <trkpt lat="43.73162" lon="4.76715">
        <ele>94.35</ele>
        <time>2013-03-19T13:03:55Z</time>
      </trkpt>
      <trkpt lat="43.73168" lon="4.76719">
        <ele>94.35</ele>
        <time>2013-03-19T13:04:00Z</time>
      </trkpt>
      <trkpt lat="43.73173" lon="4.76721">
        <ele>94.83</ele>
        <time>2013-03-19T13:04:05Z</time>
      </trkpt>
      <trkpt lat="43.73188" lon="4.76736">
        <ele>95.31</ele>
        <time>2013-03-19T13:04:19Z</time>
      </trkpt>
      <trkpt lat="43.73205" lon="4.76746">
        <ele>97.23</ele>
        <time>2013-03-19T13:04:34Z</time>
      </trkpt>
      <trkpt lat="43.73214" lon="4.76751">
        <ele>99.63</ele>
        <time>2013-03-19T13:04:45Z</time>
      </trkpt>
      <trkpt lat="43.73225" lon="4.76754">
        <ele>101.08</ele>
        <time>2013-03-19T13:04:57Z</time>
      </trkpt>
      <trkpt lat="43.73231" lon="4.76754">
        <ele>101.56</ele>
        <time>2013-03-19T13:05:17Z</time>
      </trkpt>
      <trkpt lat="43.73231" lon="4.76756">
        <ele>101.56</ele>
        <time>2013-03-19T13:05:34Z</time>
      </trkpt>
      <trkpt lat="43.73235" lon="4.76756">
        <ele>103</ele>
        <time>2013-03-19T13:05:50Z</time>
      </trkpt>
      <trkpt lat="43.73239" lon="4.76755">
        <ele>103.48</ele>
        <time>2013-03-19T13:06:15Z</time>
      </trkpt>
      <trkpt lat="43.73246" lon="4.76757">
        <ele>104.92</ele>
        <time>2013-03-19T13:06:29Z</time>
      </trkpt>
      <trkpt lat="43.73254" lon="4.76759">
        <ele>105.4</ele>
        <time>2013-03-19T13:06:39Z</time>
      </trkpt>
      <trkpt lat="43.73257" lon="4.76763">
        <ele>105.88</ele>
        <time>2013-03-19T13:06:47Z</time>
      </trkpt>
      <trkpt lat="43.7326" lon="4.76764">
        <ele>105.88</ele>
        <time>2013-03-19T13:06:50Z</time>
      </trkpt>
      <trkpt lat="43.73263" lon="4.76768">
        <ele>106.36</ele>
        <time>2013-03-19T13:06:55Z</time>
      </trkpt>
      <trkpt lat="43.73266" lon="4.76777">
        <ele>106.84</ele>
        <time>2013-03-19T13:07:04Z</time>
      </trkpt>
      <trkpt lat="43.73263" lon="4.76794">
        <ele>106.36</ele>
        <time>2013-03-19T13:07:19Z</time>
      </trkpt>
      <trkpt lat="43.73257" lon="4.76809">
        <ele>104.92</ele>
        <time>2013-03-19T13:07:33Z</time>
      </trkpt>
      <trkpt lat="43.73256" lon="4.76814">
        <ele>105.4</ele>
        <time>2013-03-19T13:07:44Z</time>
      </trkpt>
      <trkpt lat="43.73257" lon="4.7682">
        <ele>105.88</ele>
        <time>2013-03-19T13:07:51Z</time>
      </trkpt>
      <trkpt lat="43.73258" lon="4.76825">
        <ele>105.88</ele>
        <time>2013-03-19T13:07:56Z</time>
      </trkpt>
      <trkpt lat="43.7326" lon="4.76844">
        <ele>107.81</ele>
        <time>2013-03-19T13:08:10Z</time>
      </trkpt>
      <trkpt lat="43.73265" lon="4.76862">
        <ele>108.77</ele>
        <time>2013-03-19T13:08:22Z</time>
      </trkpt>
      <trkpt lat="43.73266" lon="4.76864">
        <ele>109.73</ele>
        <time>2013-03-19T13:08:24Z</time>
      </trkpt>
      <trkpt lat="43.73274" lon="4.76883">
        <ele>111.65</ele>
        <time>2013-03-19T13:08:37Z</time>
      </trkpt>
      <trkpt lat="43.73281" lon="4.76895">
        <ele>113.09</ele>
        <time>2013-03-19T13:08:49Z</time>
      </trkpt>
      <trkpt lat="43.73289" lon="4.76908">
        <ele>115.01</ele>
        <time>2013-03-19T13:09:01Z</time>
      </trkpt>
      <trkpt lat="43.73298" lon="4.76922">
        <ele>116.46</ele>
        <time>2013-03-19T13:09:14Z</time>
      </trkpt>
      <trkpt lat="43.73301" lon="4.76927">
        <ele>116.46</ele>
        <time>2013-03-19T13:09:18Z</time>
      </trkpt>
      <trkpt lat="43.73316" lon="4.76935">
        <ele>118.86</ele>
        <time>2013-03-19T13:09:33Z</time>
      </trkpt>
      <trkpt lat="43.73328" lon="4.7694">
        <ele>120.78</ele>
        <time>2013-03-19T13:09:47Z</time>
      </trkpt>
      <trkpt lat="43.73339" lon="4.76947">
        <ele>122.22</ele>
        <time>2013-03-19T13:10:01Z</time>
      </trkpt>
      <trkpt lat="43.73348" lon="4.76953">
        <ele>123.19</ele>
        <time>2013-03-19T13:10:10Z</time>
      </trkpt>
      <trkpt lat="43.73353" lon="4.76954">
        <ele>123.67</ele>
        <time>2013-03-19T13:10:14Z</time>
      </trkpt>
      <trkpt lat="43.73367" lon="4.76958">
        <ele>125.59</ele>
        <time>2013-03-19T13:10:31Z</time>
      </trkpt>
      <trkpt lat="43.73378" lon="4.76962">
        <ele>127.99</ele>
        <time>2013-03-19T13:10:45Z</time>
      </trkpt>
      <trkpt lat="43.73391" lon="4.76967">
        <ele>130.88</ele>
        <time>2013-03-19T13:11:00Z</time>
      </trkpt>
      <trkpt lat="43.73406" lon="4.76972">
        <ele>131.36</ele>
        <time>2013-03-19T13:11:14Z</time>
      </trkpt>
      <trkpt lat="43.73424" lon="4.76978">
        <ele>131.84</ele>
        <time>2013-03-19T13:11:28Z</time>
      </trkpt>
      <trkpt lat="43.73453" lon="4.76991">
        <ele>131.36</ele>
        <time>2013-03-19T13:11:46Z</time>
      </trkpt>
      <trkpt lat="43.73474" lon="4.76995">
        <ele>129.92</ele>
        <time>2013-03-19T13:12:03Z</time>
      </trkpt>
      <trkpt lat="43.73488" lon="4.77004">
        <ele>129.92</ele>
        <time>2013-03-19T13:12:18Z</time>
      </trkpt>
      <trkpt lat="43.73504" lon="4.7701">
        <ele>129.92</ele>
        <time>2013-03-19T13:12:33Z</time>
      </trkpt>
      <trkpt lat="43.73524" lon="4.77018">
        <ele>129.92</ele>
        <time>2013-03-19T13:12:50Z</time>
      </trkpt>
      <trkpt lat="43.73543" lon="4.77024">
        <ele>128.95</ele>
        <time>2013-03-19T13:13:03Z</time>
      </trkpt>
      <trkpt lat="43.73551" lon="4.77025">
        <ele>128.95</ele>
        <time>2013-03-19T13:13:18Z</time>
      </trkpt>
      <trkpt lat="43.73565" lon="4.77032">
        <ele>128.95</ele>
        <time>2013-03-19T13:13:31Z</time>
      </trkpt>
      <trkpt lat="43.73571" lon="4.7704">
        <ele>128.95</ele>
        <time>2013-03-19T13:13:44Z</time>
      </trkpt>
      <trkpt lat="43.73571" lon="4.7704">
        <ele>128.95</ele>
        <time>2013-03-19T13:14:02Z</time>
      </trkpt>
      <trkpt lat="43.73566" lon="4.77036">
        <ele>128.47</ele>
        <time>2013-03-19T13:14:13Z</time>
      </trkpt>
      <trkpt lat="43.73566" lon="4.77037">
        <ele>129.43</ele>
        <time>2013-03-19T13:14:31Z</time>
      </trkpt>
      <trkpt lat="43.73566" lon="4.77036">
        <ele>126.55</ele>
        <time>2013-03-19T13:14:34Z</time>
      </trkpt>
      <trkpt lat="43.73567" lon="4.77035">
        <ele>135.2</ele>
        <time>2013-03-19T13:14:36Z</time>
      </trkpt>
      <trkpt lat="43.73568" lon="4.77036">
        <ele>129.92</ele>
        <time>2013-03-19T13:14:37Z</time>
      </trkpt>
      <trkpt lat="43.73567" lon="4.77035">
        <ele>126.07</ele>
        <time>2013-03-19T13:14:40Z</time>
      </trkpt>
      <trkpt lat="43.73567" lon="4.77035">
        <ele>129.92</ele>
        <time>2013-03-19T13:14:41Z</time>
      </trkpt>
      <trkpt lat="43.73567" lon="4.77035">
        <ele>131.84</ele>
        <time>2013-03-19T13:14:44Z</time>
      </trkpt>
      <trkpt lat="43.73567" lon="4.77035">
        <ele>127.51</ele>
        <time>2013-03-19T13:14:47Z</time>
      </trkpt>
      <trkpt lat="43.73567" lon="4.77035">
        <ele>130.88</ele>
        <time>2013-03-19T13:14:48Z</time>
      </trkpt>
      <trkpt lat="43.73567" lon="4.77035">
        <ele>127.51</ele>
        <time>2013-03-19T13:14:49Z</time>
      </trkpt>
      <trkpt lat="43.73566" lon="4.77035">
        <ele>131.36</ele>
        <time>2013-03-19T13:14:51Z</time>
      </trkpt>
      <trkpt lat="43.73568" lon="4.77036">
        <ele>127.99</ele>
        <time>2013-03-19T13:14:54Z</time>
      </trkpt>
      <trkpt lat="43.73568" lon="4.77033">
        <ele>131.84</ele>
        <time>2013-03-19T13:14:56Z</time>
      </trkpt>
      <trkpt lat="43.73569" lon="4.77031">
        <ele>124.63</ele>
        <time>2013-03-19T13:14:58Z</time>
      </trkpt>
      <trkpt lat="43.73569" lon="4.77032">
        <ele>129.43</ele>
        <time>2013-03-19T13:14:59Z</time>
      </trkpt>
      <trkpt lat="43.73578" lon="4.7705">
        <ele>128.47</ele>
        <time>2013-03-19T13:15:16Z</time>
      </trkpt>
      <trkpt lat="43.73583" lon="4.77063">
        <ele>128.47</ele>
        <time>2013-03-19T13:15:23Z</time>
      </trkpt>
      <trkpt lat="43.73586" lon="4.77069">
        <ele>127.99</ele>
        <time>2013-03-19T13:15:28Z</time>
      </trkpt>
      <trkpt lat="43.736" lon="4.77092">
        <ele>127.03</ele>
        <time>2013-03-19T13:15:47Z</time>
      </trkpt>
      <trkpt lat="43.73608" lon="4.77104">
        <ele>126.55</ele>
        <time>2013-03-19T13:15:59Z</time>
      </trkpt>
      <trkpt lat="43.73611" lon="4.77128">
        <ele>124.63</ele>
        <time>2013-03-19T13:16:16Z</time>
      </trkpt>
      <trkpt lat="43.73617" lon="4.77156">
        <ele>122.22</ele>
        <time>2013-03-19T13:16:36Z</time>
      </trkpt>
      <trkpt lat="43.73631" lon="4.77182">
        <ele>119.82</ele>
        <time>2013-03-19T13:16:57Z</time>
      </trkpt>
      <trkpt lat="43.73638" lon="4.77186">
        <ele>119.34</ele>
        <time>2013-03-19T13:17:03Z</time>
      </trkpt>
      <trkpt lat="43.73648" lon="4.77198">
        <ele>116.94</ele>
        <time>2013-03-19T13:17:19Z</time>
      </trkpt>
      <trkpt lat="43.7365" lon="4.77212">
        <ele>115.5</ele>
        <time>2013-03-19T13:17:32Z</time>
      </trkpt>
      <trkpt lat="43.73651" lon="4.77238">
        <ele>113.57</ele>
        <time>2013-03-19T13:17:50Z</time>
      </trkpt>
      <trkpt lat="43.73655" lon="4.77256">
        <ele>112.13</ele>
        <time>2013-03-19T13:18:05Z</time>
      </trkpt>
      <trkpt lat="43.7367" lon="4.77249">
        <ele>113.57</ele>
        <time>2013-03-19T13:18:21Z</time>
      </trkpt>
      <trkpt lat="43.73684" lon="4.77239">
        <ele>113.09</ele>
        <time>2013-03-19T13:18:36Z</time>
      </trkpt>
      <trkpt lat="43.73685" lon="4.77238">
        <ele>113.09</ele>
        <time>2013-03-19T13:18:37Z</time>
      </trkpt>
      <trkpt lat="43.73691" lon="4.77226">
        <ele>113.09</ele>
        <time>2013-03-19T13:18:52Z</time>
      </trkpt>
      <trkpt lat="43.73695" lon="4.77212">
        <ele>112.61</ele>
        <time>2013-03-19T13:19:06Z</time>
      </trkpt>
      <trkpt lat="43.73693" lon="4.77209">
        <ele>112.61</ele>
        <time>2013-03-19T13:19:33Z</time>
      </trkpt>
      <trkpt lat="43.73689" lon="4.77211">
        <ele>114.05</ele>
        <time>2013-03-19T13:19:58Z</time>
      </trkpt>
      <trkpt lat="43.73686" lon="4.77217">
        <ele>112.13</ele>
        <time>2013-03-19T13:20:10Z</time>
      </trkpt>
      <trkpt lat="43.73688" lon="4.77223">
        <ele>112.61</ele>
        <time>2013-03-19T13:20:25Z</time>
      </trkpt>
      <trkpt lat="43.73687" lon="4.77228">
        <ele>113.09</ele>
        <time>2013-03-19T13:20:29Z</time>
      </trkpt>
      <trkpt lat="43.7368" lon="4.7724">
        <ele>113.57</ele>
        <time>2013-03-19T13:20:45Z</time>
      </trkpt>
      <trkpt lat="43.73681" lon="4.7724">
        <ele>112.61</ele>
        <time>2013-03-19T13:21:11Z</time>
      </trkpt>
      <trkpt lat="43.73684" lon="4.77239">
        <ele>112.61</ele>
        <time>2013-03-19T13:21:36Z</time>
      </trkpt>
      <trkpt lat="43.73679" lon="4.77236">
        <ele>113.09</ele>
        <time>2013-03-19T13:22:06Z</time>
      </trkpt>
      <trkpt lat="43.73676" lon="4.77236">
        <ele>112.61</ele>
        <time>2013-03-19T13:22:26Z</time>
      </trkpt>
      <trkpt lat="43.73674" lon="4.77247">
        <ele>112.61</ele>
        <time>2013-03-19T13:22:39Z</time>
      </trkpt>
      <trkpt lat="43.73676" lon="4.77261">
        <ele>111.65</ele>
        <time>2013-03-19T13:22:51Z</time>
      </trkpt>
      <trkpt lat="43.73674" lon="4.77279">
        <ele>112.61</ele>
        <time>2013-03-19T13:23:05Z</time>
      </trkpt>
      <trkpt lat="43.73674" lon="4.77295">
        <ele>111.17</ele>
        <time>2013-03-19T13:23:17Z</time>
      </trkpt>
      <trkpt lat="43.73675" lon="4.77314">
        <ele>110.21</ele>
        <time>2013-03-19T13:23:30Z</time>
      </trkpt>
      <trkpt lat="43.73673" lon="4.77333">
        <ele>110.21</ele>
        <time>2013-03-19T13:23:43Z</time>
      </trkpt>
      <trkpt lat="43.73676" lon="4.77349">
        <ele>108.77</ele>
        <time>2013-03-19T13:23:55Z</time>
      </trkpt>
      <trkpt lat="43.73683" lon="4.77365">
        <ele>109.25</ele>
        <time>2013-03-19T13:24:10Z</time>
      </trkpt>
      <trkpt lat="43.73689" lon="4.77382">
        <ele>109.73</ele>
        <time>2013-03-19T13:24:22Z</time>
      </trkpt>
      <trkpt lat="43.73691" lon="4.77394">
        <ele>109.73</ele>
        <time>2013-03-19T13:24:34Z</time>
      </trkpt>
      <trkpt lat="43.73691" lon="4.77397">
        <ele>108.77</ele>
        <time>2013-03-19T13:24:38Z</time>
      </trkpt>
      <trkpt lat="43.73691" lon="4.77405">
        <ele>109.25</ele>
        <time>2013-03-19T13:24:45Z</time>
      </trkpt>
      <trkpt lat="43.7369" lon="4.77423">
        <ele>107.32</ele>
        <time>2013-03-19T13:24:58Z</time>
      </trkpt>
      <trkpt lat="43.7369" lon="4.77432">
        <ele>107.32</ele>
        <time>2013-03-19T13:25:03Z</time>
      </trkpt>
      <trkpt lat="43.73689" lon="4.77442">
        <ele>106.84</ele>
        <time>2013-03-19T13:25:10Z</time>
      </trkpt>
      <trkpt lat="43.73688" lon="4.77463">
        <ele>104.92</ele>
        <time>2013-03-19T13:25:23Z</time>
      </trkpt>
      <trkpt lat="43.73689" lon="4.77472">
        <ele>103.96</ele>
        <time>2013-03-19T13:25:29Z</time>
      </trkpt>
      <trkpt lat="43.73689" lon="4.77477">
        <ele>103.48</ele>
        <time>2013-03-19T13:25:46Z</time>
      </trkpt>
      <trkpt lat="43.73691" lon="4.77476">
        <ele>103.48</ele>
        <time>2013-03-19T13:26:12Z</time>
      </trkpt>
      <trkpt lat="43.73685" lon="4.77497">
        <ele>102.04</ele>
        <time>2013-03-19T13:26:28Z</time>
      </trkpt>
      <trkpt lat="43.73683" lon="4.77505">
        <ele>101.56</ele>
        <time>2013-03-19T13:26:36Z</time>
      </trkpt>
      <trkpt lat="43.7368" lon="4.77516">
        <ele>100.6</ele>
        <time>2013-03-19T13:26:44Z</time>
      </trkpt>
      <trkpt lat="43.73679" lon="4.77521">
        <ele>99.63</ele>
        <time>2013-03-19T13:26:48Z</time>
      </trkpt>
      <trkpt lat="43.73679" lon="4.77532">
        <ele>98.67</ele>
        <time>2013-03-19T13:26:56Z</time>
      </trkpt>
      <trkpt lat="43.73677" lon="4.77537">
        <ele>98.19</ele>
        <time>2013-03-19T13:27:00Z</time>
      </trkpt>
      <trkpt lat="43.73676" lon="4.77546">
        <ele>97.71</ele>
        <time>2013-03-19T13:27:06Z</time>
      </trkpt>
      <trkpt lat="43.73674" lon="4.77565">
        <ele>96.75</ele>
        <time>2013-03-19T13:27:21Z</time>
      </trkpt>
      <trkpt lat="43.7367" lon="4.77586">
        <ele>95.31</ele>
        <time>2013-03-19T13:27:35Z</time>
      </trkpt>
      <trkpt lat="43.73667" lon="4.77606">
        <ele>94.35</ele>
        <time>2013-03-19T13:27:48Z</time>
      </trkpt>
      <trkpt lat="43.73663" lon="4.77628">
        <ele>92.42</ele>
        <time>2013-03-19T13:28:04Z</time>
      </trkpt>
      <trkpt lat="43.73662" lon="4.77629">
        <ele>91.94</ele>
        <time>2013-03-19T13:28:05Z</time>
      </trkpt>
      <trkpt lat="43.73657" lon="4.77644">
        <ele>90.98</ele>
        <time>2013-03-19T13:28:17Z</time>
      </trkpt>
      <trkpt lat="43.73658" lon="4.77649">
        <ele>90.98</ele>
        <time>2013-03-19T13:28:19Z</time>
      </trkpt>
      <trkpt lat="43.73669" lon="4.77666">
        <ele>90.98</ele>
        <time>2013-03-19T13:28:33Z</time>
      </trkpt>
      <trkpt lat="43.73674" lon="4.7769">
        <ele>90.02</ele>
        <time>2013-03-19T13:28:49Z</time>
      </trkpt>
      <trkpt lat="43.73679" lon="4.77713">
        <ele>90.02</ele>
        <time>2013-03-19T13:29:03Z</time>
      </trkpt>
      <trkpt lat="43.73679" lon="4.77717">
        <ele>89.54</ele>
        <time>2013-03-19T13:29:06Z</time>
      </trkpt>
      <trkpt lat="43.73682" lon="4.77741">
        <ele>89.54</ele>
        <time>2013-03-19T13:29:22Z</time>
      </trkpt>
      <trkpt lat="43.73683" lon="4.77762">
        <ele>88.58</ele>
        <time>2013-03-19T13:29:35Z</time>
      </trkpt>
      <trkpt lat="43.73684" lon="4.77769">
        <ele>88.58</ele>
        <time>2013-03-19T13:29:40Z</time>
      </trkpt>
      <trkpt lat="43.73684" lon="4.77778">
        <ele>88.58</ele>
        <time>2013-03-19T13:29:46Z</time>
      </trkpt>
      <trkpt lat="43.73685" lon="4.77786">
        <ele>88.58</ele>
        <time>2013-03-19T13:29:51Z</time>
      </trkpt>
      <trkpt lat="43.73686" lon="4.77798">
        <ele>89.06</ele>
        <time>2013-03-19T13:30:06Z</time>
      </trkpt>
      <trkpt lat="43.73687" lon="4.77818">
        <ele>89.54</ele>
        <time>2013-03-19T13:30:20Z</time>
      </trkpt>
      <trkpt lat="43.73688" lon="4.7784">
        <ele>90.02</ele>
        <time>2013-03-19T13:30:34Z</time>
      </trkpt>
      <trkpt lat="43.7369" lon="4.77861">
        <ele>90.5</ele>
        <time>2013-03-19T13:30:48Z</time>
      </trkpt>
      <trkpt lat="43.73697" lon="4.77882">
        <ele>91.94</ele>
        <time>2013-03-19T13:31:03Z</time>
      </trkpt>
      <trkpt lat="43.73702" lon="4.77891">
        <ele>92.9</ele>
        <time>2013-03-19T13:31:14Z</time>
      </trkpt>
      <trkpt lat="43.73703" lon="4.77892">
        <ele>92.9</ele>
        <time>2013-03-19T13:31:16Z</time>
      </trkpt>
      <trkpt lat="43.73715" lon="4.77883">
        <ele>92.42</ele>
        <time>2013-03-19T13:31:28Z</time>
      </trkpt>
      <trkpt lat="43.73722" lon="4.77879">
        <ele>92.9</ele>
        <time>2013-03-19T13:31:40Z</time>
      </trkpt>
      <trkpt lat="43.73716" lon="4.77874">
        <ele>92.9</ele>
        <time>2013-03-19T13:31:56Z</time>
      </trkpt>
      <trkpt lat="43.73702" lon="4.77877">
        <ele>93.39</ele>
        <time>2013-03-19T13:32:21Z</time>
      </trkpt>
      <trkpt lat="43.73716" lon="4.77878">
        <ele>92.42</ele>
        <time>2013-03-19T13:32:34Z</time>
      </trkpt>
      <trkpt lat="43.73714" lon="4.77882">
        <ele>92.42</ele>
        <time>2013-03-19T13:32:39Z</time>
      </trkpt>
      <trkpt lat="43.7371" lon="4.77888">
        <ele>93.39</ele>
        <time>2013-03-19T13:32:45Z</time>
      </trkpt>
      <trkpt lat="43.73709" lon="4.77891">
        <ele>92.9</ele>
        <time>2013-03-19T13:32:48Z</time>
      </trkpt>
      <trkpt lat="43.73707" lon="4.77896">
        <ele>93.39</ele>
        <time>2013-03-19T13:32:52Z</time>
      </trkpt>
      <trkpt lat="43.7371" lon="4.77903">
        <ele>94.35</ele>
        <time>2013-03-19T13:32:58Z</time>
      </trkpt>
      <trkpt lat="43.73714" lon="4.77918">
        <ele>95.31</ele>
        <time>2013-03-19T13:33:10Z</time>
      </trkpt>
      <trkpt lat="43.73721" lon="4.77927">
        <ele>96.27</ele>
        <time>2013-03-19T13:33:19Z</time>
      </trkpt>
      <trkpt lat="43.73731" lon="4.77946">
        <ele>97.71</ele>
        <time>2013-03-19T13:33:34Z</time>
      </trkpt>
      <trkpt lat="43.73736" lon="4.77958">
        <ele>98.67</ele>
        <time>2013-03-19T13:33:44Z</time>
      </trkpt>
      <trkpt lat="43.7374" lon="4.77979">
        <ele>100.11</ele>
        <time>2013-03-19T13:33:58Z</time>
      </trkpt>
      <trkpt lat="43.73744" lon="4.77995">
        <ele>101.56</ele>
        <time>2013-03-19T13:34:10Z</time>
      </trkpt>
      <trkpt lat="43.73746" lon="4.78006">
        <ele>103</ele>
        <time>2013-03-19T13:34:18Z</time>
      </trkpt>
      <trkpt lat="43.7375" lon="4.7802">
        <ele>104.44</ele>
        <time>2013-03-19T13:34:29Z</time>
      </trkpt>
      <trkpt lat="43.73751" lon="4.78021">
        <ele>104.92</ele>
        <time>2013-03-19T13:34:30Z</time>
      </trkpt>
      <trkpt lat="43.7375" lon="4.78034">
        <ele>106.36</ele>
        <time>2013-03-19T13:34:43Z</time>
      </trkpt>
      <trkpt lat="43.73747" lon="4.78036">
        <ele>106.84</ele>
        <time>2013-03-19T13:34:47Z</time>
      </trkpt>
      <trkpt lat="43.73733" lon="4.78027">
        <ele>107.81</ele>
        <time>2013-03-19T13:35:01Z</time>
      </trkpt>
      <trkpt lat="43.73721" lon="4.78017">
        <ele>108.77</ele>
        <time>2013-03-19T13:35:13Z</time>
      </trkpt>
      <trkpt lat="43.73721" lon="4.78017">
        <ele>108.29</ele>
        <time>2013-03-19T13:35:14Z</time>
      </trkpt>
      <trkpt lat="43.73706" lon="4.78008">
        <ele>109.25</ele>
        <time>2013-03-19T13:35:28Z</time>
      </trkpt>
      <trkpt lat="43.73694" lon="4.78008">
        <ele>109.73</ele>
        <time>2013-03-19T13:35:39Z</time>
      </trkpt>
      <trkpt lat="43.73681" lon="4.78015">
        <ele>110.69</ele>
        <time>2013-03-19T13:35:51Z</time>
      </trkpt>
      <trkpt lat="43.73676" lon="4.78032">
        <ele>112.13</ele>
        <time>2013-03-19T13:36:04Z</time>
      </trkpt>
      <trkpt lat="43.73683" lon="4.78051">
        <ele>113.09</ele>
        <time>2013-03-19T13:36:18Z</time>
      </trkpt>
      <trkpt lat="43.73688" lon="4.7806">
        <ele>114.05</ele>
        <time>2013-03-19T13:36:26Z</time>
      </trkpt>
      <trkpt lat="43.73695" lon="4.78078">
        <ele>115.98</ele>
        <time>2013-03-19T13:36:39Z</time>
      </trkpt>
      <trkpt lat="43.73703" lon="4.78092">
        <ele>117.42</ele>
        <time>2013-03-19T13:36:51Z</time>
      </trkpt>
      <trkpt lat="43.73713" lon="4.78101">
        <ele>118.38</ele>
        <time>2013-03-19T13:37:02Z</time>
      </trkpt>
      <trkpt lat="43.73729" lon="4.7811">
        <ele>118.86</ele>
        <time>2013-03-19T13:37:17Z</time>
      </trkpt>
      <trkpt lat="43.73744" lon="4.78117">
        <ele>120.3</ele>
        <time>2013-03-19T13:37:30Z</time>
      </trkpt>
      <trkpt lat="43.7375" lon="4.78113">
        <ele>119.34</ele>
        <time>2013-03-19T13:37:43Z</time>
      </trkpt>
      <trkpt lat="43.73749" lon="4.78113">
        <ele>119.82</ele>
        <time>2013-03-19T13:37:52Z</time>
      </trkpt>
      <trkpt lat="43.73756" lon="4.78116">
        <ele>119.82</ele>
        <time>2013-03-19T13:37:59Z</time>
      </trkpt>
      <trkpt lat="43.73768" lon="4.78123">
        <ele>120.78</ele>
        <time>2013-03-19T13:38:10Z</time>
      </trkpt>
      <trkpt lat="43.73776" lon="4.78135">
        <ele>120.3</ele>
        <time>2013-03-19T13:38:28Z</time>
      </trkpt>
      <trkpt lat="43.73777" lon="4.78145">
        <ele>120.3</ele>
        <time>2013-03-19T13:38:41Z</time>
      </trkpt>
      <trkpt lat="43.73777" lon="4.78152">
        <ele>119.34</ele>
        <time>2013-03-19T13:38:46Z</time>
      </trkpt>
      <trkpt lat="43.73776" lon="4.78158">
        <ele>115.01</ele>
        <time>2013-03-19T13:38:50Z</time>
      </trkpt>
      <trkpt lat="43.73776" lon="4.78159">
        <ele>121.26</ele>
        <time>2013-03-19T13:38:51Z</time>
      </trkpt>
      <trkpt lat="43.73775" lon="4.7816">
        <ele>116.94</ele>
        <time>2013-03-19T13:38:52Z</time>
      </trkpt>
      <trkpt lat="43.73775" lon="4.78163">
        <ele>118.86</ele>
        <time>2013-03-19T13:38:54Z</time>
      </trkpt>
      <trkpt lat="43.73781" lon="4.78189">
        <ele>115.5</ele>
        <time>2013-03-19T13:39:11Z</time>
      </trkpt>
      <trkpt lat="43.73785" lon="4.78211">
        <ele>115.01</ele>
        <time>2013-03-19T13:39:26Z</time>
      </trkpt>
      <trkpt lat="43.73787" lon="4.78232">
        <ele>113.57</ele>
        <time>2013-03-19T13:39:40Z</time>
      </trkpt>
      <trkpt lat="43.73794" lon="4.78258">
        <ele>112.13</ele>
        <time>2013-03-19T13:39:57Z</time>
      </trkpt>
      <trkpt lat="43.73802" lon="4.7828">
        <ele>111.17</ele>
        <time>2013-03-19T13:40:12Z</time>
      </trkpt>
      <trkpt lat="43.73815" lon="4.78293">
        <ele>111.17</ele>
        <time>2013-03-19T13:40:26Z</time>
      </trkpt>
      <trkpt lat="43.7382" lon="4.78299">
        <ele>111.65</ele>
        <time>2013-03-19T13:40:45Z</time>
      </trkpt>
      <trkpt lat="43.73819" lon="4.78304">
        <ele>111.65</ele>
        <time>2013-03-19T13:41:10Z</time>
      </trkpt>
      <trkpt lat="43.73828" lon="4.78306">
        <ele>111.65</ele>
        <time>2013-03-19T13:41:23Z</time>
      </trkpt>
      <trkpt lat="43.7383" lon="4.78315">
        <ele>111.17</ele>
        <time>2013-03-19T13:41:38Z</time>
      </trkpt>
      <trkpt lat="43.73828" lon="4.78313">
        <ele>111.17</ele>
        <time>2013-03-19T13:41:40Z</time>
      </trkpt>
      <trkpt lat="43.73824" lon="4.78312">
        <ele>111.17</ele>
        <time>2013-03-19T13:41:55Z</time>
      </trkpt>
      <trkpt lat="43.73831" lon="4.78314">
        <ele>111.65</ele>
        <time>2013-03-19T13:42:25Z</time>
      </trkpt>
      <trkpt lat="43.73829" lon="4.78313">
        <ele>111.65</ele>
        <time>2013-03-19T13:42:45Z</time>
      </trkpt>
      <trkpt lat="43.73829" lon="4.78314">
        <ele>111.65</ele>
        <time>2013-03-19T13:43:05Z</time>
      </trkpt>
      <trkpt lat="43.73832" lon="4.78314">
        <ele>111.65</ele>
        <time>2013-03-19T13:43:30Z</time>
      </trkpt>
      <trkpt lat="43.7383" lon="4.78315">
        <ele>111.65</ele>
        <time>2013-03-19T13:44:01Z</time>
      </trkpt>
      <trkpt lat="43.7383" lon="4.78324">
        <ele>111.65</ele>
        <time>2013-03-19T13:44:14Z</time>
      </trkpt>
      <trkpt lat="43.73826" lon="4.78335">
        <ele>112.13</ele>
        <time>2013-03-19T13:44:28Z</time>
      </trkpt>
      <trkpt lat="43.73827" lon="4.78335">
        <ele>112.13</ele>
        <time>2013-03-19T13:44:48Z</time>
      </trkpt>
      <trkpt lat="43.73818" lon="4.78354">
        <ele>113.57</ele>
        <time>2013-03-19T13:45:02Z</time>
      </trkpt>
      <trkpt lat="43.73816" lon="4.78363">
        <ele>114.53</ele>
        <time>2013-03-19T13:45:09Z</time>
      </trkpt>
      <trkpt lat="43.73811" lon="4.7838">
        <ele>115.01</ele>
        <time>2013-03-19T13:45:22Z</time>
      </trkpt>
      <trkpt lat="43.73809" lon="4.7839">
        <ele>115.98</ele>
        <time>2013-03-19T13:45:36Z</time>
      </trkpt>
      <trkpt lat="43.73806" lon="4.78406">
        <ele>116.94</ele>
        <time>2013-03-19T13:45:49Z</time>
      </trkpt>
      <trkpt lat="43.73808" lon="4.78415">
        <ele>117.9</ele>
        <time>2013-03-19T13:45:55Z</time>
      </trkpt>
      <trkpt lat="43.73809" lon="4.78422">
        <ele>117.9</ele>
        <time>2013-03-19T13:46:00Z</time>
      </trkpt>
      <trkpt lat="43.73815" lon="4.78426">
        <ele>117.42</ele>
        <time>2013-03-19T13:46:11Z</time>
      </trkpt>
      <trkpt lat="43.7382" lon="4.78442">
        <ele>117.9</ele>
        <time>2013-03-19T13:46:22Z</time>
      </trkpt>
      <trkpt lat="43.73827" lon="4.78452">
        <ele>117.9</ele>
        <time>2013-03-19T13:46:38Z</time>
      </trkpt>
      <trkpt lat="43.73831" lon="4.78459">
        <ele>117.9</ele>
        <time>2013-03-19T13:46:52Z</time>
      </trkpt>
      <trkpt lat="43.7384" lon="4.78473">
        <ele>118.38</ele>
        <time>2013-03-19T13:47:05Z</time>
      </trkpt>
      <trkpt lat="43.7385" lon="4.78488">
        <ele>118.38</ele>
        <time>2013-03-19T13:47:19Z</time>
      </trkpt>
      <trkpt lat="43.73866" lon="4.78497">
        <ele>119.34</ele>
        <time>2013-03-19T13:47:34Z</time>
      </trkpt>
      <trkpt lat="43.73885" lon="4.78502">
        <ele>119.82</ele>
        <time>2013-03-19T13:47:49Z</time>
      </trkpt>
      <trkpt lat="43.739" lon="4.78504">
        <ele>120.78</ele>
        <time>2013-03-19T13:48:04Z</time>
      </trkpt>
      <trkpt lat="43.73912" lon="4.78509">
        <ele>121.74</ele>
        <time>2013-03-19T13:48:16Z</time>
      </trkpt>
      <trkpt lat="43.73925" lon="4.78517">
        <ele>121.74</ele>
        <time>2013-03-19T13:48:29Z</time>
      </trkpt>
      <trkpt lat="43.73937" lon="4.78526">
        <ele>121.74</ele>
        <time>2013-03-19T13:48:42Z</time>
      </trkpt>
      <trkpt lat="43.7394" lon="4.78535">
        <ele>121.26</ele>
        <time>2013-03-19T13:48:57Z</time>
      </trkpt>
      <trkpt lat="43.73944" lon="4.78541">
        <ele>120.78</ele>
        <time>2013-03-19T13:49:05Z</time>
      </trkpt>
      <trkpt lat="43.73957" lon="4.78554">
        <ele>120.78</ele>
        <time>2013-03-19T13:49:18Z</time>
      </trkpt>
      <trkpt lat="43.73962" lon="4.78559">
        <ele>124.63</ele>
        <time>2013-03-19T13:49:24Z</time>
      </trkpt>
      <trkpt lat="43.73967" lon="4.78562">
        <ele>121.26</ele>
        <time>2013-03-19T13:49:30Z</time>
      </trkpt>
      <trkpt lat="43.73971" lon="4.78554">
        <ele>122.22</ele>
        <time>2013-03-19T13:49:46Z</time>
      </trkpt>
      <trkpt lat="43.73972" lon="4.78559">
        <ele>122.22</ele>
        <time>2013-03-19T13:50:08Z</time>
      </trkpt>
      <trkpt lat="43.73982" lon="4.78571">
        <ele>121.26</ele>
        <time>2013-03-19T13:50:21Z</time>
      </trkpt>
      <trkpt lat="43.73998" lon="4.78583">
        <ele>120.3</ele>
        <time>2013-03-19T13:50:37Z</time>
      </trkpt>
      <trkpt lat="43.74006" lon="4.78586">
        <ele>119.34</ele>
        <time>2013-03-19T13:50:45Z</time>
      </trkpt>
      <trkpt lat="43.7402" lon="4.78589">
        <ele>116.46</ele>
        <time>2013-03-19T13:51:01Z</time>
      </trkpt>
      <trkpt lat="43.7403" lon="4.78591">
        <ele>115.98</ele>
        <time>2013-03-19T13:51:10Z</time>
      </trkpt>
      <trkpt lat="43.74036" lon="4.78599">
        <ele>115.01</ele>
        <time>2013-03-19T13:51:27Z</time>
      </trkpt>
      <trkpt lat="43.74038" lon="4.78599">
        <ele>115.5</ele>
        <time>2013-03-19T13:51:49Z</time>
      </trkpt>
      <trkpt lat="43.74037" lon="4.786">
        <ele>115.01</ele>
        <time>2013-03-19T13:52:08Z</time>
      </trkpt>
      <trkpt lat="43.74045" lon="4.78611">
        <ele>114.05</ele>
        <time>2013-03-19T13:52:20Z</time>
      </trkpt>
      <trkpt lat="43.74053" lon="4.78625">
        <ele>114.53</ele>
        <time>2013-03-19T13:52:31Z</time>
      </trkpt>
      <trkpt lat="43.74055" lon="4.78627">
        <ele>113.09</ele>
        <time>2013-03-19T13:52:33Z</time>
      </trkpt>
      <trkpt lat="43.74064" lon="4.78645">
        <ele>112.61</ele>
        <time>2013-03-19T13:52:48Z</time>
      </trkpt>
      <trkpt lat="43.74081" lon="4.78667">
        <ele>113.09</ele>
        <time>2013-03-19T13:53:04Z</time>
      </trkpt>
      <trkpt lat="43.74082" lon="4.78669">
        <ele>116.46</ele>
        <time>2013-03-19T13:53:06Z</time>
      </trkpt>
      <trkpt lat="43.74084" lon="4.78673">
        <ele>112.61</ele>
        <time>2013-03-19T13:53:09Z</time>
      </trkpt>
      <trkpt lat="43.74093" lon="4.78693">
        <ele>113.09</ele>
        <time>2013-03-19T13:53:25Z</time>
      </trkpt>
      <trkpt lat="43.74094" lon="4.78699">
        <ele>113.57</ele>
        <time>2013-03-19T13:53:29Z</time>
      </trkpt>
      <trkpt lat="43.74092" lon="4.78707">
        <ele>113.09</ele>
        <time>2013-03-19T13:53:34Z</time>
      </trkpt>
      <trkpt lat="43.7409" lon="4.78716">
        <ele>114.05</ele>
        <time>2013-03-19T13:53:41Z</time>
      </trkpt>
      <trkpt lat="43.74094" lon="4.78744">
        <ele>115.5</ele>
        <time>2013-03-19T13:53:56Z</time>
      </trkpt>
      <trkpt lat="43.74102" lon="4.78764">
        <ele>116.46</ele>
        <time>2013-03-19T13:54:11Z</time>
      </trkpt>
      <trkpt lat="43.74108" lon="4.78783">
        <ele>116.46</ele>
        <time>2013-03-19T13:54:24Z</time>
      </trkpt>
      <trkpt lat="43.74111" lon="4.78804">
        <ele>115.98</ele>
        <time>2013-03-19T13:54:38Z</time>
      </trkpt>
      <trkpt lat="43.74116" lon="4.78814">
        <ele>115.98</ele>
        <time>2013-03-19T13:54:52Z</time>
      </trkpt>
      <trkpt lat="43.74118" lon="4.78829">
        <ele>115.5</ele>
        <time>2013-03-19T13:55:04Z</time>
      </trkpt>
      <trkpt lat="43.74121" lon="4.78842">
        <ele>115.5</ele>
        <time>2013-03-19T13:55:14Z</time>
      </trkpt>
      <trkpt lat="43.74123" lon="4.78846">
        <ele>115.5</ele>
        <time>2013-03-19T13:55:17Z</time>
      </trkpt>
      <trkpt lat="43.74124" lon="4.78853">
        <ele>114.53</ele>
        <time>2013-03-19T13:55:23Z</time>
      </trkpt>
      <trkpt lat="43.74121" lon="4.78864">
        <ele>115.01</ele>
        <time>2013-03-19T13:55:36Z</time>
      </trkpt>
      <trkpt lat="43.74112" lon="4.7888">
        <ele>114.05</ele>
        <time>2013-03-19T13:55:50Z</time>
      </trkpt>
      <trkpt lat="43.74112" lon="4.78881">
        <ele>114.05</ele>
        <time>2013-03-19T13:55:51Z</time>
      </trkpt>
      <trkpt lat="43.74105" lon="4.78904">
        <ele>115.5</ele>
        <time>2013-03-19T13:56:06Z</time>
      </trkpt>
      <trkpt lat="43.741" lon="4.7891">
        <ele>115.5</ele>
        <time>2013-03-19T13:56:12Z</time>
      </trkpt>
      <trkpt lat="43.74092" lon="4.78929">
        <ele>116.46</ele>
        <time>2013-03-19T13:56:26Z</time>
      </trkpt>
      <trkpt lat="43.74091" lon="4.7893">
        <ele>116.46</ele>
        <time>2013-03-19T13:56:28Z</time>
      </trkpt>
      <trkpt lat="43.74088" lon="4.78936">
        <ele>116.46</ele>
        <time>2013-03-19T13:56:33Z</time>
      </trkpt>
      <trkpt lat="43.74082" lon="4.78956">
        <ele>116.94</ele>
        <time>2013-03-19T13:56:47Z</time>
      </trkpt>
      <trkpt lat="43.74075" lon="4.78968">
        <ele>117.42</ele>
        <time>2013-03-19T13:57:00Z</time>
      </trkpt>
      <trkpt lat="43.74069" lon="4.7897">
        <ele>116.94</ele>
        <time>2013-03-19T13:57:05Z</time>
      </trkpt>
      <trkpt lat="43.74066" lon="4.78973">
        <ele>118.38</ele>
        <time>2013-03-19T13:57:08Z</time>
      </trkpt>
      <trkpt lat="43.74066" lon="4.78975">
        <ele>117.9</ele>
        <time>2013-03-19T13:57:09Z</time>
      </trkpt>
      <trkpt lat="43.74059" lon="4.78986">
        <ele>119.34</ele>
        <time>2013-03-19T13:57:21Z</time>
      </trkpt>
      <trkpt lat="43.74061" lon="4.78991">
        <ele>119.82</ele>
        <time>2013-03-19T13:57:25Z</time>
      </trkpt>
      <trkpt lat="43.74068" lon="4.79">
        <ele>120.3</ele>
        <time>2013-03-19T13:57:38Z</time>
      </trkpt>
      <trkpt lat="43.74073" lon="4.79001">
        <ele>113.09</ele>
        <time>2013-03-19T13:57:51Z</time>
      </trkpt>
      <trkpt lat="43.74073" lon="4.79001">
        <ele>126.55</ele>
        <time>2013-03-19T13:57:52Z</time>
      </trkpt>
      <trkpt lat="43.74074" lon="4.79001">
        <ele>120.3</ele>
        <time>2013-03-19T13:57:53Z</time>
      </trkpt>
      <trkpt lat="43.74074" lon="4.79001">
        <ele>119.82</ele>
        <time>2013-03-19T13:57:54Z</time>
      </trkpt>
      <trkpt lat="43.74077" lon="4.79003">
        <ele>120.3</ele>
        <time>2013-03-19T13:58:09Z</time>
      </trkpt>
      <trkpt lat="43.7409" lon="4.79019">
        <ele>120.3</ele>
        <time>2013-03-19T13:58:24Z</time>
      </trkpt>
      <trkpt lat="43.74095" lon="4.79023">
        <ele>121.26</ele>
        <time>2013-03-19T13:58:32Z</time>
      </trkpt>
      <trkpt lat="43.74103" lon="4.7903">
        <ele>121.26</ele>
        <time>2013-03-19T13:58:45Z</time>
      </trkpt>
      <trkpt lat="43.74105" lon="4.79031">
        <ele>121.74</ele>
        <time>2013-03-19T13:59:06Z</time>
      </trkpt>
      <trkpt lat="43.74115" lon="4.79039">
        <ele>122.22</ele>
        <time>2013-03-19T13:59:21Z</time>
      </trkpt>
      <trkpt lat="43.74126" lon="4.79048">
        <ele>123.19</ele>
        <time>2013-03-19T13:59:33Z</time>
      </trkpt>
      <trkpt lat="43.74139" lon="4.79055">
        <ele>124.15</ele>
        <time>2013-03-19T13:59:47Z</time>
      </trkpt>
      <trkpt lat="43.74155" lon="4.79061">
        <ele>124.63</ele>
        <time>2013-03-19T14:00:01Z</time>
      </trkpt>
      <trkpt lat="43.74167" lon="4.79067">
        <ele>126.07</ele>
        <time>2013-03-19T14:00:14Z</time>
      </trkpt>
      <trkpt lat="43.74174" lon="4.79073">
        <ele>126.55</ele>
        <time>2013-03-19T14:00:26Z</time>
      </trkpt>
      <trkpt lat="43.74179" lon="4.79068">
        <ele>127.03</ele>
        <time>2013-03-19T14:00:43Z</time>
      </trkpt>
      <trkpt lat="43.74181" lon="4.79068">
        <ele>130.88</ele>
        <time>2013-03-19T14:00:49Z</time>
      </trkpt>
      <trkpt lat="43.74181" lon="4.79067">
        <ele>126.55</ele>
        <time>2013-03-19T14:00:50Z</time>
      </trkpt>
      <trkpt lat="43.74182" lon="4.79066">
        <ele>129.43</ele>
        <time>2013-03-19T14:01:13Z</time>
      </trkpt>
    </trkseg>
  </trk>
</gpx>